﻿<?xml version="1.0" encoding="utf-8"?><gpx creator="Garmin Desktop App" version="1.1" xsi:schemaLocation="http://www.topografix.com/GPX/1/1 http://www.topografix.com/GPX/1/1/gpx.xsd http://www.garmin.com/xmlschemas/WaypointExtension/v1 http://www8.garmin.com/xmlschemas/WaypointExtensionv1.xsd http://www.garmin.com/xmlschemas/TrackPointExtension/v1 http://www.garmin.com/xmlschemas/TrackPointExtensionv1.xsd http://www.garmin.com/xmlschemas/GpxExtensions/v3 http://www8.garmin.com/xmlschemas/GpxExtensionsv3.xsd http://www.garmin.com/xmlschemas/ActivityExtension/v1 http://www8.garmin.com/xmlschemas/ActivityExtensionv1.xsd http://www.garmin.com/xmlschemas/AdventuresExtensions/v1 http://www8.garmin.com/xmlschemas/AdventuresExtensionv1.xsd http://www.garmin.com/xmlschemas/PressureExtension/v1 http://www.garmin.com/xmlschemas/PressureExtensionv1.xsd http://www.garmin.com/xmlschemas/TripExtensions/v1 http://www.garmin.com/xmlschemas/TripExtensionsv1.xsd http://www.garmin.com/xmlschemas/TripMetaDataExtensions/v1 http://www.garmin.com/xmlschemas/TripMetaDataExtensionsv1.xsd http://www.garmin.com/xmlschemas/ViaPointTransportationModeExtensions/v1 http://www.garmin.com/xmlschemas/ViaPointTransportationModeExtensionsv1.xsd http://www.garmin.com/xmlschemas/CreationTimeExtension/v1 http://www.garmin.com/xmlschemas/CreationTimeExtensionsv1.xsd http://www.garmin.com/xmlschemas/AccelerationExtension/v1 http://www.garmin.com/xmlschemas/AccelerationExtensionv1.xsd http://www.garmin.com/xmlschemas/PowerExtension/v1 http://www.garmin.com/xmlschemas/PowerExtensionv1.xsd http://www.garmin.com/xmlschemas/VideoExtension/v1 http://www.garmin.com/xmlschemas/VideoExtensionv1.xsd" xmlns="http://www.topografix.com/GPX/1/1" xmlns:xsi="http://www.w3.org/2001/XMLSchema-instance" xmlns:wptx1="http://www.garmin.com/xmlschemas/WaypointExtension/v1" xmlns:gpxtrx="http://www.garmin.com/xmlschemas/GpxExtensions/v3" xmlns:gpxtpx="http://www.garmin.com/xmlschemas/TrackPointExtension/v1" xmlns:gpxx="http://www.garmin.com/xmlschemas/GpxExtensions/v3" xmlns:trp="http://www.garmin.com/xmlschemas/TripExtensions/v1" xmlns:adv="http://www.garmin.com/xmlschemas/AdventuresExtensions/v1" xmlns:prs="http://www.garmin.com/xmlschemas/PressureExtension/v1" xmlns:tmd="http://www.garmin.com/xmlschemas/TripMetaDataExtensions/v1" xmlns:vptm="http://www.garmin.com/xmlschemas/ViaPointTransportationModeExtensions/v1" xmlns:ctx="http://www.garmin.com/xmlschemas/CreationTimeExtension/v1" xmlns:gpxacc="http://www.garmin.com/xmlschemas/AccelerationExtension/v1" xmlns:gpxpx="http://www.garmin.com/xmlschemas/PowerExtension/v1" xmlns:vidx1="http://www.garmin.com/xmlschemas/VideoExtension/v1">

  <metadata>
    <link href="http://www.garmin.com">
      <text>Garmin International</text>
    </link>
    <time>2023-02-05T20:41:16Z</time>
    <bounds maxlat="46.432672189548612" maxlon="8.431275011971593" minlat="46.416349187493324" minlon="8.415218973532319" />
  </metadata>

  <trk>
    <name>rif maria luisa2023-02-05</name>
    <extensions>
      <gpxx:TrackExtension>
        <gpxx:DisplayColor>Yellow</gpxx:DisplayColor>
      </gpxx:TrackExtension>
      <gpxtrkx:TrackStatsExtension xmlns:gpxtrkx="http://www.garmin.com/xmlschemas/TrackStatsExtension/v1">
        <gpxtrkx:Distance>9541</gpxtrkx:Distance>
        <gpxtrkx:TotalElapsedTime>20662</gpxtrkx:TotalElapsedTime>
        <gpxtrkx:MovingTime>10770</gpxtrkx:MovingTime>
        <gpxtrkx:StoppedTime>9884</gpxtrkx:StoppedTime>
        <gpxtrkx:MovingSpeed>0.886</gpxtrkx:MovingSpeed>
        <gpxtrkx:MaxSpeed>1.88</gpxtrkx:MaxSpeed>
        <gpxtrkx:MaxElevation>2180.759</gpxtrkx:MaxElevation>
        <gpxtrkx:MinElevation>1724.854</gpxtrkx:MinElevation>
        <gpxtrkx:Ascent>492</gpxtrkx:Ascent>
        <gpxtrkx:Descent>510.162</gpxtrkx:Descent>
        <gpxtrkx:AvgAscentRate>0.039</gpxtrkx:AvgAscentRate>
        <gpxtrkx:MaxAscentRate>0.374</gpxtrkx:MaxAscentRate>
        <gpxtrkx:AvgDescentRate>0.048</gpxtrkx:AvgDescentRate>
        <gpxtrkx:MaxDescentRate>-0.466</gpxtrkx:MaxDescentRate>
      </gpxtrkx:TrackStatsExtension>
    </extensions>
    <trkseg>
      <trkpt lat="46.416765265166759" lon="8.415697747841477">
        <ele>1747.02</ele>
        <time>2023-02-05T08:47:30Z</time>
      </trkpt>
      <trkpt lat="46.416857382282615" lon="8.415788104757667">
        <ele>1747.6700000000001</ele>
        <time>2023-02-05T08:47:44Z</time>
      </trkpt>
      <trkpt lat="46.416875319555402" lon="8.415816687047482">
        <ele>1747.4200000000001</ele>
        <time>2023-02-05T08:47:47Z</time>
      </trkpt>
      <trkpt lat="46.416909350082278" lon="8.415864715352655">
        <ele>1747.29</ele>
        <time>2023-02-05T08:47:52Z</time>
      </trkpt>
      <trkpt lat="46.41699786297977" lon="8.416014248505235">
        <ele>1746.8199999999999</ele>
        <time>2023-02-05T08:48:07Z</time>
      </trkpt>
      <trkpt lat="46.41703843139112" lon="8.416070574894548">
        <ele>1746.6700000000001</ele>
        <time>2023-02-05T08:48:19Z</time>
      </trkpt>
      <trkpt lat="46.417118646204472" lon="8.416086584329605">
        <ele>1746.5599999999999</ele>
        <time>2023-02-05T08:48:32Z</time>
      </trkpt>
      <trkpt lat="46.417128536850214" lon="8.416066132485867">
        <ele>1746.46</ele>
        <time>2023-02-05T08:48:34Z</time>
      </trkpt>
      <trkpt lat="46.417151084169745" lon="8.416037131100893">
        <ele>1746.4100000000001</ele>
        <time>2023-02-05T08:48:37Z</time>
      </trkpt>
      <trkpt lat="46.417300198227167" lon="8.416126230731607">
        <ele>1745.95</ele>
        <time>2023-02-05T08:48:54Z</time>
      </trkpt>
      <trkpt lat="46.417448306456208" lon="8.416207283735275">
        <ele>1745.1800000000001</ele>
        <time>2023-02-05T08:49:10Z</time>
      </trkpt>
      <trkpt lat="46.4175661560148" lon="8.416260592639446">
        <ele>1745</ele>
        <time>2023-02-05T08:49:22Z</time>
      </trkpt>
      <trkpt lat="46.417698506265879" lon="8.41631599701941">
        <ele>1744.3399999999999</ele>
        <time>2023-02-05T08:49:35Z</time>
      </trkpt>
      <trkpt lat="46.417827336117625" lon="8.416358241811395">
        <ele>1743.05</ele>
        <time>2023-02-05T08:49:47Z</time>
      </trkpt>
      <trkpt lat="46.417957842350006" lon="8.416389171034098">
        <ele>1741.99</ele>
        <time>2023-02-05T08:49:59Z</time>
      </trkpt>
      <trkpt lat="46.418115254491568" lon="8.416428230702877">
        <ele>1741.48</ele>
        <time>2023-02-05T08:50:14Z</time>
      </trkpt>
      <trkpt lat="46.41826780512929" lon="8.416473576799035">
        <ele>1740.96</ele>
        <time>2023-02-05T08:50:29Z</time>
      </trkpt>
      <trkpt lat="46.418433431535959" lon="8.41651925817132">
        <ele>1740.29</ele>
        <time>2023-02-05T08:50:44Z</time>
      </trkpt>
      <trkpt lat="46.418627556413412" lon="8.416544906795025">
        <ele>1740.3399999999999</ele>
        <time>2023-02-05T08:51:00Z</time>
      </trkpt>
      <trkpt lat="46.418794523924589" lon="8.416545493528247">
        <ele>1740.76</ele>
        <time>2023-02-05T08:51:14Z</time>
      </trkpt>
      <trkpt lat="46.418959815055132" lon="8.416537446901202">
        <ele>1741.1500000000001</ele>
        <time>2023-02-05T08:51:28Z</time>
      </trkpt>
      <trkpt lat="46.419143546372652" lon="8.416516575962305">
        <ele>1740.8499999999999</ele>
        <time>2023-02-05T08:51:44Z</time>
      </trkpt>
      <trkpt lat="46.419305400922894" lon="8.416550187394023">
        <ele>1740.25</ele>
        <time>2023-02-05T08:51:59Z</time>
      </trkpt>
      <trkpt lat="46.419462561607361" lon="8.41656711883843">
        <ele>1739.78</ele>
        <time>2023-02-05T08:52:14Z</time>
      </trkpt>
      <trkpt lat="46.419572029262781" lon="8.416564771905541">
        <ele>1739.4400000000001</ele>
        <time>2023-02-05T08:52:26Z</time>
      </trkpt>
      <trkpt lat="46.419627601280808" lon="8.416721597313881">
        <ele>1737.6400000000001</ele>
        <time>2023-02-05T08:52:38Z</time>
      </trkpt>
      <trkpt lat="46.419677976518869" lon="8.416901137679815">
        <ele>1736.4100000000001</ele>
        <time>2023-02-05T08:52:50Z</time>
      </trkpt>
      <trkpt lat="46.419721813872457" lon="8.416903484612703">
        <ele>1736.3199999999999</ele>
        <time>2023-02-05T08:52:54Z</time>
      </trkpt>
      <trkpt lat="46.419918956235051" lon="8.416856378316879">
        <ele>1735.8800000000001</ele>
        <time>2023-02-05T08:53:11Z</time>
      </trkpt>
      <trkpt lat="46.420021299272776" lon="8.416882446035743">
        <ele>1736.01</ele>
        <time>2023-02-05T08:53:23Z</time>
      </trkpt>
      <trkpt lat="46.420094138011336" lon="8.41687398031354">
        <ele>1736.55</ele>
        <time>2023-02-05T08:53:33Z</time>
      </trkpt>
      <trkpt lat="46.420189188793302" lon="8.416882446035743">
        <ele>1738.9100000000001</ele>
        <time>2023-02-05T08:53:44Z</time>
      </trkpt>
      <trkpt lat="46.420243587344885" lon="8.41703524813056">
        <ele>1740.9200000000001</ele>
        <time>2023-02-05T08:53:57Z</time>
      </trkpt>
      <trkpt lat="46.420353977009654" lon="8.417037595063448">
        <ele>1741.3499999999999</ele>
        <time>2023-02-05T08:54:08Z</time>
      </trkpt>
      <trkpt lat="46.42039580270648" lon="8.417020915076137">
        <ele>1741.1400000000001</ele>
        <time>2023-02-05T08:54:13Z</time>
      </trkpt>
      <trkpt lat="46.420518262311816" lon="8.417031979188323">
        <ele>1742.0599999999999</ele>
        <time>2023-02-05T08:54:26Z</time>
      </trkpt>
      <trkpt lat="46.420526476576924" lon="8.417038433253765">
        <ele>1741.8699999999999</ele>
        <time>2023-02-05T08:54:27Z</time>
      </trkpt>
      <trkpt lat="46.420637788251042" lon="8.417112696915865">
        <ele>1741.8599999999999</ele>
        <time>2023-02-05T08:54:41Z</time>
      </trkpt>
      <trkpt lat="46.42076913267374" lon="8.417210262268782">
        <ele>1741.22</ele>
        <time>2023-02-05T08:54:56Z</time>
      </trkpt>
      <trkpt lat="46.420912966132164" lon="8.417307995259762">
        <ele>1741.3399999999999</ele>
        <time>2023-02-05T08:55:12Z</time>
      </trkpt>
      <trkpt lat="46.420999383553863" lon="8.417469682171941">
        <ele>1741.47</ele>
        <time>2023-02-05T08:55:26Z</time>
      </trkpt>
      <trkpt lat="46.421048920601606" lon="8.417636314406991">
        <ele>1741.2</ele>
        <time>2023-02-05T08:55:39Z</time>
      </trkpt>
      <trkpt lat="46.421079682186246" lon="8.417795486748219">
        <ele>1741.1400000000001</ele>
        <time>2023-02-05T08:55:52Z</time>
      </trkpt>
      <trkpt lat="46.421091165393591" lon="8.417954156175256">
        <ele>1740.6700000000001</ele>
        <time>2023-02-05T08:56:07Z</time>
      </trkpt>
      <trkpt lat="46.421104660257697" lon="8.418100755661726">
        <ele>1740.76</ele>
        <time>2023-02-05T08:56:21Z</time>
      </trkpt>
      <trkpt lat="46.421103235334158" lon="8.418110562488437">
        <ele>1740.5999999999999</ele>
        <time>2023-02-05T08:56:22Z</time>
      </trkpt>
      <trkpt lat="46.421107426285744" lon="8.418235704302788">
        <ele>1739.97</ele>
        <time>2023-02-05T08:56:32Z</time>
      </trkpt>
      <trkpt lat="46.421104073524475" lon="8.418295718729496">
        <ele>1739.78</ele>
        <time>2023-02-05T08:56:41Z</time>
      </trkpt>
      <trkpt lat="46.42110139131546" lon="8.418286917731166">
        <ele>1739.5</ele>
        <time>2023-02-05T08:56:53Z</time>
      </trkpt>
      <trkpt lat="46.421094099059701" lon="8.418267890810967">
        <ele>1739.8800000000001</ele>
        <time>2023-02-05T08:57:10Z</time>
      </trkpt>
      <trkpt lat="46.421093596145511" lon="8.41827149502933">
        <ele>1738.6800000000001</ele>
        <time>2023-02-05T08:57:39Z</time>
      </trkpt>
      <trkpt lat="46.421086471527815" lon="8.41828029602766">
        <ele>1738.54</ele>
        <time>2023-02-05T08:58:16Z</time>
      </trkpt>
      <trkpt lat="46.421087812632322" lon="8.418274847790599">
        <ele>1739.22</ele>
        <time>2023-02-05T08:58:34Z</time>
      </trkpt>
      <trkpt lat="46.421099379658699" lon="8.418275099247694">
        <ele>1739.8900000000001</ele>
        <time>2023-02-05T08:59:10Z</time>
      </trkpt>
      <trkpt lat="46.421099798753858" lon="8.41826805844903">
        <ele>1740.6600000000001</ele>
        <time>2023-02-05T08:59:48Z</time>
      </trkpt>
      <trkpt lat="46.421105582267046" lon="8.418275015428662">
        <ele>1740.77</ele>
        <time>2023-02-05T09:00:19Z</time>
      </trkpt>
      <trkpt lat="46.421101558953524" lon="8.418271243572235">
        <ele>1740.95</ele>
        <time>2023-02-05T09:00:49Z</time>
      </trkpt>
      <trkpt lat="46.42111019231379" lon="8.418283062055707">
        <ele>1740.6700000000001</ele>
        <time>2023-02-05T09:01:18Z</time>
      </trkpt>
      <trkpt lat="46.421106085181236" lon="8.418273339048028">
        <ele>1740.0599999999999</ele>
        <time>2023-02-05T09:01:57Z</time>
      </trkpt>
      <trkpt lat="46.421104073524475" lon="8.418263699859381">
        <ele>1739.8699999999999</ele>
        <time>2023-02-05T09:02:30Z</time>
      </trkpt>
      <trkpt lat="46.421096110716462" lon="8.41825976036489">
        <ele>1738.8699999999999</ele>
        <time>2023-02-05T09:03:05Z</time>
      </trkpt>
      <trkpt lat="46.421094099059701" lon="8.418261101469398">
        <ele>1738.6700000000001</ele>
        <time>2023-02-05T09:03:35Z</time>
      </trkpt>
      <trkpt lat="46.421094853430986" lon="8.418266465887427">
        <ele>1738.53</ele>
        <time>2023-02-05T09:03:49Z</time>
      </trkpt>
      <trkpt lat="46.421102648600936" lon="8.418268142268062">
        <ele>1738.8599999999999</ele>
        <time>2023-02-05T09:04:06Z</time>
      </trkpt>
      <trkpt lat="46.421097870916128" lon="8.418287923559547">
        <ele>1738.7</ele>
        <time>2023-02-05T09:04:24Z</time>
      </trkpt>
      <trkpt lat="46.421090830117464" lon="8.418289432302117">
        <ele>1738.6300000000001</ele>
        <time>2023-02-05T09:04:50Z</time>
      </trkpt>
      <trkpt lat="46.421099631115794" lon="8.418287755921483">
        <ele>1738.3099999999999</ele>
        <time>2023-02-05T09:05:03Z</time>
      </trkpt>
      <trkpt lat="46.421099798753858" lon="8.418275099247694">
        <ele>1738.6700000000001</ele>
        <time>2023-02-05T09:05:20Z</time>
      </trkpt>
      <trkpt lat="46.421104660257697" lon="8.418269567191601">
        <ele>1738.8199999999999</ele>
        <time>2023-02-05T09:05:21Z</time>
      </trkpt>
      <trkpt lat="46.421135924756527" lon="8.418256156146526">
        <ele>1738.95</ele>
        <time>2023-02-05T09:05:24Z</time>
      </trkpt>
      <trkpt lat="46.42118152230978" lon="8.418232183903456">
        <ele>1739.0699999999999</ele>
        <time>2023-02-05T09:05:37Z</time>
      </trkpt>
      <trkpt lat="46.421176996082067" lon="8.4182367939502">
        <ele>1738.4000000000001</ele>
        <time>2023-02-05T09:05:53Z</time>
      </trkpt>
      <trkpt lat="46.421139612793922" lon="8.418287001550198">
        <ele>1740.0899999999999</ele>
        <time>2023-02-05T09:06:12Z</time>
      </trkpt>
      <trkpt lat="46.421154448762536" lon="8.418252468109131">
        <ele>1741.45</ele>
        <time>2023-02-05T09:06:24Z</time>
      </trkpt>
      <trkpt lat="46.421151012182236" lon="8.418242326006293">
        <ele>1741.1600000000001</ele>
        <time>2023-02-05T09:06:37Z</time>
      </trkpt>
      <trkpt lat="46.421151263639331" lon="8.418244170024991">
        <ele>1742.1900000000001</ele>
        <time>2023-02-05T09:06:59Z</time>
      </trkpt>
      <trkpt lat="46.421147240325809" lon="8.418262358754873">
        <ele>1743.02</ele>
        <time>2023-02-05T09:07:21Z</time>
      </trkpt>
      <trkpt lat="46.421172050759196" lon="8.418275015428662">
        <ele>1742.6500000000001</ele>
        <time>2023-02-05T09:07:36Z</time>
      </trkpt>
      <trkpt lat="46.42116928473115" lon="8.418269567191601">
        <ele>1742.24</ele>
        <time>2023-02-05T09:07:49Z</time>
      </trkpt>
      <trkpt lat="46.421173391863704" lon="8.418260766193271">
        <ele>1742.3499999999999</ele>
        <time>2023-02-05T09:08:06Z</time>
      </trkpt>
      <trkpt lat="46.421173978596926" lon="8.418243248015642">
        <ele>1742.25</ele>
        <time>2023-02-05T09:08:27Z</time>
      </trkpt>
      <trkpt lat="46.421181103214622" lon="8.418248109519482">
        <ele>1741.6500000000001</ele>
        <time>2023-02-05T09:08:39Z</time>
      </trkpt>
      <trkpt lat="46.421144139021635" lon="8.418263867497444">
        <ele>1740.97</ele>
        <time>2023-02-05T09:08:54Z</time>
      </trkpt>
      <trkpt lat="46.421153945848346" lon="8.418276105076075">
        <ele>1740.29</ele>
        <time>2023-02-05T09:09:05Z</time>
      </trkpt>
      <trkpt lat="46.421145815402269" lon="8.418277278542519">
        <ele>1740.45</ele>
        <time>2023-02-05T09:09:19Z</time>
      </trkpt>
      <trkpt lat="46.421119663864374" lon="8.418270321562886">
        <ele>1740.24</ele>
        <time>2023-02-05T09:09:29Z</time>
      </trkpt>
      <trkpt lat="46.421133661642671" lon="8.418274847790599">
        <ele>1740.3099999999999</ele>
        <time>2023-02-05T09:09:41Z</time>
      </trkpt>
      <trkpt lat="46.421148329973221" lon="8.418292533606291">
        <ele>1740.49</ele>
        <time>2023-02-05T09:09:57Z</time>
      </trkpt>
      <trkpt lat="46.421174062415957" lon="8.418404683470726">
        <ele>1741.01</ele>
        <time>2023-02-05T09:10:09Z</time>
      </trkpt>
      <trkpt lat="46.421208847314119" lon="8.418593527749181">
        <ele>1742.9400000000001</ele>
        <time>2023-02-05T09:10:24Z</time>
      </trkpt>
      <trkpt lat="46.421203650534153" lon="8.418686650693417">
        <ele>1743.8499999999999</ele>
        <time>2023-02-05T09:10:32Z</time>
      </trkpt>
      <trkpt lat="46.421114047989249" lon="8.4188480861485">
        <ele>1746.1700000000001</ele>
        <time>2023-02-05T09:10:50Z</time>
      </trkpt>
      <trkpt lat="46.421036850661039" lon="8.418947327882052">
        <ele>1747.73</ele>
        <time>2023-02-05T09:11:04Z</time>
      </trkpt>
      <trkpt lat="46.420942973345518" lon="8.419071044772863">
        <ele>1749.29</ele>
        <time>2023-02-05T09:11:20Z</time>
      </trkpt>
      <trkpt lat="46.42090642824769" lon="8.419138267636299">
        <ele>1749.6700000000001</ele>
        <time>2023-02-05T09:11:26Z</time>
      </trkpt>
      <trkpt lat="46.420823698863387" lon="8.419273886829615">
        <ele>1750.54</ele>
        <time>2023-02-05T09:11:41Z</time>
      </trkpt>
      <trkpt lat="46.42073099501431" lon="8.419399280101061">
        <ele>1751.71</ele>
        <time>2023-02-05T09:11:57Z</time>
      </trkpt>
      <trkpt lat="46.420649690553546" lon="8.419511010870338">
        <ele>1752.8900000000001</ele>
        <time>2023-02-05T09:12:11Z</time>
      </trkpt>
      <trkpt lat="46.420571738854051" lon="8.419623076915741">
        <ele>1754.1900000000001</ele>
        <time>2023-02-05T09:12:23Z</time>
      </trkpt>
      <trkpt lat="46.420468725264072" lon="8.419762384146452">
        <ele>1755.75</ele>
        <time>2023-02-05T09:12:39Z</time>
      </trkpt>
      <trkpt lat="46.420380128547549" lon="8.419914850965142">
        <ele>1757.7</ele>
        <time>2023-02-05T09:12:55Z</time>
      </trkpt>
      <trkpt lat="46.420312151312828" lon="8.420091206207871">
        <ele>1759.5</ele>
        <time>2023-02-05T09:13:11Z</time>
      </trkpt>
      <trkpt lat="46.420260015875101" lon="8.420266136527062">
        <ele>1760.97</ele>
        <time>2023-02-05T09:13:26Z</time>
      </trkpt>
      <trkpt lat="46.420216932892799" lon="8.420397900044918">
        <ele>1761.97</ele>
        <time>2023-02-05T09:13:38Z</time>
      </trkpt>
      <trkpt lat="46.420107884332538" lon="8.420571740716696">
        <ele>1764.1800000000001</ele>
        <time>2023-02-05T09:13:57Z</time>
      </trkpt>
      <trkpt lat="46.420021215453744" lon="8.420660421252251">
        <ele>1764.8900000000001</ele>
        <time>2023-02-05T09:14:10Z</time>
      </trkpt>
      <trkpt lat="46.41992574557662" lon="8.420761758461595">
        <ele>1766.0699999999999</ele>
        <time>2023-02-05T09:14:25Z</time>
      </trkpt>
      <trkpt lat="46.419904958456755" lon="8.420782713219523">
        <ele>1766.3699999999999</ele>
        <time>2023-02-05T09:14:28Z</time>
      </trkpt>
      <trkpt lat="46.419809656217694" lon="8.420883463695645">
        <ele>1767.6199999999999</ele>
        <time>2023-02-05T09:14:42Z</time>
      </trkpt>
      <trkpt lat="46.419783420860767" lon="8.420910621061921">
        <ele>1767.8900000000001</ele>
        <time>2023-02-05T09:14:46Z</time>
      </trkpt>
      <trkpt lat="46.419723071157932" lon="8.420964432880282">
        <ele>1768.53</ele>
        <time>2023-02-05T09:14:55Z</time>
      </trkpt>
      <trkpt lat="46.419621566310525" lon="8.421059316024184">
        <ele>1769.6500000000001</ele>
        <time>2023-02-05T09:15:10Z</time>
      </trkpt>
      <trkpt lat="46.419554762542248" lon="8.421113546937704">
        <ele>1769.77</ele>
        <time>2023-02-05T09:15:19Z</time>
      </trkpt>
      <trkpt lat="46.41948158852756" lon="8.421175489202142">
        <ele>1769.9400000000001</ele>
        <time>2023-02-05T09:15:29Z</time>
      </trkpt>
      <trkpt lat="46.41934429295361" lon="8.421264253556728">
        <ele>1771.5799999999999</ele>
        <time>2023-02-05T09:15:46Z</time>
      </trkpt>
      <trkpt lat="46.419231137260795" lon="8.421292249113321">
        <ele>1772.8699999999999</ele>
        <time>2023-02-05T09:16:00Z</time>
      </trkpt>
      <trkpt lat="46.419113287702203" lon="8.421315215528011">
        <ele>1773.8099999999999</ele>
        <time>2023-02-05T09:16:16Z</time>
      </trkpt>
      <trkpt lat="46.419072719290853" lon="8.421330973505974">
        <ele>1774.3800000000001</ele>
        <time>2023-02-05T09:16:28Z</time>
      </trkpt>
      <trkpt lat="46.419072719290853" lon="8.421331811696291">
        <ele>1774.03</ele>
        <time>2023-02-05T09:16:44Z</time>
      </trkpt>
      <trkpt lat="46.419072384014726" lon="8.421339271590114">
        <ele>1774.3199999999999</ele>
        <time>2023-02-05T09:17:01Z</time>
      </trkpt>
      <trkpt lat="46.419071210548282" lon="8.421343462541699">
        <ele>1774.5699999999999</ele>
        <time>2023-02-05T09:17:17Z</time>
      </trkpt>
      <trkpt lat="46.419073054566979" lon="8.421340864151716">
        <ele>1774.8699999999999</ele>
        <time>2023-02-05T09:17:36Z</time>
      </trkpt>
      <trkpt lat="46.419075401499867" lon="8.421340780332685">
        <ele>1774.8099999999999</ele>
        <time>2023-02-05T09:17:55Z</time>
      </trkpt>
      <trkpt lat="46.419075820595026" lon="8.421345558017492">
        <ele>1775.4300000000001</ele>
        <time>2023-02-05T09:18:12Z</time>
      </trkpt>
      <trkpt lat="46.419077329337597" lon="8.421353520825505">
        <ele>1775.7</ele>
        <time>2023-02-05T09:18:23Z</time>
      </trkpt>
      <trkpt lat="46.419081604108214" lon="8.421347569674254">
        <ele>1775.8</ele>
        <time>2023-02-05T09:18:42Z</time>
      </trkpt>
      <trkpt lat="46.419079592451453" lon="8.421346396207809">
        <ele>1775.5999999999999</ele>
        <time>2023-02-05T09:18:58Z</time>
      </trkpt>
      <trkpt lat="46.419078670442104" lon="8.421343630179763">
        <ele>1775.8</ele>
        <time>2023-02-05T09:19:18Z</time>
      </trkpt>
      <trkpt lat="46.419082023203373" lon="8.421336337924004">
        <ele>1776.28</ele>
        <time>2023-02-05T09:19:36Z</time>
      </trkpt>
      <trkpt lat="46.419077748432755" lon="8.421333404257894">
        <ele>1776.28</ele>
        <time>2023-02-05T09:19:56Z</time>
      </trkpt>
      <trkpt lat="46.419080095365644" lon="8.42133223079145">
        <ele>1776.3900000000001</ele>
        <time>2023-02-05T09:20:14Z</time>
      </trkpt>
      <trkpt lat="46.419078670442104" lon="8.421328291296959">
        <ele>1776.48</ele>
        <time>2023-02-05T09:20:31Z</time>
      </trkpt>
      <trkpt lat="46.419080598279834" lon="8.421330722048879">
        <ele>1776.8099999999999</ele>
        <time>2023-02-05T09:20:49Z</time>
      </trkpt>
      <trkpt lat="46.419081939384341" lon="8.421333823353052">
        <ele>1778.25</ele>
        <time>2023-02-05T09:20:57Z</time>
      </trkpt>
      <trkpt lat="46.419082107022405" lon="8.421330722048879">
        <ele>1777.9400000000001</ele>
        <time>2023-02-05T09:21:20Z</time>
      </trkpt>
      <trkpt lat="46.419084370136261" lon="8.421330722048879">
        <ele>1778.4300000000001</ele>
        <time>2023-02-05T09:21:35Z</time>
      </trkpt>
      <trkpt lat="46.419080095365644" lon="8.421337427571416">
        <ele>1778.77</ele>
        <time>2023-02-05T09:21:46Z</time>
      </trkpt>
      <trkpt lat="46.419086381793022" lon="8.421335751190782">
        <ele>1778.6400000000001</ele>
        <time>2023-02-05T09:21:56Z</time>
      </trkpt>
      <trkpt lat="46.419079173356295" lon="8.421351257711649">
        <ele>1778.3</ele>
        <time>2023-02-05T09:22:10Z</time>
      </trkpt>
      <trkpt lat="46.419049752876163" lon="8.421340947970748">
        <ele>1777.03</ele>
        <time>2023-02-05T09:22:24Z</time>
      </trkpt>
      <trkpt lat="46.419056793674827" lon="8.421342121437192">
        <ele>1777.3499999999999</ele>
        <time>2023-02-05T09:22:40Z</time>
      </trkpt>
      <trkpt lat="46.41898856498301" lon="8.421361818909645">
        <ele>1777.46</ele>
        <time>2023-02-05T09:22:49Z</time>
      </trkpt>
      <trkpt lat="46.418976243585348" lon="8.421388138085604">
        <ele>1777.8199999999999</ele>
        <time>2023-02-05T09:22:52Z</time>
      </trkpt>
      <trkpt lat="46.418921761214733" lon="8.421408422291279">
        <ele>1777.5599999999999</ele>
        <time>2023-02-05T09:22:59Z</time>
      </trkpt>
      <trkpt lat="46.418867027387023" lon="8.421456282958388">
        <ele>1777.4100000000001</ele>
        <time>2023-02-05T09:23:06Z</time>
      </trkpt>
      <trkpt lat="46.41884732991457" lon="8.421469023451209">
        <ele>1777.4000000000001</ele>
        <time>2023-02-05T09:23:08Z</time>
      </trkpt>
      <trkpt lat="46.418764516711235" lon="8.421474974602461">
        <ele>1777.3900000000001</ele>
        <time>2023-02-05T09:23:18Z</time>
      </trkpt>
      <trkpt lat="46.418664352968335" lon="8.421512441709638">
        <ele>1779.1900000000001</ele>
        <time>2023-02-05T09:23:29Z</time>
      </trkpt>
      <trkpt lat="46.418552286922932" lon="8.421550579369068">
        <ele>1780.73</ele>
        <time>2023-02-05T09:23:44Z</time>
      </trkpt>
      <trkpt lat="46.418545078486204" lon="8.421551752835512">
        <ele>1780.76</ele>
        <time>2023-02-05T09:23:45Z</time>
      </trkpt>
      <trkpt lat="46.418404430150986" lon="8.421581676229835">
        <ele>1782.5799999999999</ele>
        <time>2023-02-05T09:24:02Z</time>
      </trkpt>
      <trkpt lat="46.41834600828588" lon="8.421617047861219">
        <ele>1783.3699999999999</ele>
        <time>2023-02-05T09:24:10Z</time>
      </trkpt>
      <trkpt lat="46.418225225061178" lon="8.421626687049866">
        <ele>1786.1099999999999</ele>
        <time>2023-02-05T09:24:25Z</time>
      </trkpt>
      <trkpt lat="46.418205695226789" lon="8.421627022325993">
        <ele>1787.3099999999999</ele>
        <time>2023-02-05T09:24:39Z</time>
      </trkpt>
      <trkpt lat="46.418220112100244" lon="8.421637834981084">
        <ele>1786.8099999999999</ele>
        <time>2023-02-05T09:24:55Z</time>
      </trkpt>
      <trkpt lat="46.418217094615102" lon="8.421622663736343">
        <ele>1786.5799999999999</ele>
        <time>2023-02-05T09:25:09Z</time>
      </trkpt>
      <trkpt lat="46.418211311101913" lon="8.421625094488263">
        <ele>1786.72</ele>
        <time>2023-02-05T09:25:24Z</time>
      </trkpt>
      <trkpt lat="46.418220112100244" lon="8.4216249268502">
        <ele>1786.3900000000001</ele>
        <time>2023-02-05T09:25:49Z</time>
      </trkpt>
      <trkpt lat="46.418231260031462" lon="8.421638337895274">
        <ele>1785.8800000000001</ele>
        <time>2023-02-05T09:26:18Z</time>
      </trkpt>
      <trkpt lat="46.41823461279273" lon="8.421645127236843">
        <ele>1784.96</ele>
        <time>2023-02-05T09:26:44Z</time>
      </trkpt>
      <trkpt lat="46.418236708268523" lon="8.42165476642549">
        <ele>1785.26</ele>
        <time>2023-02-05T09:27:12Z</time>
      </trkpt>
      <trkpt lat="46.418238384649158" lon="8.421657867729664">
        <ele>1784.9400000000001</ele>
        <time>2023-02-05T09:27:42Z</time>
      </trkpt>
      <trkpt lat="46.418245173990726" lon="8.421659292653203">
        <ele>1784.77</ele>
        <time>2023-02-05T09:28:01Z</time>
      </trkpt>
      <trkpt lat="46.418253472074866" lon="8.421666752547026">
        <ele>1785.1199999999999</ele>
        <time>2023-02-05T09:28:16Z</time>
      </trkpt>
      <trkpt lat="46.418249113485217" lon="8.42166256159544">
        <ele>1784.8</ele>
        <time>2023-02-05T09:28:33Z</time>
      </trkpt>
      <trkpt lat="46.418254477903247" lon="8.421668596565723">
        <ele>1784.55</ele>
        <time>2023-02-05T09:28:49Z</time>
      </trkpt>
      <trkpt lat="46.418252130970359" lon="8.421666836366057">
        <ele>1784.1600000000001</ele>
        <time>2023-02-05T09:29:07Z</time>
      </trkpt>
      <trkpt lat="46.418250789865851" lon="8.421664573252201">
        <ele>1784.4000000000001</ele>
        <time>2023-02-05T09:29:25Z</time>
      </trkpt>
      <trkpt lat="46.418251460418105" lon="8.421664824709296">
        <ele>1784.3699999999999</ele>
        <time>2023-02-05T09:29:39Z</time>
      </trkpt>
      <trkpt lat="46.418244503438473" lon="8.421669518575072">
        <ele>1784.6600000000001</ele>
        <time>2023-02-05T09:29:54Z</time>
      </trkpt>
      <trkpt lat="46.418251544237137" lon="8.421654012054205">
        <ele>1785.04</ele>
        <time>2023-02-05T09:30:18Z</time>
      </trkpt>
      <trkpt lat="46.418255316093564" lon="8.421666584908962">
        <ele>1785.2</ele>
        <time>2023-02-05T09:30:30Z</time>
      </trkpt>
      <trkpt lat="46.418242240324616" lon="8.421657783910632">
        <ele>1785.1400000000001</ele>
        <time>2023-02-05T09:30:54Z</time>
      </trkpt>
      <trkpt lat="46.418238049373031" lon="8.421649988740683">
        <ele>1784.96</ele>
        <time>2023-02-05T09:31:18Z</time>
      </trkpt>
      <trkpt lat="46.418235870078206" lon="8.421651665121317">
        <ele>1784.3199999999999</ele>
        <time>2023-02-05T09:31:40Z</time>
      </trkpt>
      <trkpt lat="46.418234780430794" lon="8.421655604615808">
        <ele>1783.8800000000001</ele>
        <time>2023-02-05T09:32:09Z</time>
      </trkpt>
      <trkpt lat="46.418235870078206" lon="8.421662729233503">
        <ele>1782.8900000000001</ele>
        <time>2023-02-05T09:32:36Z</time>
      </trkpt>
      <trkpt lat="46.418234696611762" lon="8.421663567423821">
        <ele>1782.8599999999999</ele>
        <time>2023-02-05T09:33:05Z</time>
      </trkpt>
      <trkpt lat="46.418235115706921" lon="8.421661388128996">
        <ele>1783.3099999999999</ele>
        <time>2023-02-05T09:33:31Z</time>
      </trkpt>
      <trkpt lat="46.418239558115602" lon="8.421666668727994">
        <ele>1783.0599999999999</ele>
        <time>2023-02-05T09:33:59Z</time>
      </trkpt>
      <trkpt lat="46.418235031887889" lon="8.421663986518979">
        <ele>1783.0799999999999</ele>
        <time>2023-02-05T09:34:20Z</time>
      </trkpt>
      <trkpt lat="46.418234361335635" lon="8.421663818880916">
        <ele>1782.97</ele>
        <time>2023-02-05T09:34:42Z</time>
      </trkpt>
      <trkpt lat="46.418237797915936" lon="8.42167479917407">
        <ele>1783.3900000000001</ele>
        <time>2023-02-05T09:35:08Z</time>
      </trkpt>
      <trkpt lat="46.41824877820909" lon="8.421679744496942">
        <ele>1783.51</ele>
        <time>2023-02-05T09:35:24Z</time>
      </trkpt>
      <trkpt lat="46.418232936412096" lon="8.421664237976074">
        <ele>1784.0899999999999</ele>
        <time>2023-02-05T09:35:39Z</time>
      </trkpt>
      <trkpt lat="46.418220363557339" lon="8.421647641807795">
        <ele>1785.1700000000001</ele>
        <time>2023-02-05T09:36:06Z</time>
      </trkpt>
      <trkpt lat="46.418224722146988" lon="8.421642696484923">
        <ele>1784.8399999999999</ele>
        <time>2023-02-05T09:36:34Z</time>
      </trkpt>
      <trkpt lat="46.418232014402747" lon="8.421644289046526">
        <ele>1784.5599999999999</ele>
        <time>2023-02-05T09:36:57Z</time>
      </trkpt>
      <trkpt lat="46.418236875906587" lon="8.421652670949698">
        <ele>1785.1600000000001</ele>
        <time>2023-02-05T09:37:22Z</time>
      </trkpt>
      <trkpt lat="46.418223464861512" lon="8.421645881608129">
        <ele>1783.6099999999999</ele>
        <time>2023-02-05T09:37:41Z</time>
      </trkpt>
      <trkpt lat="46.418229332193732" lon="8.421661052852869">
        <ele>1782.3599999999999</ele>
        <time>2023-02-05T09:38:03Z</time>
      </trkpt>
      <trkpt lat="46.418229751288891" lon="8.421658622100949">
        <ele>1782.03</ele>
        <time>2023-02-05T09:38:20Z</time>
      </trkpt>
      <trkpt lat="46.418223967775702" lon="8.421623166650534">
        <ele>1781.77</ele>
        <time>2023-02-05T09:38:41Z</time>
      </trkpt>
      <trkpt lat="46.418183064088225" lon="8.421612102538347">
        <ele>1781.3099999999999</ele>
        <time>2023-02-05T09:38:51Z</time>
      </trkpt>
      <trkpt lat="46.418027328327298" lon="8.421572539955378">
        <ele>1781.99</ele>
        <time>2023-02-05T09:39:08Z</time>
      </trkpt>
      <trkpt lat="46.417960440739989" lon="8.421521997079253">
        <ele>1782.98</ele>
        <time>2023-02-05T09:39:16Z</time>
      </trkpt>
      <trkpt lat="46.417810237035155" lon="8.421438848599792">
        <ele>1784.52</ele>
        <time>2023-02-05T09:39:33Z</time>
      </trkpt>
      <trkpt lat="46.417674366384745" lon="8.421392580494285">
        <ele>1786.55</ele>
        <time>2023-02-05T09:39:49Z</time>
      </trkpt>
      <trkpt lat="46.417537573724985" lon="8.421356119215488">
        <ele>1788.1800000000001</ele>
        <time>2023-02-05T09:40:05Z</time>
      </trkpt>
      <trkpt lat="46.417410923168063" lon="8.421367267146707">
        <ele>1788.8699999999999</ele>
        <time>2023-02-05T09:40:21Z</time>
      </trkpt>
      <trkpt lat="46.417302042245865" lon="8.421336086466909">
        <ele>1790.29</ele>
        <time>2023-02-05T09:40:35Z</time>
      </trkpt>
      <trkpt lat="46.417246386408806" lon="8.421390233561397">
        <ele>1791.55</ele>
        <time>2023-02-05T09:40:48Z</time>
      </trkpt>
      <trkpt lat="46.417294666171074" lon="8.421440692618489">
        <ele>1792.47</ele>
        <time>2023-02-05T09:40:58Z</time>
      </trkpt>
      <trkpt lat="46.417415281757712" lon="8.421507244929671">
        <ele>1793.24</ele>
        <time>2023-02-05T09:41:12Z</time>
      </trkpt>
      <trkpt lat="46.417497927322984" lon="8.421506574377418">
        <ele>1795.3</ele>
        <time>2023-02-05T09:41:26Z</time>
      </trkpt>
      <trkpt lat="46.417532796040177" lon="8.421518225222826">
        <ele>1795.29</ele>
        <time>2023-02-05T09:41:40Z</time>
      </trkpt>
      <trkpt lat="46.417610831558704" lon="8.421591650694609">
        <ele>1796.01</ele>
        <time>2023-02-05T09:41:56Z</time>
      </trkpt>
      <trkpt lat="46.417675791308284" lon="8.421667004004121">
        <ele>1796.29</ele>
        <time>2023-02-05T09:42:09Z</time>
      </trkpt>
      <trkpt lat="46.417771596461535" lon="8.421750823035836">
        <ele>1797.74</ele>
        <time>2023-02-05T09:42:23Z</time>
      </trkpt>
      <trkpt lat="46.417829683050513" lon="8.421799521893263">
        <ele>1798.29</ele>
        <time>2023-02-05T09:42:34Z</time>
      </trkpt>
      <trkpt lat="46.417916268110275" lon="8.421897338703275">
        <ele>1799.3599999999999</ele>
        <time>2023-02-05T09:42:47Z</time>
      </trkpt>
      <trkpt lat="46.417991118505597" lon="8.421966070309281">
        <ele>1800.0899999999999</ele>
        <time>2023-02-05T09:42:58Z</time>
      </trkpt>
      <trkpt lat="46.418124726042151" lon="8.422070173546672">
        <ele>1801.3699999999999</ele>
        <time>2023-02-05T09:43:14Z</time>
      </trkpt>
      <trkpt lat="46.418250454589725" lon="8.422163464128971">
        <ele>1802.54</ele>
        <time>2023-02-05T09:43:29Z</time>
      </trkpt>
      <trkpt lat="46.418373333290219" lon="8.422230435535312">
        <ele>1804.48</ele>
        <time>2023-02-05T09:43:45Z</time>
      </trkpt>
      <trkpt lat="46.418426055461168" lon="8.422249210998416">
        <ele>1805.3800000000001</ele>
        <time>2023-02-05T09:43:51Z</time>
      </trkpt>
      <trkpt lat="46.418460169807076" lon="8.422267651185393">
        <ele>1805.8199999999999</ele>
        <time>2023-02-05T09:43:55Z</time>
      </trkpt>
      <trkpt lat="46.418587071821094" lon="8.42233344912529">
        <ele>1805.8699999999999</ele>
        <time>2023-02-05T09:44:12Z</time>
      </trkpt>
      <trkpt lat="46.418683463707566" lon="8.422374185174704">
        <ele>1807.72</ele>
        <time>2023-02-05T09:44:25Z</time>
      </trkpt>
      <trkpt lat="46.418729228898883" lon="8.422388350591064">
        <ele>1808.48</ele>
        <time>2023-02-05T09:44:37Z</time>
      </trkpt>
      <trkpt lat="46.41879016533494" lon="8.422401593998075">
        <ele>1810.3599999999999</ele>
        <time>2023-02-05T09:44:46Z</time>
      </trkpt>
      <trkpt lat="46.418933244422078" lon="8.422446772456169">
        <ele>1810.8699999999999</ele>
        <time>2023-02-05T09:45:05Z</time>
      </trkpt>
      <trkpt lat="46.418979177251458" lon="8.422449706122279">
        <ele>1810.78</ele>
        <time>2023-02-05T09:45:15Z</time>
      </trkpt>
      <trkpt lat="46.419107252731919" lon="8.422517431899905">
        <ele>1811.79</ele>
        <time>2023-02-05T09:45:33Z</time>
      </trkpt>
      <trkpt lat="46.419213199988008" lon="8.422589432448149">
        <ele>1813.23</ele>
        <time>2023-02-05T09:45:48Z</time>
      </trkpt>
      <trkpt lat="46.419301796704531" lon="8.422612147405744">
        <ele>1815.3299999999999</ele>
        <time>2023-02-05T09:46:02Z</time>
      </trkpt>
      <trkpt lat="46.419309843331575" lon="8.422596305608749">
        <ele>1815.02</ele>
        <time>2023-02-05T09:46:18Z</time>
      </trkpt>
      <trkpt lat="46.419321829453111" lon="8.422573423013091">
        <ele>1814.74</ele>
        <time>2023-02-05T09:46:36Z</time>
      </trkpt>
      <trkpt lat="46.419370528310537" lon="8.422608710825443">
        <ele>1815.1199999999999</ele>
        <time>2023-02-05T09:46:49Z</time>
      </trkpt>
      <trkpt lat="46.419442780315876" lon="8.422686578705907">
        <ele>1816.3</ele>
        <time>2023-02-05T09:47:05Z</time>
      </trkpt>
      <trkpt lat="46.419448060914874" lon="8.422697558999062">
        <ele>1816.6800000000001</ele>
        <time>2023-02-05T09:47:19Z</time>
      </trkpt>
      <trkpt lat="46.419482510536909" lon="8.422715831547976">
        <ele>1816.4400000000001</ele>
        <time>2023-02-05T09:47:38Z</time>
      </trkpt>
      <trkpt lat="46.419611256569624" lon="8.422817420214415">
        <ele>1816.97</ele>
        <time>2023-02-05T09:47:58Z</time>
      </trkpt>
      <trkpt lat="46.419727262109518" lon="8.422858910635114">
        <ele>1818.29</ele>
        <time>2023-02-05T09:48:10Z</time>
      </trkpt>
      <trkpt lat="46.419824324548244" lon="8.4228475112468">
        <ele>1820.4200000000001</ele>
        <time>2023-02-05T09:48:22Z</time>
      </trkpt>
      <trkpt lat="46.41992038115859" lon="8.422880452126265">
        <ele>1821</ele>
        <time>2023-02-05T09:48:37Z</time>
      </trkpt>
      <trkpt lat="46.41997360624373" lon="8.422908866778016">
        <ele>1821.3900000000001</ele>
        <time>2023-02-05T09:48:44Z</time>
      </trkpt>
      <trkpt lat="46.420102017000318" lon="8.422942562028766">
        <ele>1823.1400000000001</ele>
        <time>2023-02-05T09:48:58Z</time>
      </trkpt>
      <trkpt lat="46.42023017629981" lon="8.42293350957334">
        <ele>1825.6700000000001</ele>
        <time>2023-02-05T09:49:13Z</time>
      </trkpt>
      <trkpt lat="46.420375853776932" lon="8.422936694696546">
        <ele>1828.78</ele>
        <time>2023-02-05T09:49:30Z</time>
      </trkpt>
      <trkpt lat="46.420389683917165" lon="8.422931833192706">
        <ele>1829.49</ele>
        <time>2023-02-05T09:49:32Z</time>
      </trkpt>
      <trkpt lat="46.420499235391617" lon="8.422945160418749">
        <ele>1830.05</ele>
        <time>2023-02-05T09:49:45Z</time>
      </trkpt>
      <trkpt lat="46.420509796589613" lon="8.422949686646462">
        <ele>1830.05</ele>
        <time>2023-02-05T09:49:46Z</time>
      </trkpt>
      <trkpt lat="46.420651450753212" lon="8.422955889254808">
        <ele>1832.1600000000001</ele>
        <time>2023-02-05T09:50:02Z</time>
      </trkpt>
      <trkpt lat="46.420780615881085" lon="8.422935856506228">
        <ele>1834.25</ele>
        <time>2023-02-05T09:50:17Z</time>
      </trkpt>
      <trkpt lat="46.420906763523817" lon="8.422947926446796">
        <ele>1834.25</ele>
        <time>2023-02-05T09:50:31Z</time>
      </trkpt>
      <trkpt lat="46.421017153188586" lon="8.422942226752639">
        <ele>1835.1199999999999</ele>
        <time>2023-02-05T09:50:44Z</time>
      </trkpt>
      <trkpt lat="46.421126369386911" lon="8.422921439632773">
        <ele>1835.0999999999999</ele>
        <time>2023-02-05T09:50:57Z</time>
      </trkpt>
      <trkpt lat="46.421256875619292" lon="8.422885900363326">
        <ele>1835.3</ele>
        <time>2023-02-05T09:51:13Z</time>
      </trkpt>
      <trkpt lat="46.421376736834645" lon="8.422880033031106">
        <ele>1835.5999999999999</ele>
        <time>2023-02-05T09:51:27Z</time>
      </trkpt>
      <trkpt lat="46.42149031162262" lon="8.422875087708235">
        <ele>1837.8199999999999</ele>
        <time>2023-02-05T09:51:41Z</time>
      </trkpt>
      <trkpt lat="46.421572286635637" lon="8.422865029424429">
        <ele>1838.8</ele>
        <time>2023-02-05T09:51:52Z</time>
      </trkpt>
      <trkpt lat="46.421601288020611" lon="8.422867879271507">
        <ele>1839.0599999999999</ele>
        <time>2023-02-05T09:51:55Z</time>
      </trkpt>
      <trkpt lat="46.42172584310174" lon="8.422874584794045">
        <ele>1840.6300000000001</ele>
        <time>2023-02-05T09:52:09Z</time>
      </trkpt>
      <trkpt lat="46.421761214733124" lon="8.422891767695546">
        <ele>1841.3499999999999</ele>
        <time>2023-02-05T09:52:21Z</time>
      </trkpt>
      <trkpt lat="46.421792982146144" lon="8.422895707190037">
        <ele>1841.6800000000001</ele>
        <time>2023-02-05T09:52:25Z</time>
      </trkpt>
      <trkpt lat="46.421920722350478" lon="8.422876512631774">
        <ele>1842.5599999999999</ele>
        <time>2023-02-05T09:52:39Z</time>
      </trkpt>
      <trkpt lat="46.421979144215584" lon="8.422847259789705">
        <ele>1843.03</ele>
        <time>2023-02-05T09:52:46Z</time>
      </trkpt>
      <trkpt lat="46.42211090773344" lon="8.422779953107238">
        <ele>1845.4100000000001</ele>
        <time>2023-02-05T09:53:02Z</time>
      </trkpt>
      <trkpt lat="46.422239737585187" lon="8.422773163765669">
        <ele>1847.9000000000001</ele>
        <time>2023-02-05T09:53:16Z</time>
      </trkpt>
      <trkpt lat="46.422338392585516" lon="8.422737959772348">
        <ele>1849.01</ele>
        <time>2023-02-05T09:53:28Z</time>
      </trkpt>
      <trkpt lat="46.422372255474329" lon="8.422727230936289">
        <ele>1849.3099999999999</ele>
        <time>2023-02-05T09:53:32Z</time>
      </trkpt>
      <trkpt lat="46.422392623499036" lon="8.422742569819093">
        <ele>1848.6700000000001</ele>
        <time>2023-02-05T09:53:34Z</time>
      </trkpt>
      <trkpt lat="46.422422714531422" lon="8.422711556777358">
        <ele>1849.5899999999999</ele>
        <time>2023-02-05T09:53:38Z</time>
      </trkpt>
      <trkpt lat="46.42249739728868" lon="8.42269697226584">
        <ele>1849.78</ele>
        <time>2023-02-05T09:53:47Z</time>
      </trkpt>
      <trkpt lat="46.422594292089343" lon="8.422661935910583">
        <ele>1852.46</ele>
        <time>2023-02-05T09:53:59Z</time>
      </trkpt>
      <trkpt lat="46.422693952918053" lon="8.422630419954658">
        <ele>1853.3499999999999</ele>
        <time>2023-02-05T09:54:11Z</time>
      </trkpt>
      <trkpt lat="46.422806354239583" lon="8.422598820179701">
        <ele>1853.5899999999999</ele>
        <time>2023-02-05T09:54:24Z</time>
      </trkpt>
      <trkpt lat="46.422925293445587" lon="8.422550121322274">
        <ele>1855.8900000000001</ele>
        <time>2023-02-05T09:54:39Z</time>
      </trkpt>
      <trkpt lat="46.422945661470294" lon="8.422530675306916">
        <ele>1856.5799999999999</ele>
        <time>2023-02-05T09:54:42Z</time>
      </trkpt>
      <trkpt lat="46.422965610399842" lon="8.422539895400405">
        <ele>1855.8599999999999</ele>
        <time>2023-02-05T09:54:44Z</time>
      </trkpt>
      <trkpt lat="46.423106342554092" lon="8.422494130209088">
        <ele>1857.0599999999999</ele>
        <time>2023-02-05T09:55:00Z</time>
      </trkpt>
      <trkpt lat="46.423170380294323" lon="8.422433361411095">
        <ele>1860.05</ele>
        <time>2023-02-05T09:55:08Z</time>
      </trkpt>
      <trkpt lat="46.423299461603165" lon="8.42241114936769">
        <ele>1860.78</ele>
        <time>2023-02-05T09:55:23Z</time>
      </trkpt>
      <trkpt lat="46.423339946195483" lon="8.422393128275871">
        <ele>1861.8299999999999</ele>
        <time>2023-02-05T09:55:33Z</time>
      </trkpt>
      <trkpt lat="46.423332151025534" lon="8.4223916195333">
        <ele>1861.8800000000001</ele>
        <time>2023-02-05T09:55:47Z</time>
      </trkpt>
      <trkpt lat="46.423332737758756" lon="8.422392122447491">
        <ele>1862.0899999999999</ele>
        <time>2023-02-05T09:56:01Z</time>
      </trkpt>
      <trkpt lat="46.423334833234549" lon="8.42238181270659">
        <ele>1861.6700000000001</ele>
        <time>2023-02-05T09:56:31Z</time>
      </trkpt>
      <trkpt lat="46.423339024186134" lon="8.422391284257174">
        <ele>1861.4400000000001</ele>
        <time>2023-02-05T09:57:14Z</time>
      </trkpt>
      <trkpt lat="46.423323936760426" lon="8.422379465773702">
        <ele>1863.0799999999999</ele>
        <time>2023-02-05T09:57:55Z</time>
      </trkpt>
      <trkpt lat="46.423323936760426" lon="8.42237887904048">
        <ele>1863.0799999999999</ele>
        <time>2023-02-05T09:58:30Z</time>
      </trkpt>
      <trkpt lat="46.423325696960092" lon="8.422383740544319">
        <ele>1863.0599999999999</ele>
        <time>2023-02-05T09:59:00Z</time>
      </trkpt>
      <trkpt lat="46.423339443281293" lon="8.422392122447491">
        <ele>1862.8</ele>
        <time>2023-02-05T09:59:32Z</time>
      </trkpt>
      <trkpt lat="46.423342796042562" lon="8.422400001436472">
        <ele>1863.29</ele>
        <time>2023-02-05T10:00:07Z</time>
      </trkpt>
      <trkpt lat="46.423347489908338" lon="8.422387512400746">
        <ele>1863.9400000000001</ele>
        <time>2023-02-05T10:00:37Z</time>
      </trkpt>
      <trkpt lat="46.423349836841226" lon="8.422400504350662">
        <ele>1863.8599999999999</ele>
        <time>2023-02-05T10:01:14Z</time>
      </trkpt>
      <trkpt lat="46.423353524878621" lon="8.422406874597073">
        <ele>1862.48</ele>
        <time>2023-02-05T10:01:52Z</time>
      </trkpt>
      <trkpt lat="46.423353776335716" lon="8.422385416924954">
        <ele>1862.04</ele>
        <time>2023-02-05T10:02:14Z</time>
      </trkpt>
      <trkpt lat="46.423353273421526" lon="8.422405198216438">
        <ele>1861.27</ele>
        <time>2023-02-05T10:02:27Z</time>
      </trkpt>
      <trkpt lat="46.423357632011175" lon="8.42239597812295">
        <ele>1861.4400000000001</ele>
        <time>2023-02-05T10:02:45Z</time>
      </trkpt>
      <trkpt lat="46.423356710001826" lon="8.422386338934302">
        <ele>1861.95</ele>
        <time>2023-02-05T10:03:04Z</time>
      </trkpt>
      <trkpt lat="46.423347322270274" lon="8.422383153811097">
        <ele>1862.3199999999999</ele>
        <time>2023-02-05T10:03:38Z</time>
      </trkpt>
      <trkpt lat="46.423343634232879" lon="8.422400839626789">
        <ele>1862.0799999999999</ele>
        <time>2023-02-05T10:04:05Z</time>
      </trkpt>
      <trkpt lat="46.423343131318688" lon="8.422408131882548">
        <ele>1862.0699999999999</ele>
        <time>2023-02-05T10:04:18Z</time>
      </trkpt>
      <trkpt lat="46.423339108005166" lon="8.422382902354002">
        <ele>1862.8900000000001</ele>
        <time>2023-02-05T10:04:37Z</time>
      </trkpt>
      <trkpt lat="46.423336006700993" lon="8.422372424975038">
        <ele>1862.9400000000001</ele>
        <time>2023-02-05T10:04:48Z</time>
      </trkpt>
      <trkpt lat="46.423335336148739" lon="8.422375693917275">
        <ele>1861.79</ele>
        <time>2023-02-05T10:05:28Z</time>
      </trkpt>
      <trkpt lat="46.423348998650908" lon="8.422393295913935">
        <ele>1860.53</ele>
        <time>2023-02-05T10:06:05Z</time>
      </trkpt>
      <trkpt lat="46.423348244279623" lon="8.422395475208759">
        <ele>1860.3900000000001</ele>
        <time>2023-02-05T10:06:41Z</time>
      </trkpt>
      <trkpt lat="46.423355704173446" lon="8.422392457723618">
        <ele>1860.3900000000001</ele>
        <time>2023-02-05T10:06:56Z</time>
      </trkpt>
      <trkpt lat="46.423346567898989" lon="8.422390362247825">
        <ele>1860.5599999999999</ele>
        <time>2023-02-05T10:07:10Z</time>
      </trkpt>
      <trkpt lat="46.423338940367103" lon="8.422380890697241">
        <ele>1860.46</ele>
        <time>2023-02-05T10:07:30Z</time>
      </trkpt>
      <trkpt lat="46.423319829627872" lon="8.422343675047159">
        <ele>1862.27</ele>
        <time>2023-02-05T10:07:45Z</time>
      </trkpt>
      <trkpt lat="46.423335671424866" lon="8.422344848513603">
        <ele>1862.8699999999999</ele>
        <time>2023-02-05T10:07:58Z</time>
      </trkpt>
      <trkpt lat="46.423367690294981" lon="8.42231978662312">
        <ele>1862.9300000000001</ele>
        <time>2023-02-05T10:08:10Z</time>
      </trkpt>
      <trkpt lat="46.423381436616182" lon="8.422283157706261">
        <ele>1863.79</ele>
        <time>2023-02-05T10:08:23Z</time>
      </trkpt>
      <trkpt lat="46.423503644764423" lon="8.422165308147669">
        <ele>1866.6900000000001</ele>
        <time>2023-02-05T10:08:39Z</time>
      </trkpt>
      <trkpt lat="46.423610849305987" lon="8.422033712267876">
        <ele>1868.8800000000001</ele>
        <time>2023-02-05T10:08:55Z</time>
      </trkpt>
      <trkpt lat="46.423745881766081" lon="8.421914353966713">
        <ele>1871.5799999999999</ele>
        <time>2023-02-05T10:09:14Z</time>
      </trkpt>
      <trkpt lat="46.423760633915663" lon="8.421903038397431">
        <ele>1871.73</ele>
        <time>2023-02-05T10:09:16Z</time>
      </trkpt>
      <trkpt lat="46.423887284472585" lon="8.421908905729652">
        <ele>1872.72</ele>
        <time>2023-02-05T10:09:30Z</time>
      </trkpt>
      <trkpt lat="46.423983424901962" lon="8.421943355351687">
        <ele>1873.8399999999999</ele>
        <time>2023-02-05T10:09:42Z</time>
      </trkpt>
      <trkpt lat="46.423992142081261" lon="8.421949055045843">
        <ele>1873.9200000000001</ele>
        <time>2023-02-05T10:09:43Z</time>
      </trkpt>
      <trkpt lat="46.424098592251539" lon="8.422029940411449">
        <ele>1875.48</ele>
        <time>2023-02-05T10:09:58Z</time>
      </trkpt>
      <trkpt lat="46.424221303313971" lon="8.422051146626473">
        <ele>1877.3599999999999</ele>
        <time>2023-02-05T10:10:13Z</time>
      </trkpt>
      <trkpt lat="46.424340661615133" lon="8.422006219625473">
        <ele>1879.28</ele>
        <time>2023-02-05T10:10:29Z</time>
      </trkpt>
      <trkpt lat="46.424472760409117" lon="8.421939332038164">
        <ele>1880.8199999999999</ele>
        <time>2023-02-05T10:10:46Z</time>
      </trkpt>
      <trkpt lat="46.424494050443172" lon="8.421914856880903">
        <ele>1881.1900000000001</ele>
        <time>2023-02-05T10:10:49Z</time>
      </trkpt>
      <trkpt lat="46.424576612189412" lon="8.421754511073232">
        <ele>1883.3</ele>
        <time>2023-02-05T10:11:05Z</time>
      </trkpt>
      <trkpt lat="46.424645930528641" lon="8.421620232984424">
        <ele>1884.6300000000001</ele>
        <time>2023-02-05T10:11:19Z</time>
      </trkpt>
      <trkpt lat="46.424756236374378" lon="8.421572372317314">
        <ele>1885.28</ele>
        <time>2023-02-05T10:11:36Z</time>
      </trkpt>
      <trkpt lat="46.424801498651505" lon="8.421606738120318">
        <ele>1884.3199999999999</ele>
        <time>2023-02-05T10:11:47Z</time>
      </trkpt>
      <trkpt lat="46.424800995737314" lon="8.421622328460217">
        <ele>1883.95</ele>
        <time>2023-02-05T10:12:12Z</time>
      </trkpt>
      <trkpt lat="46.424813149496913" lon="8.421604810282588">
        <ele>1884.22</ele>
        <time>2023-02-05T10:12:31Z</time>
      </trkpt>
      <trkpt lat="46.424814239144325" lon="8.421580754220486">
        <ele>1884.52</ele>
        <time>2023-02-05T10:12:45Z</time>
      </trkpt>
      <trkpt lat="46.424879701808095" lon="8.421586537733674">
        <ele>1885.79</ele>
        <time>2023-02-05T10:12:56Z</time>
      </trkpt>
      <trkpt lat="46.424902165308595" lon="8.421632135286927">
        <ele>1886.7</ele>
        <time>2023-02-05T10:13:01Z</time>
      </trkpt>
      <trkpt lat="46.424976512789726" lon="8.421638421714306">
        <ele>1889.74</ele>
        <time>2023-02-05T10:13:14Z</time>
      </trkpt>
      <trkpt lat="46.425083801150322" lon="8.421658119186759">
        <ele>1893.6900000000001</ele>
        <time>2023-02-05T10:13:32Z</time>
      </trkpt>
      <trkpt lat="46.425081705674529" lon="8.421730035915971">
        <ele>1895.6099999999999</ele>
        <time>2023-02-05T10:13:44Z</time>
      </trkpt>
      <trkpt lat="46.425046669319272" lon="8.421862637624145">
        <ele>1897.78</ele>
        <time>2023-02-05T10:14:01Z</time>
      </trkpt>
      <trkpt lat="46.425080616027117" lon="8.421891974285245">
        <ele>1900.49</ele>
        <time>2023-02-05T10:14:16Z</time>
      </trkpt>
      <trkpt lat="46.425155717879534" lon="8.421886190772057">
        <ele>1903.3800000000001</ele>
        <time>2023-02-05T10:14:32Z</time>
      </trkpt>
      <trkpt lat="46.42521858215332" lon="8.421887448057532">
        <ele>1905.4400000000001</ele>
        <time>2023-02-05T10:14:46Z</time>
      </trkpt>
      <trkpt lat="46.425237357616425" lon="8.421978475525975">
        <ele>1907.77</ele>
        <time>2023-02-05T10:15:01Z</time>
      </trkpt>
      <trkpt lat="46.425260240212083" lon="8.422044608741999">
        <ele>1910.0799999999999</ele>
        <time>2023-02-05T10:15:15Z</time>
      </trkpt>
      <trkpt lat="46.425239033997059" lon="8.422134881839156">
        <ele>1912.1300000000001</ele>
        <time>2023-02-05T10:15:31Z</time>
      </trkpt>
      <trkpt lat="46.425251606851816" lon="8.422226244583726">
        <ele>1914.05</ele>
        <time>2023-02-05T10:15:45Z</time>
      </trkpt>
      <trkpt lat="46.425248086452484" lon="8.422322133556008">
        <ele>1916.01</ele>
        <time>2023-02-05T10:16:00Z</time>
      </trkpt>
      <trkpt lat="46.425267113372684" lon="8.422406874597073">
        <ele>1917.05</ele>
        <time>2023-02-05T10:16:15Z</time>
      </trkpt>
      <trkpt lat="46.425281194970012" lon="8.42252891510725">
        <ele>1918.1300000000001</ele>
        <time>2023-02-05T10:16:34Z</time>
      </trkpt>
      <trkpt lat="46.425252025946975" lon="8.422631928697228">
        <ele>1919.9400000000001</ele>
        <time>2023-02-05T10:16:49Z</time>
      </trkpt>
      <trkpt lat="46.425275914371014" lon="8.422689847648144">
        <ele>1921.8900000000001</ele>
        <time>2023-02-05T10:17:05Z</time>
      </trkpt>
      <trkpt lat="46.425292678177357" lon="8.422742402181029">
        <ele>1922.03</ele>
        <time>2023-02-05T10:17:18Z</time>
      </trkpt>
      <trkpt lat="46.425268119201064" lon="8.422778863459826">
        <ele>1922.75</ele>
        <time>2023-02-05T10:17:32Z</time>
      </trkpt>
      <trkpt lat="46.42527281306684" lon="8.422789173200727">
        <ele>1924.0599999999999</ele>
        <time>2023-02-05T10:17:47Z</time>
      </trkpt>
      <trkpt lat="46.425265185534954" lon="8.422784814611077">
        <ele>1925.51</ele>
        <time>2023-02-05T10:18:34Z</time>
      </trkpt>
      <trkpt lat="46.42526937648654" lon="8.422780120745301">
        <ele>1926.4200000000001</ele>
        <time>2023-02-05T10:19:21Z</time>
      </trkpt>
      <trkpt lat="46.425267364829779" lon="8.422789173200727">
        <ele>1926.5799999999999</ele>
        <time>2023-02-05T10:20:17Z</time>
      </trkpt>
      <trkpt lat="46.425275495275855" lon="8.422786658629775">
        <ele>1927.9300000000001</ele>
        <time>2023-02-05T10:21:18Z</time>
      </trkpt>
      <trkpt lat="46.42527524381876" lon="8.42278691008687">
        <ele>1928.04</ele>
        <time>2023-02-05T10:22:15Z</time>
      </trkpt>
      <trkpt lat="46.42527817748487" lon="8.42278347350657">
        <ele>1928.51</ele>
        <time>2023-02-05T10:23:09Z</time>
      </trkpt>
      <trkpt lat="46.425272058695555" lon="8.422781378030777">
        <ele>1928.1199999999999</ele>
        <time>2023-02-05T10:24:03Z</time>
      </trkpt>
      <trkpt lat="46.425267951563001" lon="8.422789089381695">
        <ele>1927.8199999999999</ele>
        <time>2023-02-05T10:25:05Z</time>
      </trkpt>
      <trkpt lat="46.425262587144971" lon="8.42277861200273">
        <ele>1927.6099999999999</ele>
        <time>2023-02-05T10:25:57Z</time>
      </trkpt>
      <trkpt lat="46.42526644282043" lon="8.422784982249141">
        <ele>1926.47</ele>
        <time>2023-02-05T10:26:50Z</time>
      </trkpt>
      <trkpt lat="46.425267700105906" lon="8.422787915915251">
        <ele>1925.9300000000001</ele>
        <time>2023-02-05T10:27:50Z</time>
      </trkpt>
      <trkpt lat="46.425268789753318" lon="8.422787077724934">
        <ele>1925.3800000000001</ele>
        <time>2023-02-05T10:28:44Z</time>
      </trkpt>
      <trkpt lat="46.425263592973351" lon="8.422787915915251">
        <ele>1925.0699999999999</ele>
        <time>2023-02-05T10:29:31Z</time>
      </trkpt>
      <trkpt lat="46.425259485840797" lon="8.422791603952646">
        <ele>1924.95</ele>
        <time>2023-02-05T10:30:22Z</time>
      </trkpt>
      <trkpt lat="46.425269963219762" lon="8.42278447933495">
        <ele>1923.99</ele>
        <time>2023-02-05T10:31:12Z</time>
      </trkpt>
      <trkpt lat="46.425267867743969" lon="8.42279713600874">
        <ele>1923.28</ele>
        <time>2023-02-05T10:31:58Z</time>
      </trkpt>
      <trkpt lat="46.425277926027775" lon="8.422792861238122">
        <ele>1922.4300000000001</ele>
        <time>2023-02-05T10:32:42Z</time>
      </trkpt>
      <trkpt lat="46.42527281306684" lon="8.422791855409741">
        <ele>1923.96</ele>
        <time>2023-02-05T10:33:29Z</time>
      </trkpt>
      <trkpt lat="46.42527524381876" lon="8.422802584245801">
        <ele>1924.4000000000001</ele>
        <time>2023-02-05T10:34:05Z</time>
      </trkpt>
      <trkpt lat="46.425284212455153" lon="8.422800824046135">
        <ele>1924.25</ele>
        <time>2023-02-05T10:34:47Z</time>
      </trkpt>
      <trkpt lat="46.425288990139961" lon="8.422796381637454">
        <ele>1924.4000000000001</ele>
        <time>2023-02-05T10:35:21Z</time>
      </trkpt>
      <trkpt lat="46.42528161406517" lon="8.422792861238122">
        <ele>1924.4200000000001</ele>
        <time>2023-02-05T10:35:37Z</time>
      </trkpt>
      <trkpt lat="46.425289576873183" lon="8.422792023047805">
        <ele>1925.1099999999999</ele>
        <time>2023-02-05T10:36:00Z</time>
      </trkpt>
      <trkpt lat="46.425292175263166" lon="8.422799818217754">
        <ele>1925.3299999999999</ele>
        <time>2023-02-05T10:36:14Z</time>
      </trkpt>
      <trkpt lat="46.425291085615754" lon="8.422799315303564">
        <ele>1925.1900000000001</ele>
        <time>2023-02-05T10:36:29Z</time>
      </trkpt>
      <trkpt lat="46.425269460305572" lon="8.422838961705566">
        <ele>1925.3</ele>
        <time>2023-02-05T10:36:44Z</time>
      </trkpt>
      <trkpt lat="46.425262503325939" lon="8.42292127199471">
        <ele>1926.02</ele>
        <time>2023-02-05T10:37:00Z</time>
      </trkpt>
      <trkpt lat="46.42530994489789" lon="8.422934599220753">
        <ele>1926.45</ele>
        <time>2023-02-05T10:37:14Z</time>
      </trkpt>
      <trkpt lat="46.425388315692544" lon="8.422938203439117">
        <ele>1928.5599999999999</ele>
        <time>2023-02-05T10:37:29Z</time>
      </trkpt>
      <trkpt lat="46.425470039248466" lon="8.422931330278516">
        <ele>1932.03</ele>
        <time>2023-02-05T10:37:41Z</time>
      </trkpt>
      <trkpt lat="46.42555913887918" lon="8.422931330278516">
        <ele>1934.74</ele>
        <time>2023-02-05T10:37:56Z</time>
      </trkpt>
      <trkpt lat="46.425627870485187" lon="8.422951782122254">
        <ele>1936.8499999999999</ele>
        <time>2023-02-05T10:38:10Z</time>
      </trkpt>
      <trkpt lat="46.425677156075835" lon="8.422999642789364">
        <ele>1939.9400000000001</ele>
        <time>2023-02-05T10:38:24Z</time>
      </trkpt>
      <trkpt lat="46.425766758620739" lon="8.423058483749628">
        <ele>1942.76</ele>
        <time>2023-02-05T10:38:39Z</time>
      </trkpt>
      <trkpt lat="46.425888715311885" lon="8.423065524548292">
        <ele>1945.0599999999999</ele>
        <time>2023-02-05T10:38:55Z</time>
      </trkpt>
      <trkpt lat="46.42597840167582" lon="8.422966618090868">
        <ele>1946.0699999999999</ele>
        <time>2023-02-05T10:39:10Z</time>
      </trkpt>
      <trkpt lat="46.426004217937589" lon="8.422836950048804">
        <ele>1947.1800000000001</ele>
        <time>2023-02-05T10:39:23Z</time>
      </trkpt>
      <trkpt lat="46.426018048077822" lon="8.422741983085871">
        <ele>1948.8399999999999</ele>
        <time>2023-02-05T10:39:34Z</time>
      </trkpt>
      <trkpt lat="46.426032297313213" lon="8.422693284228444">
        <ele>1949.5899999999999</ele>
        <time>2023-02-05T10:39:38Z</time>
      </trkpt>
      <trkpt lat="46.42608636058867" lon="8.422516509890556">
        <ele>1952.2</ele>
        <time>2023-02-05T10:39:53Z</time>
      </trkpt>
      <trkpt lat="46.42616749741137" lon="8.422327330335975">
        <ele>1954.6600000000001</ele>
        <time>2023-02-05T10:40:10Z</time>
      </trkpt>
      <trkpt lat="46.426247796043754" lon="8.422188777476549">
        <ele>1956.6800000000001</ele>
        <time>2023-02-05T10:40:24Z</time>
      </trkpt>
      <trkpt lat="46.426334884017706" lon="8.422033376991749">
        <ele>1958.45</ele>
        <time>2023-02-05T10:40:39Z</time>
      </trkpt>
      <trkpt lat="46.426385929808021" lon="8.421870181336999">
        <ele>1959.02</ele>
        <time>2023-02-05T10:40:54Z</time>
      </trkpt>
      <trkpt lat="46.426464719697833" lon="8.421788876876235">
        <ele>1960.8199999999999</ele>
        <time>2023-02-05T10:41:07Z</time>
      </trkpt>
      <trkpt lat="46.426523560658097" lon="8.421771861612797">
        <ele>1962.71</ele>
        <time>2023-02-05T10:41:19Z</time>
      </trkpt>
      <trkpt lat="46.426577707752585" lon="8.421722995117307">
        <ele>1964.3199999999999</ele>
        <time>2023-02-05T10:41:33Z</time>
      </trkpt>
      <trkpt lat="46.426618024706841" lon="8.421635907143354">
        <ele>1965.75</ele>
        <time>2023-02-05T10:41:47Z</time>
      </trkpt>
      <trkpt lat="46.426618024706841" lon="8.421640684828162">
        <ele>1964.95</ele>
        <time>2023-02-05T10:42:00Z</time>
      </trkpt>
      <trkpt lat="46.426624646410346" lon="8.421629536896944">
        <ele>1964.28</ele>
        <time>2023-02-05T10:42:08Z</time>
      </trkpt>
      <trkpt lat="46.426625233143568" lon="8.421632638201118">
        <ele>1965.4100000000001</ele>
        <time>2023-02-05T10:42:34Z</time>
      </trkpt>
      <trkpt lat="46.426626406610012" lon="8.421634146943688">
        <ele>1965.5899999999999</ele>
        <time>2023-02-05T10:43:12Z</time>
      </trkpt>
      <trkpt lat="46.426615510135889" lon="8.421628279611468">
        <ele>1965.3299999999999</ele>
        <time>2023-02-05T10:43:57Z</time>
      </trkpt>
      <trkpt lat="46.426621712744236" lon="8.4216249268502">
        <ele>1965.1500000000001</ele>
        <time>2023-02-05T10:44:40Z</time>
      </trkpt>
      <trkpt lat="46.426626490429044" lon="8.42163372784853">
        <ele>1965.8699999999999</ele>
        <time>2023-02-05T10:45:31Z</time>
      </trkpt>
      <trkpt lat="46.426624981686473" lon="8.421649150550365">
        <ele>1965.8599999999999</ele>
        <time>2023-02-05T10:45:57Z</time>
      </trkpt>
      <trkpt lat="46.426615007221699" lon="8.421639176085591">
        <ele>1965.54</ele>
        <time>2023-02-05T10:46:30Z</time>
      </trkpt>
      <trkpt lat="46.426611570641398" lon="8.421632386744022">
        <ele>1965.78</ele>
        <time>2023-02-05T10:47:14Z</time>
      </trkpt>
      <trkpt lat="46.426614169031382" lon="8.421627609059215">
        <ele>1965.24</ele>
        <time>2023-02-05T10:48:03Z</time>
      </trkpt>
      <trkpt lat="46.426626406610012" lon="8.421630626544356">
        <ele>1964.1600000000001</ele>
        <time>2023-02-05T10:48:47Z</time>
      </trkpt>
      <trkpt lat="46.426619617268443" lon="8.421639259904623">
        <ele>1964.7</ele>
        <time>2023-02-05T10:49:32Z</time>
      </trkpt>
      <trkpt lat="46.426626071333885" lon="8.421634482219815">
        <ele>1965.49</ele>
        <time>2023-02-05T10:50:20Z</time>
      </trkpt>
      <trkpt lat="46.426632106304169" lon="8.421628614887595">
        <ele>1964.4400000000001</ele>
        <time>2023-02-05T10:51:12Z</time>
      </trkpt>
      <trkpt lat="46.426620790734887" lon="8.421624591574073">
        <ele>1964.46</ele>
        <time>2023-02-05T10:52:02Z</time>
      </trkpt>
      <trkpt lat="46.426618024706841" lon="8.421640349552035">
        <ele>1963.1500000000001</ele>
        <time>2023-02-05T10:52:59Z</time>
      </trkpt>
      <trkpt lat="46.426619114354253" lon="8.42163423076272">
        <ele>1962.0799999999999</ele>
        <time>2023-02-05T10:53:51Z</time>
      </trkpt>
      <trkpt lat="46.426616348326206" lon="8.421626854687929">
        <ele>1961.9100000000001</ele>
        <time>2023-02-05T10:54:41Z</time>
      </trkpt>
      <trkpt lat="46.426627077162266" lon="8.421625094488263">
        <ele>1962.6700000000001</ele>
        <time>2023-02-05T10:55:34Z</time>
      </trkpt>
      <trkpt lat="46.4266321901232" lon="8.421622160822153">
        <ele>1962.24</ele>
        <time>2023-02-05T10:56:29Z</time>
      </trkpt>
      <trkpt lat="46.426627580076456" lon="8.42162249609828">
        <ele>1961.5999999999999</ele>
        <time>2023-02-05T10:57:17Z</time>
      </trkpt>
      <trkpt lat="46.426620539277792" lon="8.421627357602119">
        <ele>1962.0799999999999</ele>
        <time>2023-02-05T10:57:55Z</time>
      </trkpt>
      <trkpt lat="46.426615510135889" lon="8.421614868566394">
        <ele>1962.6300000000001</ele>
        <time>2023-02-05T10:58:12Z</time>
      </trkpt>
      <trkpt lat="46.426615342497826" lon="8.421621574088931">
        <ele>1963.3299999999999</ele>
        <time>2023-02-05T10:58:27Z</time>
      </trkpt>
      <trkpt lat="46.426620874553919" lon="8.421646635979414">
        <ele>1963.55</ele>
        <time>2023-02-05T10:58:52Z</time>
      </trkpt>
      <trkpt lat="46.426659012213349" lon="8.421756774187088">
        <ele>1963.21</ele>
        <time>2023-02-05T10:59:03Z</time>
      </trkpt>
      <trkpt lat="46.426705531775951" lon="8.421888956800103">
        <ele>1963.6400000000001</ele>
        <time>2023-02-05T10:59:19Z</time>
      </trkpt>
      <trkpt lat="46.426708716899157" lon="8.421970261260867">
        <ele>1964.1700000000001</ele>
        <time>2023-02-05T10:59:33Z</time>
      </trkpt>
      <trkpt lat="46.426713243126869" lon="8.422106467187405">
        <ele>1966.0999999999999</ele>
        <time>2023-02-05T10:59:49Z</time>
      </trkpt>
      <trkpt lat="46.426639063283801" lon="8.42221082188189">
        <ele>1968.0599999999999</ele>
        <time>2023-02-05T11:00:02Z</time>
      </trkpt>
      <trkpt lat="46.426578629761934" lon="8.422369407489896">
        <ele>1970.99</ele>
        <time>2023-02-05T11:00:18Z</time>
      </trkpt>
      <trkpt lat="46.426583072170615" lon="8.422559257596731">
        <ele>1973.79</ele>
        <time>2023-02-05T11:00:35Z</time>
      </trkpt>
      <trkpt lat="46.426588101312518" lon="8.422768134623766">
        <ele>1975.95</ele>
        <time>2023-02-05T11:00:53Z</time>
      </trkpt>
      <trkpt lat="46.426566811278462" lon="8.422938957810402">
        <ele>1977.3900000000001</ele>
        <time>2023-02-05T11:01:08Z</time>
      </trkpt>
      <trkpt lat="46.42654275521636" lon="8.423136351630092">
        <ele>1978.75</ele>
        <time>2023-02-05T11:01:25Z</time>
      </trkpt>
      <trkpt lat="46.426507467404008" lon="8.423337684944272">
        <ele>1979.71</ele>
        <time>2023-02-05T11:01:43Z</time>
      </trkpt>
      <trkpt lat="46.426468575373292" lon="8.423502976074815">
        <ele>1981.54</ele>
        <time>2023-02-05T11:01:58Z</time>
      </trkpt>
      <trkpt lat="46.426456002518535" lon="8.423641864210367">
        <ele>1982.2</ele>
        <time>2023-02-05T11:02:11Z</time>
      </trkpt>
      <trkpt lat="46.42643571831286" lon="8.423819057643414">
        <ele>1985.53</ele>
        <time>2023-02-05T11:02:27Z</time>
      </trkpt>
      <trkpt lat="46.426409985870123" lon="8.423933470621705">
        <ele>1984.74</ele>
        <time>2023-02-05T11:02:40Z</time>
      </trkpt>
      <trkpt lat="46.426408560946584" lon="8.423944115638733">
        <ele>1985.23</ele>
        <time>2023-02-05T11:02:53Z</time>
      </trkpt>
      <trkpt lat="46.426405208185315" lon="8.423938080668449">
        <ele>1985.1199999999999</ele>
        <time>2023-02-05T11:03:09Z</time>
      </trkpt>
      <trkpt lat="46.426404286175966" lon="8.423946630209684">
        <ele>1986.54</ele>
        <time>2023-02-05T11:03:37Z</time>
      </trkpt>
      <trkpt lat="46.426404034718871" lon="8.423947803676128">
        <ele>1986.53</ele>
        <time>2023-02-05T11:03:51Z</time>
      </trkpt>
      <trkpt lat="46.426411997526884" lon="8.423954593017697">
        <ele>1987.22</ele>
        <time>2023-02-05T11:04:09Z</time>
      </trkpt>
      <trkpt lat="46.42643622122705" lon="8.423964651301503">
        <ele>1987.3699999999999</ele>
        <time>2023-02-05T11:04:26Z</time>
      </trkpt>
      <trkpt lat="46.426463797688484" lon="8.424040591344237">
        <ele>1988.3699999999999</ele>
        <time>2023-02-05T11:04:38Z</time>
      </trkpt>
      <trkpt lat="46.426516771316528" lon="8.424069844186306">
        <ele>1988.6700000000001</ele>
        <time>2023-02-05T11:04:51Z</time>
      </trkpt>
      <trkpt lat="46.426523728296161" lon="8.424070430919528">
        <ele>1989.5899999999999</ele>
        <time>2023-02-05T11:05:04Z</time>
      </trkpt>
      <trkpt lat="46.426532361656427" lon="8.424075040966272">
        <ele>1990.6300000000001</ele>
        <time>2023-02-05T11:05:23Z</time>
      </trkpt>
      <trkpt lat="46.426529008895159" lon="8.424081159755588">
        <ele>1992.29</ele>
        <time>2023-02-05T11:05:48Z</time>
      </trkpt>
      <trkpt lat="46.42653102055192" lon="8.424080153927207">
        <ele>1993.1600000000001</ele>
        <time>2023-02-05T11:06:12Z</time>
      </trkpt>
      <trkpt lat="46.426544850692153" lon="8.424102701246738">
        <ele>1993.0899999999999</ele>
        <time>2023-02-05T11:06:35Z</time>
      </trkpt>
      <trkpt lat="46.426578797399998" lon="8.424175288528204">
        <ele>1994.54</ele>
        <time>2023-02-05T11:06:48Z</time>
      </trkpt>
      <trkpt lat="46.426616264507174" lon="8.424226501956582">
        <ele>1996.45</ele>
        <time>2023-02-05T11:06:59Z</time>
      </trkpt>
      <trkpt lat="46.426656749099493" lon="8.424276877194643">
        <ele>1998.23</ele>
        <time>2023-02-05T11:07:13Z</time>
      </trkpt>
      <trkpt lat="46.426664460450411" lon="8.424289785325527">
        <ele>1999.01</ele>
        <time>2023-02-05T11:07:24Z</time>
      </trkpt>
      <trkpt lat="46.426683403551579" lon="8.424345524981618">
        <ele>1999.8399999999999</ele>
        <time>2023-02-05T11:07:39Z</time>
      </trkpt>
      <trkpt lat="46.426675692200661" lon="8.424351559951901">
        <ele>2001.1600000000001</ele>
        <time>2023-02-05T11:07:59Z</time>
      </trkpt>
      <trkpt lat="46.426654737442732" lon="8.424363126978278">
        <ele>2002.0799999999999</ele>
        <time>2023-02-05T11:08:22Z</time>
      </trkpt>
      <trkpt lat="46.426643086597323" lon="8.424394559115171">
        <ele>2001.9300000000001</ele>
        <time>2023-02-05T11:08:43Z</time>
      </trkpt>
      <trkpt lat="46.426686756312847" lon="8.424522383138537">
        <ele>2001.1400000000001</ele>
        <time>2023-02-05T11:09:00Z</time>
      </trkpt>
      <trkpt lat="46.426714668050408" lon="8.424542834982276">
        <ele>2002.5699999999999</ele>
        <time>2023-02-05T11:09:15Z</time>
      </trkpt>
      <trkpt lat="46.426712404936552" lon="8.424638556316495">
        <ele>2003.3399999999999</ele>
        <time>2023-02-05T11:09:27Z</time>
      </trkpt>
      <trkpt lat="46.426705028861761" lon="8.424775348976255">
        <ele>2005.05</ele>
        <time>2023-02-05T11:09:45Z</time>
      </trkpt>
      <trkpt lat="46.426709638908505" lon="8.424765877425671">
        <ele>2007.24</ele>
        <time>2023-02-05T11:10:02Z</time>
      </trkpt>
      <trkpt lat="46.426731767132878" lon="8.424766380339861">
        <ele>2008.9200000000001</ele>
        <time>2023-02-05T11:10:26Z</time>
      </trkpt>
      <trkpt lat="46.426727157086134" lon="8.424744671210647">
        <ele>2011.3299999999999</ele>
        <time>2023-02-05T11:10:53Z</time>
      </trkpt>
      <trkpt lat="46.426749285310507" lon="8.424781803041697">
        <ele>2013.0799999999999</ele>
        <time>2023-02-05T11:11:11Z</time>
      </trkpt>
      <trkpt lat="46.426746435463428" lon="8.42476244084537">
        <ele>2016.22</ele>
        <time>2023-02-05T11:11:41Z</time>
      </trkpt>
      <trkpt lat="46.426741573959589" lon="8.424755232408643">
        <ele>2016.5699999999999</ele>
        <time>2023-02-05T11:12:07Z</time>
      </trkpt>
      <trkpt lat="46.426737550646067" lon="8.4247453417629">
        <ele>2017.4300000000001</ele>
        <time>2023-02-05T11:12:25Z</time>
      </trkpt>
      <trkpt lat="46.426736125722528" lon="8.424742240458727">
        <ele>2019.21</ele>
        <time>2023-02-05T11:12:53Z</time>
      </trkpt>
      <trkpt lat="46.426724307239056" lon="8.424738049507141">
        <ele>2019.54</ele>
        <time>2023-02-05T11:13:17Z</time>
      </trkpt>
      <trkpt lat="46.426722882315516" lon="8.424733355641365">
        <ele>2020.6300000000001</ele>
        <time>2023-02-05T11:13:35Z</time>
      </trkpt>
      <trkpt lat="46.426718356087804" lon="8.424745425581932">
        <ele>2021.1500000000001</ele>
        <time>2023-02-05T11:13:55Z</time>
      </trkpt>
      <trkpt lat="46.426745429635048" lon="8.424746263772249">
        <ele>2021.05</ele>
        <time>2023-02-05T11:14:22Z</time>
      </trkpt>
      <trkpt lat="46.426790272817016" lon="8.424821281805635">
        <ele>2022.04</ele>
        <time>2023-02-05T11:14:41Z</time>
      </trkpt>
      <trkpt lat="46.42682421952486" lon="8.424851289018989">
        <ele>2023.8199999999999</ele>
        <time>2023-02-05T11:14:55Z</time>
      </trkpt>
      <trkpt lat="46.426814664155245" lon="8.424842739477754">
        <ele>2024.0999999999999</ele>
        <time>2023-02-05T11:15:04Z</time>
      </trkpt>
      <trkpt lat="46.426815502345562" lon="8.42480544000864">
        <ele>2024.5599999999999</ele>
        <time>2023-02-05T11:15:23Z</time>
      </trkpt>
      <trkpt lat="46.426824973896146" lon="8.424797728657723">
        <ele>2026.0799999999999</ele>
        <time>2023-02-05T11:15:46Z</time>
      </trkpt>
      <trkpt lat="46.426823297515512" lon="8.424789514392614">
        <ele>2026.0699999999999</ele>
        <time>2023-02-05T11:16:10Z</time>
      </trkpt>
      <trkpt lat="46.426830505952239" lon="8.424790101125836">
        <ele>2026.4200000000001</ele>
        <time>2023-02-05T11:16:39Z</time>
      </trkpt>
      <trkpt lat="46.426822543144226" lon="8.424792364239693">
        <ele>2027.5699999999999</ele>
        <time>2023-02-05T11:17:08Z</time>
      </trkpt>
      <trkpt lat="46.426828075200319" lon="8.424814576283097">
        <ele>2027.3699999999999</ele>
        <time>2023-02-05T11:17:22Z</time>
      </trkpt>
      <trkpt lat="46.426876606419683" lon="8.424762692302465">
        <ele>2029.1099999999999</ele>
        <time>2023-02-05T11:17:34Z</time>
      </trkpt>
      <trkpt lat="46.426913822069764" lon="8.424643753096461">
        <ele>2029.5799999999999</ele>
        <time>2023-02-05T11:17:46Z</time>
      </trkpt>
      <trkpt lat="46.426921281963587" lon="8.424585750326514">
        <ele>2030.02</ele>
        <time>2023-02-05T11:17:57Z</time>
      </trkpt>
      <trkpt lat="46.426937123760581" lon="8.424536464735866">
        <ele>2030.9300000000001</ele>
        <time>2023-02-05T11:18:03Z</time>
      </trkpt>
      <trkpt lat="46.426948606967926" lon="8.424542332068086">
        <ele>2030.75</ele>
        <time>2023-02-05T11:18:15Z</time>
      </trkpt>
      <trkpt lat="46.426949026063085" lon="8.424540236592293">
        <ele>2030.28</ele>
        <time>2023-02-05T11:18:26Z</time>
      </trkpt>
      <trkpt lat="46.426933854818344" lon="8.424503691494465">
        <ele>2030.0899999999999</ele>
        <time>2023-02-05T11:18:40Z</time>
      </trkpt>
      <trkpt lat="46.426953049376607" lon="8.424389278516173">
        <ele>2030.74</ele>
        <time>2023-02-05T11:18:54Z</time>
      </trkpt>
      <trkpt lat="46.426960425451398" lon="8.424341836944223">
        <ele>2031.1900000000001</ele>
        <time>2023-02-05T11:18:58Z</time>
      </trkpt>
      <trkpt lat="46.427031671628356" lon="8.424186268821359">
        <ele>2032.9100000000001</ele>
        <time>2023-02-05T11:19:13Z</time>
      </trkpt>
      <trkpt lat="46.427111970260739" lon="8.424087781459093">
        <ele>2034.47</ele>
        <time>2023-02-05T11:19:26Z</time>
      </trkpt>
      <trkpt lat="46.427125716581941" lon="8.424076801165938">
        <ele>2034.3499999999999</ele>
        <time>2023-02-05T11:19:28Z</time>
      </trkpt>
      <trkpt lat="46.427256977185607" lon="8.424022234976292">
        <ele>2035.26</ele>
        <time>2023-02-05T11:19:43Z</time>
      </trkpt>
      <trkpt lat="46.427359404042363" lon="8.423929363489151">
        <ele>2035.6199999999999</ele>
        <time>2023-02-05T11:19:57Z</time>
      </trkpt>
      <trkpt lat="46.427474906668067" lon="8.423769772052765">
        <ele>2037.49</ele>
        <time>2023-02-05T11:20:14Z</time>
      </trkpt>
      <trkpt lat="46.427544225007296" lon="8.423672709614039">
        <ele>2038.9400000000001</ele>
        <time>2023-02-05T11:20:26Z</time>
      </trkpt>
      <trkpt lat="46.427639862522483" lon="8.423583693802357">
        <ele>2038.8800000000001</ele>
        <time>2023-02-05T11:20:40Z</time>
      </trkpt>
      <trkpt lat="46.427715551108122" lon="8.423443548381329">
        <ele>2040.2</ele>
        <time>2023-02-05T11:20:55Z</time>
      </trkpt>
      <trkpt lat="46.427711024880409" lon="8.423323687165976">
        <ele>2041.5899999999999</ele>
        <time>2023-02-05T11:21:08Z</time>
      </trkpt>
      <trkpt lat="46.427678419277072" lon="8.42318513430655">
        <ele>2043.3099999999999</ele>
        <time>2023-02-05T11:21:21Z</time>
      </trkpt>
      <trkpt lat="46.427621338516474" lon="8.42301657423377">
        <ele>2044.9200000000001</ele>
        <time>2023-02-05T11:21:37Z</time>
      </trkpt>
      <trkpt lat="46.427611196413636" lon="8.422865197062492">
        <ele>2046.8099999999999</ele>
        <time>2023-02-05T11:21:50Z</time>
      </trkpt>
      <trkpt lat="46.42762117087841" lon="8.422740222886205">
        <ele>2047.1199999999999</ele>
        <time>2023-02-05T11:22:02Z</time>
      </trkpt>
      <trkpt lat="46.427646148949862" lon="8.422678364440799">
        <ele>2048.3200000000002</ele>
        <time>2023-02-05T11:22:08Z</time>
      </trkpt>
      <trkpt lat="46.427682191133499" lon="8.422511229291558">
        <ele>2049.98</ele>
        <time>2023-02-05T11:22:23Z</time>
      </trkpt>
      <trkpt lat="46.427698032930493" lon="8.422331353649497">
        <ele>2051.2399999999998</ele>
        <time>2023-02-05T11:22:38Z</time>
      </trkpt>
      <trkpt lat="46.427718233317137" lon="8.422208642587066">
        <ele>2051.0700000000002</ele>
        <time>2023-02-05T11:22:50Z</time>
      </trkpt>
      <trkpt lat="46.427753269672394" lon="8.422175031155348">
        <ele>2051.0700000000002</ele>
        <time>2023-02-05T11:23:01Z</time>
      </trkpt>
      <trkpt lat="46.427761819213629" lon="8.422264968976378">
        <ele>2050.5900000000001</ele>
        <time>2023-02-05T11:23:12Z</time>
      </trkpt>
      <trkpt lat="46.427769614383578" lon="8.422261448577046">
        <ele>2050.1599999999999</ele>
        <time>2023-02-05T11:23:29Z</time>
      </trkpt>
      <trkpt lat="46.427768021821976" lon="8.42225918546319">
        <ele>2049.8000000000002</ele>
        <time>2023-02-05T11:24:07Z</time>
      </trkpt>
      <trkpt lat="46.427773721516132" lon="8.422243092209101">
        <ele>2050.3400000000001</ele>
        <time>2023-02-05T11:24:54Z</time>
      </trkpt>
      <trkpt lat="46.427774894982576" lon="8.422245103865862">
        <ele>2050.3899999999999</ele>
        <time>2023-02-05T11:25:40Z</time>
      </trkpt>
      <trkpt lat="46.427764501422644" lon="8.422231609001756">
        <ele>2051.02</ele>
        <time>2023-02-05T11:26:13Z</time>
      </trkpt>
      <trkpt lat="46.427771877497435" lon="8.422247283160687">
        <ele>2050.9400000000001</ele>
        <time>2023-02-05T11:26:26Z</time>
      </trkpt>
      <trkpt lat="46.427772967144847" lon="8.422253904864192">
        <ele>2050.9499999999998</ele>
        <time>2023-02-05T11:26:43Z</time>
      </trkpt>
      <trkpt lat="46.427806662395597" lon="8.422260442748666">
        <ele>2050.8000000000002</ele>
        <time>2023-02-05T11:26:59Z</time>
      </trkpt>
      <trkpt lat="46.427833568304777" lon="8.422304531559348">
        <ele>2051.3800000000001</ele>
        <time>2023-02-05T11:27:08Z</time>
      </trkpt>
      <trkpt lat="46.427836418151855" lon="8.422371335327625">
        <ele>2051.75</ele>
        <time>2023-02-05T11:27:13Z</time>
      </trkpt>
      <trkpt lat="46.427815798670053" lon="8.422540733590722">
        <ele>2053.48</ele>
        <time>2023-02-05T11:27:27Z</time>
      </trkpt>
      <trkpt lat="46.427837423980236" lon="8.422713316977024">
        <ele>2056.0300000000002</ele>
        <time>2023-02-05T11:27:41Z</time>
      </trkpt>
      <trkpt lat="46.42790506593883" lon="8.422857066616416">
        <ele>2057.9200000000001</ele>
        <time>2023-02-05T11:27:55Z</time>
      </trkpt>
      <trkpt lat="46.427984442561865" lon="8.42300433665514">
        <ele>2059.9099999999999</ele>
        <time>2023-02-05T11:28:11Z</time>
      </trkpt>
      <trkpt lat="46.428069267421961" lon="8.423131071031094">
        <ele>2060.9099999999999</ele>
        <time>2023-02-05T11:28:26Z</time>
      </trkpt>
      <trkpt lat="46.428123833611608" lon="8.423193516209722">
        <ele>2061.7600000000002</ele>
        <time>2023-02-05T11:28:35Z</time>
      </trkpt>
      <trkpt lat="46.428136825561523" lon="8.423227798193693">
        <ele>2061.6799999999998</ele>
        <time>2023-02-05T11:28:39Z</time>
      </trkpt>
      <trkpt lat="46.428252495825291" lon="8.423276245594025">
        <ele>2062.4299999999998</ele>
        <time>2023-02-05T11:28:53Z</time>
      </trkpt>
      <trkpt lat="46.428319467231631" lon="8.423321088775992">
        <ele>2063.3699999999999</ele>
        <time>2023-02-05T11:29:03Z</time>
      </trkpt>
      <trkpt lat="46.428331956267357" lon="8.423340953886509">
        <ele>2063.3899999999999</ele>
        <time>2023-02-05T11:29:05Z</time>
      </trkpt>
      <trkpt lat="46.428359700366855" lon="8.423373391851783">
        <ele>2063.4299999999998</ele>
        <time>2023-02-05T11:29:09Z</time>
      </trkpt>
      <trkpt lat="46.428415020927787" lon="8.423467939719558">
        <ele>2063.9899999999998</ele>
        <time>2023-02-05T11:29:20Z</time>
      </trkpt>
      <trkpt lat="46.428458020091057" lon="8.423569612205029">
        <ele>2064.48</ele>
        <time>2023-02-05T11:29:30Z</time>
      </trkpt>
      <trkpt lat="46.428491463884711" lon="8.423678325489163">
        <ele>2064.9000000000001</ele>
        <time>2023-02-05T11:29:40Z</time>
      </trkpt>
      <trkpt lat="46.428500348702073" lon="8.42384479008615">
        <ele>2066.0999999999999</ele>
        <time>2023-02-05T11:29:54Z</time>
      </trkpt>
      <trkpt lat="46.428525326773524" lon="8.423935482278466">
        <ele>2066.9299999999998</ele>
        <time>2023-02-05T11:30:03Z</time>
      </trkpt>
      <trkpt lat="46.428573438897729" lon="8.424030113965273">
        <ele>2068.6599999999999</ele>
        <time>2023-02-05T11:30:15Z</time>
      </trkpt>
      <trkpt lat="46.4285974111408" lon="8.424113430082798">
        <ele>2070.77</ele>
        <time>2023-02-05T11:30:27Z</time>
      </trkpt>
      <trkpt lat="46.428629849106073" lon="8.424147879704833">
        <ele>2072.2399999999998</ele>
        <time>2023-02-05T11:30:40Z</time>
      </trkpt>
      <trkpt lat="46.42862624488771" lon="8.424149304628372">
        <ele>2073.2800000000002</ele>
        <time>2023-02-05T11:30:55Z</time>
      </trkpt>
      <trkpt lat="46.428624652326107" lon="8.424142766743898">
        <ele>2074.46</ele>
        <time>2023-02-05T11:31:19Z</time>
      </trkpt>
      <trkpt lat="46.428638231009245" lon="8.424082081764936">
        <ele>2074.3899999999999</ele>
        <time>2023-02-05T11:31:28Z</time>
      </trkpt>
      <trkpt lat="46.428680308163166" lon="8.423914778977633">
        <ele>2077.75</ele>
        <time>2023-02-05T11:31:42Z</time>
      </trkpt>
      <trkpt lat="46.428704615682364" lon="8.423748062923551">
        <ele>2080.8000000000002</ele>
        <time>2023-02-05T11:31:55Z</time>
      </trkpt>
      <trkpt lat="46.428723642602563" lon="8.423650749027729">
        <ele>2079.5100000000002</ele>
        <time>2023-02-05T11:32:08Z</time>
      </trkpt>
      <trkpt lat="46.428724145516753" lon="8.423521583899856">
        <ele>2080.3400000000001</ele>
        <time>2023-02-05T11:32:20Z</time>
      </trkpt>
      <trkpt lat="46.428690366446972" lon="8.423376493155956">
        <ele>2082.3499999999999</ele>
        <time>2023-02-05T11:32:33Z</time>
      </trkpt>
      <trkpt lat="46.42866731621325" lon="8.423266941681504">
        <ele>2082.9000000000001</ele>
        <time>2023-02-05T11:32:42Z</time>
      </trkpt>
      <trkpt lat="46.42861844971776" lon="8.423105841502547">
        <ele>2083.5700000000002</ele>
        <time>2023-02-05T11:32:57Z</time>
      </trkpt>
      <trkpt lat="46.42857888713479" lon="8.422992685809732">
        <ele>2085.0500000000002</ele>
        <time>2023-02-05T11:33:12Z</time>
      </trkpt>
      <trkpt lat="46.428559608757496" lon="8.422905597835779">
        <ele>2086.0700000000002</ele>
        <time>2023-02-05T11:33:24Z</time>
      </trkpt>
      <trkpt lat="46.42853245139122" lon="8.422771487385035">
        <ele>2087.4400000000001</ele>
        <time>2023-02-05T11:33:36Z</time>
      </trkpt>
      <trkpt lat="46.428546281531453" lon="8.422607369720936">
        <ele>2089.2800000000002</ele>
        <time>2023-02-05T11:33:50Z</time>
      </trkpt>
      <trkpt lat="46.428559692576528" lon="8.422444676980376">
        <ele>2090.3899999999999</ele>
        <time>2023-02-05T11:34:05Z</time>
      </trkpt>
      <trkpt lat="46.428571259602904" lon="8.42230461537838">
        <ele>2091.3499999999999</ele>
        <time>2023-02-05T11:34:18Z</time>
      </trkpt>
      <trkpt lat="46.428576624020934" lon="8.422145275399089">
        <ele>2093.21</ele>
        <time>2023-02-05T11:34:32Z</time>
      </trkpt>
      <trkpt lat="46.428582156077027" lon="8.42199775390327">
        <ele>2095.1100000000001</ele>
        <time>2023-02-05T11:34:46Z</time>
      </trkpt>
      <trkpt lat="46.428649630397558" lon="8.421908067539334">
        <ele>2095.8600000000001</ele>
        <time>2023-02-05T11:35:00Z</time>
      </trkpt>
      <trkpt lat="46.428713584318757" lon="8.421893063932657">
        <ele>2095.1999999999998</ele>
        <time>2023-02-05T11:35:13Z</time>
      </trkpt>
      <trkpt lat="46.428731102496386" lon="8.421887531876564">
        <ele>2095.1799999999998</ele>
        <time>2023-02-05T11:35:20Z</time>
      </trkpt>
      <trkpt lat="46.428789105266333" lon="8.421841934323311">
        <ele>2095.8600000000001</ele>
        <time>2023-02-05T11:35:31Z</time>
      </trkpt>
      <trkpt lat="46.428838893771172" lon="8.421854507178068">
        <ele>2096.4000000000001</ele>
        <time>2023-02-05T11:35:43Z</time>
      </trkpt>
      <trkpt lat="46.428862027823925" lon="8.421883508563042">
        <ele>2096.5900000000001</ele>
        <time>2023-02-05T11:35:54Z</time>
      </trkpt>
      <trkpt lat="46.428916258737445" lon="8.42190102674067">
        <ele>2096.7800000000002</ele>
        <time>2023-02-05T11:36:07Z</time>
      </trkpt>
      <trkpt lat="46.428952468559146" lon="8.421942349523306">
        <ele>2098.4000000000001</ele>
        <time>2023-02-05T11:36:22Z</time>
      </trkpt>
      <trkpt lat="46.428975183516741" lon="8.421926591545343">
        <ele>2100.54</ele>
        <time>2023-02-05T11:36:33Z</time>
      </trkpt>
      <trkpt lat="46.428958000615239" lon="8.42192642390728">
        <ele>2101.2800000000002</ele>
        <time>2023-02-05T11:36:43Z</time>
      </trkpt>
      <trkpt lat="46.428946349769831" lon="8.421903625130653">
        <ele>2101.77</ele>
        <time>2023-02-05T11:36:54Z</time>
      </trkpt>
      <trkpt lat="46.428945092484355" lon="8.421893650665879">
        <ele>2102.4000000000001</ele>
        <time>2023-02-05T11:37:14Z</time>
      </trkpt>
      <trkpt lat="46.428951127454638" lon="8.421885268762708">
        <ele>2102.3699999999999</ele>
        <time>2023-02-05T11:37:39Z</time>
      </trkpt>
      <trkpt lat="46.428951378911734" lon="8.421884682029486">
        <ele>2102.4099999999999</ele>
        <time>2023-02-05T11:38:04Z</time>
      </trkpt>
      <trkpt lat="46.428939392790198" lon="8.421834306791425">
        <ele>2103.3000000000002</ele>
        <time>2023-02-05T11:38:19Z</time>
      </trkpt>
      <trkpt lat="46.428930005058646" lon="8.421827098354697">
        <ele>2105.46</ele>
        <time>2023-02-05T11:38:36Z</time>
      </trkpt>
      <trkpt lat="46.428917432203889" lon="8.42177395708859">
        <ele>2106.3000000000002</ele>
        <time>2023-02-05T11:38:48Z</time>
      </trkpt>
      <trkpt lat="46.42890284769237" lon="8.421680750325322">
        <ele>2106.6399999999999</ele>
        <time>2023-02-05T11:38:59Z</time>
      </trkpt>
      <trkpt lat="46.428926903754473" lon="8.421578826382756">
        <ele>2107.71</ele>
        <time>2023-02-05T11:39:13Z</time>
      </trkpt>
      <trkpt lat="46.428946014493704" lon="8.42157119885087">
        <ele>2108</ele>
        <time>2023-02-05T11:39:31Z</time>
      </trkpt>
      <trkpt lat="46.428954312577844" lon="8.421565918251872">
        <ele>2108.1599999999999</ele>
        <time>2023-02-05T11:39:44Z</time>
      </trkpt>
      <trkpt lat="46.428946182131767" lon="8.42156290076673">
        <ele>2107.46</ele>
        <time>2023-02-05T11:40:01Z</time>
      </trkpt>
      <trkpt lat="46.428960934281349" lon="8.421566085889936">
        <ele>2108.1100000000001</ele>
        <time>2023-02-05T11:40:29Z</time>
      </trkpt>
      <trkpt lat="46.42896194010973" lon="8.421575976535678">
        <ele>2108.3099999999999</ele>
        <time>2023-02-05T11:41:14Z</time>
      </trkpt>
      <trkpt lat="46.428976692259312" lon="8.421563822776079">
        <ele>2109.3000000000002</ele>
        <time>2023-02-05T11:41:57Z</time>
      </trkpt>
      <trkpt lat="46.428979709744453" lon="8.421566588804126">
        <ele>2110.1700000000001</ele>
        <time>2023-02-05T11:42:39Z</time>
      </trkpt>
      <trkpt lat="46.428980547934771" lon="8.421558039262891">
        <ele>2111.1700000000001</ele>
        <time>2023-02-05T11:43:29Z</time>
      </trkpt>
      <trkpt lat="46.4289859123528" lon="8.421555859968066">
        <ele>2110.8600000000001</ele>
        <time>2023-02-05T11:44:16Z</time>
      </trkpt>
      <trkpt lat="46.428977195173502" lon="8.421554435044527">
        <ele>2112.21</ele>
        <time>2023-02-05T11:45:01Z</time>
      </trkpt>
      <trkpt lat="46.428980212658644" lon="8.421565666794777">
        <ele>2112.4000000000001</ele>
        <time>2023-02-05T11:45:46Z</time>
      </trkpt>
      <trkpt lat="46.428984571248293" lon="8.42156826518476">
        <ele>2113.0100000000002</ele>
        <time>2023-02-05T11:46:32Z</time>
      </trkpt>
      <trkpt lat="46.428979123011231" lon="8.421572204679251">
        <ele>2112.8400000000001</ele>
        <time>2023-02-05T11:47:24Z</time>
      </trkpt>
      <trkpt lat="46.428979709744453" lon="8.421560805290937">
        <ele>2112.0100000000002</ele>
        <time>2023-02-05T11:48:12Z</time>
      </trkpt>
      <trkpt lat="46.428986415266991" lon="8.421557703986764">
        <ele>2112.21</ele>
        <time>2023-02-05T11:48:55Z</time>
      </trkpt>
      <trkpt lat="46.428982559591532" lon="8.421554686501622">
        <ele>2111.8099999999999</ele>
        <time>2023-02-05T11:49:40Z</time>
      </trkpt>
      <trkpt lat="46.428972585126758" lon="8.421574383974075">
        <ele>2111.0700000000002</ele>
        <time>2023-02-05T11:50:21Z</time>
      </trkpt>
      <trkpt lat="46.42897174693644" lon="8.421587878838182">
        <ele>2110.5999999999999</ele>
        <time>2023-02-05T11:50:33Z</time>
      </trkpt>
      <trkpt lat="46.42895950935781" lon="8.421567678451538">
        <ele>2109.8299999999999</ele>
        <time>2023-02-05T11:50:51Z</time>
      </trkpt>
      <trkpt lat="46.428963365033269" lon="8.421560470014811">
        <ele>2108.8499999999999</ele>
        <time>2023-02-05T11:51:08Z</time>
      </trkpt>
      <trkpt lat="46.428996892645955" lon="8.421654179692268">
        <ele>2108.6700000000001</ele>
        <time>2023-02-05T11:51:19Z</time>
      </trkpt>
      <trkpt lat="46.429038718342781" lon="8.421777309849858">
        <ele>2109.98</ele>
        <time>2023-02-05T11:51:32Z</time>
      </trkpt>
      <trkpt lat="46.429056068882346" lon="8.421852327883244">
        <ele>2109.9200000000001</ele>
        <time>2023-02-05T11:51:44Z</time>
      </trkpt>
      <trkpt lat="46.429065288975835" lon="8.421970847994089">
        <ele>2110.3200000000002</ele>
        <time>2023-02-05T11:51:54Z</time>
      </trkpt>
      <trkpt lat="46.429079454392195" lon="8.422182323411107">
        <ele>2110.98</ele>
        <time>2023-02-05T11:52:11Z</time>
      </trkpt>
      <trkpt lat="46.429141145199537" lon="8.422364462167025">
        <ele>2112.5100000000002</ele>
        <time>2023-02-05T11:52:27Z</time>
      </trkpt>
      <trkpt lat="46.429229155182838" lon="8.422520197927952">
        <ele>2113.8600000000001</ele>
        <time>2023-02-05T11:52:44Z</time>
      </trkpt>
      <trkpt lat="46.429304340854287" lon="8.422673586755991">
        <ele>2115.29</ele>
        <time>2023-02-05T11:52:59Z</time>
      </trkpt>
      <trkpt lat="46.429282296448946" lon="8.42286704108119">
        <ele>2117.25</ele>
        <time>2023-02-05T11:53:16Z</time>
      </trkpt>
      <trkpt lat="46.42930006608367" lon="8.423022022470832">
        <ele>2117.75</ele>
        <time>2023-02-05T11:53:30Z</time>
      </trkpt>
      <trkpt lat="46.429307274520397" lon="8.423233414068818">
        <ele>2118.98</ele>
        <time>2023-02-05T11:53:47Z</time>
      </trkpt>
      <trkpt lat="46.429274920374155" lon="8.42342066578567">
        <ele>2119.8600000000001</ele>
        <time>2023-02-05T11:54:04Z</time>
      </trkpt>
      <trkpt lat="46.429283721372485" lon="8.423583526164293">
        <ele>2120.4899999999998</ele>
        <time>2023-02-05T11:54:18Z</time>
      </trkpt>
      <trkpt lat="46.429337868466973" lon="8.423735741525888">
        <ele>2121.8899999999999</ele>
        <time>2023-02-05T11:54:32Z</time>
      </trkpt>
      <trkpt lat="46.429393021389842" lon="8.423884268850088">
        <ele>2123.23</ele>
        <time>2023-02-05T11:54:46Z</time>
      </trkpt>
      <trkpt lat="46.42940467223525" lon="8.424070179462433">
        <ele>2123.9899999999998</ele>
        <time>2023-02-05T11:55:01Z</time>
      </trkpt>
      <trkpt lat="46.429393859580159" lon="8.424258688464761">
        <ele>2125.1599999999999</ele>
        <time>2023-02-05T11:55:16Z</time>
      </trkpt>
      <trkpt lat="46.429346166551113" lon="8.424426158890128">
        <ele>2126.0700000000002</ele>
        <time>2023-02-05T11:55:31Z</time>
      </trkpt>
      <trkpt lat="46.429296294227242" lon="8.424522383138537">
        <ele>2126.48</ele>
        <time>2023-02-05T11:55:41Z</time>
      </trkpt>
      <trkpt lat="46.429255977272987" lon="8.424636293202639">
        <ele>2127.6199999999999</ele>
        <time>2023-02-05T11:55:52Z</time>
      </trkpt>
      <trkpt lat="46.429228819906712" lon="8.424773421138525">
        <ele>2128.0500000000002</ele>
        <time>2023-02-05T11:56:05Z</time>
      </trkpt>
      <trkpt lat="46.429265532642603" lon="8.424937287345529">
        <ele>2129.0999999999999</ele>
        <time>2023-02-05T11:56:19Z</time>
      </trkpt>
      <trkpt lat="46.42933870665729" lon="8.425097884610295">
        <ele>2130.5500000000002</ele>
        <time>2023-02-05T11:56:35Z</time>
      </trkpt>
      <trkpt lat="46.429336946457624" lon="8.425097381696105">
        <ele>2132.0900000000001</ele>
        <time>2023-02-05T11:56:49Z</time>
      </trkpt>
      <trkpt lat="46.429337533190846" lon="8.425083216279745">
        <ele>2133.23</ele>
        <time>2023-02-05T11:57:09Z</time>
      </trkpt>
      <trkpt lat="46.42933283932507" lon="8.425078270956874">
        <ele>2133.52</ele>
        <time>2023-02-05T11:57:28Z</time>
      </trkpt>
      <trkpt lat="46.429340383037925" lon="8.425099058076739">
        <ele>2133.5</ele>
        <time>2023-02-05T11:57:47Z</time>
      </trkpt>
      <trkpt lat="46.429407605901361" lon="8.425197629258037">
        <ele>2132.8899999999999</ele>
        <time>2023-02-05T11:57:57Z</time>
      </trkpt>
      <trkpt lat="46.429492682218552" lon="8.425355041399598">
        <ele>2133.0100000000002</ele>
        <time>2023-02-05T11:58:13Z</time>
      </trkpt>
      <trkpt lat="46.429546913132071" lon="8.425487475469708">
        <ele>2134.4000000000001</ele>
        <time>2023-02-05T11:58:25Z</time>
      </trkpt>
      <trkpt lat="46.42959569580853" lon="8.425624771043658">
        <ele>2133.6700000000001</ele>
        <time>2023-02-05T11:58:37Z</time>
      </trkpt>
      <trkpt lat="46.429601227864623" lon="8.425647486001253">
        <ele>2134.5999999999999</ele>
        <time>2023-02-05T11:58:48Z</time>
      </trkpt>
      <trkpt lat="46.429597958922386" lon="8.425646396353841">
        <ele>2135.3099999999999</ele>
        <time>2023-02-05T11:58:57Z</time>
      </trkpt>
      <trkpt lat="46.429605670273304" lon="8.42564832419157">
        <ele>2136.8600000000001</ele>
        <time>2023-02-05T11:59:15Z</time>
      </trkpt>
      <trkpt lat="46.429616985842586" lon="8.4256536886096">
        <ele>2137.75</ele>
        <time>2023-02-05T11:59:27Z</time>
      </trkpt>
      <trkpt lat="46.429651519283652" lon="8.42573088593781">
        <ele>2138.6300000000001</ele>
        <time>2023-02-05T11:59:39Z</time>
      </trkpt>
      <trkpt lat="46.42965579405427" lon="8.42574018985033">
        <ele>2138.6700000000001</ele>
        <time>2023-02-05T11:59:40Z</time>
      </trkpt>
      <trkpt lat="46.429679347202182" lon="8.425778662785888">
        <ele>2138.75</ele>
        <time>2023-02-05T11:59:44Z</time>
      </trkpt>
      <trkpt lat="46.429713210090995" lon="8.42583448626101">
        <ele>2138.6500000000001</ele>
        <time>2023-02-05T11:59:49Z</time>
      </trkpt>
      <trkpt lat="46.429781606420875" lon="8.425969686359167">
        <ele>2138.73</ele>
        <time>2023-02-05T12:00:01Z</time>
      </trkpt>
      <trkpt lat="46.429792670533061" lon="8.425984354689717">
        <ele>2138.6799999999998</ele>
        <time>2023-02-05T12:00:05Z</time>
      </trkpt>
      <trkpt lat="46.429834915325046" lon="8.426043866202235">
        <ele>2138.6799999999998</ele>
        <time>2023-02-05T12:00:11Z</time>
      </trkpt>
      <trkpt lat="46.429898617789149" lon="8.426127098500729">
        <ele>2138.48</ele>
        <time>2023-02-05T12:00:20Z</time>
      </trkpt>
      <trkpt lat="46.429998446255922" lon="8.426262633875012">
        <ele>2138.1599999999999</ele>
        <time>2023-02-05T12:00:34Z</time>
      </trkpt>
      <trkpt lat="46.43009852617979" lon="8.426462877541781">
        <ele>2139.2600000000002</ele>
        <time>2023-02-05T12:00:52Z</time>
      </trkpt>
      <trkpt lat="46.430172957479954" lon="8.426677454262972">
        <ele>2140.75</ele>
        <time>2023-02-05T12:01:09Z</time>
      </trkpt>
      <trkpt lat="46.430247975513339" lon="8.426878619939089">
        <ele>2141.1700000000001</ele>
        <time>2023-02-05T12:01:25Z</time>
      </trkpt>
      <trkpt lat="46.430344954133034" lon="8.427118007093668">
        <ele>2142.96</ele>
        <time>2023-02-05T12:01:44Z</time>
      </trkpt>
      <trkpt lat="46.430423324927688" lon="8.427276676520705">
        <ele>2143.3200000000002</ele>
        <time>2023-02-05T12:01:58Z</time>
      </trkpt>
      <trkpt lat="46.43053388223052" lon="8.42742252163589">
        <ele>2144.9200000000001</ele>
        <time>2023-02-05T12:02:15Z</time>
      </trkpt>
      <trkpt lat="46.430644355714321" lon="8.427558392286301">
        <ele>2146.8699999999999</ele>
        <time>2023-02-05T12:02:32Z</time>
      </trkpt>
      <trkpt lat="46.430739238858223" lon="8.427674481645227">
        <ele>2148.2800000000002</ele>
        <time>2023-02-05T12:02:47Z</time>
      </trkpt>
      <trkpt lat="46.430861782282591" lon="8.427746566012502">
        <ele>2149.5599999999999</ele>
        <time>2023-02-05T12:03:03Z</time>
      </trkpt>
      <trkpt lat="46.430949959903955" lon="8.427803898230195">
        <ele>2150.2800000000002</ele>
        <time>2023-02-05T12:03:14Z</time>
      </trkpt>
      <trkpt lat="46.431120866909623" lon="8.427892327308655">
        <ele>2151.6100000000001</ele>
        <time>2023-02-05T12:03:35Z</time>
      </trkpt>
      <trkpt lat="46.431240979582071" lon="8.427967596799135">
        <ele>2152.8800000000001</ele>
        <time>2023-02-05T12:03:52Z</time>
      </trkpt>
      <trkpt lat="46.431342316791415" lon="8.428104808554053">
        <ele>2154.52</ele>
        <time>2023-02-05T12:04:08Z</time>
      </trkpt>
      <trkpt lat="46.431421358138323" lon="8.428283426910639">
        <ele>2155.73</ele>
        <time>2023-02-05T12:04:25Z</time>
      </trkpt>
      <trkpt lat="46.431504506617785" lon="8.428460620343685">
        <ele>2157.7600000000002</ele>
        <time>2023-02-05T12:04:42Z</time>
      </trkpt>
      <trkpt lat="46.431585727259517" lon="8.428613757714629">
        <ele>2160.02</ele>
        <time>2023-02-05T12:04:59Z</time>
      </trkpt>
      <trkpt lat="46.431654123589396" lon="8.428736804053187">
        <ele>2161.7800000000002</ele>
        <time>2023-02-05T12:05:15Z</time>
      </trkpt>
      <trkpt lat="46.431692596524954" lon="8.428823221474886">
        <ele>2162.4499999999998</ele>
        <time>2023-02-05T12:05:31Z</time>
      </trkpt>
      <trkpt lat="46.431708019226789" lon="8.428876446560025">
        <ele>2163.1399999999999</ele>
        <time>2023-02-05T12:05:51Z</time>
      </trkpt>
      <trkpt lat="46.431753449141979" lon="8.429027739912272">
        <ele>2164.8200000000002</ele>
        <time>2023-02-05T12:06:05Z</time>
      </trkpt>
      <trkpt lat="46.431756466627121" lon="8.429039642214775">
        <ele>2164.8499999999999</ele>
        <time>2023-02-05T12:06:06Z</time>
      </trkpt>
      <trkpt lat="46.431804662570357" lon="8.429224714636803">
        <ele>2164.8499999999999</ele>
        <time>2023-02-05T12:06:21Z</time>
      </trkpt>
      <trkpt lat="46.431816061958671" lon="8.429278191179037">
        <ele>2165.0799999999999</ele>
        <time>2023-02-05T12:06:30Z</time>
      </trkpt>
      <trkpt lat="46.431885464116931" lon="8.429469298571348">
        <ele>2165.5799999999999</ele>
        <time>2023-02-05T12:06:46Z</time>
      </trkpt>
      <trkpt lat="46.431973138824105" lon="8.429634841158986">
        <ele>2165.77</ele>
        <time>2023-02-05T12:07:01Z</time>
      </trkpt>
      <trkpt lat="46.432066848501563" lon="8.429779764264822">
        <ele>2165.52</ele>
        <time>2023-02-05T12:07:15Z</time>
      </trkpt>
      <trkpt lat="46.43215368501842" lon="8.429950419813395">
        <ele>2165.6300000000001</ele>
        <time>2023-02-05T12:07:30Z</time>
      </trkpt>
      <trkpt lat="46.432258794084191" lon="8.430106239393354">
        <ele>2165.54</ele>
        <time>2023-02-05T12:07:46Z</time>
      </trkpt>
      <trkpt lat="46.432335153222084" lon="8.430253425613046">
        <ele>2165.7199999999998</ele>
        <time>2023-02-05T12:08:00Z</time>
      </trkpt>
      <trkpt lat="46.432410003617406" lon="8.4304094966501">
        <ele>2166.5999999999999</ele>
        <time>2023-02-05T12:08:15Z</time>
      </trkpt>
      <trkpt lat="46.432498516514897" lon="8.430567746981978">
        <ele>2167.23</ele>
        <time>2023-02-05T12:08:31Z</time>
      </trkpt>
      <trkpt lat="46.432500528171659" lon="8.430574452504516">
        <ele>2167.1399999999999</ele>
        <time>2023-02-05T12:08:48Z</time>
      </trkpt>
      <trkpt lat="46.432497929781675" lon="8.430566070601344">
        <ele>2167.29</ele>
        <time>2023-02-05T12:09:02Z</time>
      </trkpt>
      <trkpt lat="46.432496840134263" lon="8.43058442696929">
        <ele>2166.6399999999999</ele>
        <time>2023-02-05T12:09:25Z</time>
      </trkpt>
      <trkpt lat="46.432522824034095" lon="8.43067285604775">
        <ele>2166.6999999999998</ele>
        <time>2023-02-05T12:09:36Z</time>
      </trkpt>
      <trkpt lat="46.43248057924211" lon="8.430779557675123">
        <ele>2168.8000000000002</ele>
        <time>2023-02-05T12:09:50Z</time>
      </trkpt>
      <trkpt lat="46.432439005002379" lon="8.430806882679462">
        <ele>2169.8299999999999</ele>
        <time>2023-02-05T12:09:56Z</time>
      </trkpt>
      <trkpt lat="46.432369519025087" lon="8.430905621498823">
        <ele>2170.1500000000001</ele>
        <time>2023-02-05T12:10:10Z</time>
      </trkpt>
      <trkpt lat="46.432382259517908" lon="8.430965468287468">
        <ele>2170.8899999999999</ele>
        <time>2023-02-05T12:10:20Z</time>
      </trkpt>
      <trkpt lat="46.432417966425419" lon="8.431005533784628">
        <ele>2171.6900000000001</ele>
        <time>2023-02-05T12:10:31Z</time>
      </trkpt>
      <trkpt lat="46.432459037750959" lon="8.430980136618018">
        <ele>2172.8499999999999</ele>
        <time>2023-02-05T12:10:44Z</time>
      </trkpt>
      <trkpt lat="46.432466665282845" lon="8.43098315410316">
        <ele>2172.6399999999999</ele>
        <time>2023-02-05T12:10:55Z</time>
      </trkpt>
      <trkpt lat="46.432470520958304" lon="8.43097778968513">
        <ele>2172.04</ele>
        <time>2023-02-05T12:11:09Z</time>
      </trkpt>
      <trkpt lat="46.432478232309222" lon="8.430964378640056">
        <ele>2171.9099999999999</ele>
        <time>2023-02-05T12:11:27Z</time>
      </trkpt>
      <trkpt lat="46.432479070499539" lon="8.430965300649405">
        <ele>2172.0700000000002</ele>
        <time>2023-02-05T12:12:08Z</time>
      </trkpt>
      <trkpt lat="46.432468425482512" lon="8.430958930402994">
        <ele>2170.5599999999999</ele>
        <time>2023-02-05T12:12:42Z</time>
      </trkpt>
      <trkpt lat="46.432453254237771" lon="8.43096069060266">
        <ele>2168.3600000000001</ele>
        <time>2023-02-05T12:13:13Z</time>
      </trkpt>
      <trkpt lat="46.432446967810392" lon="8.430950129404664">
        <ele>2169.6799999999998</ele>
        <time>2023-02-05T12:13:49Z</time>
      </trkpt>
      <trkpt lat="46.432439005002379" lon="8.430968318134546">
        <ele>2169.8600000000001</ele>
        <time>2023-02-05T12:14:27Z</time>
      </trkpt>
      <trkpt lat="46.432442190125585" lon="8.430972257629037">
        <ele>2168.54</ele>
        <time>2023-02-05T12:15:00Z</time>
      </trkpt>
      <trkpt lat="46.432443112134933" lon="8.43097091652453">
        <ele>2167.1999999999998</ele>
        <time>2023-02-05T12:15:40Z</time>
      </trkpt>
      <trkpt lat="46.432450655847788" lon="8.430975526571274">
        <ele>2166.6799999999998</ele>
        <time>2023-02-05T12:16:19Z</time>
      </trkpt>
      <trkpt lat="46.432452918961644" lon="8.43097678385675">
        <ele>2166.98</ele>
        <time>2023-02-05T12:16:58Z</time>
      </trkpt>
      <trkpt lat="46.432455601170659" lon="8.430972509086132">
        <ele>2167.0100000000002</ele>
        <time>2023-02-05T12:17:42Z</time>
      </trkpt>
      <trkpt lat="46.432455433532596" lon="8.43097385019064">
        <ele>2166.8499999999999</ele>
        <time>2023-02-05T12:18:22Z</time>
      </trkpt>
      <trkpt lat="46.432449566200376" lon="8.430980136618018">
        <ele>2166.8299999999999</ele>
        <time>2023-02-05T12:19:04Z</time>
      </trkpt>
      <trkpt lat="46.432453840970993" lon="8.430977622047067">
        <ele>2167.5500000000002</ele>
        <time>2023-02-05T12:19:46Z</time>
      </trkpt>
      <trkpt lat="46.432453002780676" lon="8.430981310084462">
        <ele>2168.3000000000002</ele>
        <time>2023-02-05T12:20:30Z</time>
      </trkpt>
      <trkpt lat="46.432453254237771" lon="8.430978376418352">
        <ele>2167.77</ele>
        <time>2023-02-05T12:21:08Z</time>
      </trkpt>
      <trkpt lat="46.432452751323581" lon="8.430979801341891">
        <ele>2167.5300000000002</ele>
        <time>2023-02-05T12:21:53Z</time>
      </trkpt>
      <trkpt lat="46.432453086599708" lon="8.430974939838052">
        <ele>2168.2399999999998</ele>
        <time>2023-02-05T12:22:33Z</time>
      </trkpt>
      <trkpt lat="46.43244638107717" lon="8.430981645360589">
        <ele>2168.3299999999999</ele>
        <time>2023-02-05T12:23:06Z</time>
      </trkpt>
      <trkpt lat="46.432447722181678" lon="8.431015340611339">
        <ele>2168.1799999999998</ele>
        <time>2023-02-05T12:23:17Z</time>
      </trkpt>
      <trkpt lat="46.432480243965983" lon="8.431065464392304">
        <ele>2168.0100000000002</ele>
        <time>2023-02-05T12:23:23Z</time>
      </trkpt>
      <trkpt lat="46.432498265057802" lon="8.431106451898813">
        <ele>2167.6500000000001</ele>
        <time>2023-02-05T12:23:27Z</time>
      </trkpt>
      <trkpt lat="46.432537157088518" lon="8.431162359192967">
        <ele>2165.3099999999999</ele>
        <time>2023-02-05T12:23:38Z</time>
      </trkpt>
      <trkpt lat="46.432595495134592" lon="8.431206364184618">
        <ele>2165.3899999999999</ele>
        <time>2023-02-05T12:23:48Z</time>
      </trkpt>
      <trkpt lat="46.432643523439765" lon="8.431275011971593">
        <ele>2165.6999999999998</ele>
        <time>2023-02-05T12:24:01Z</time>
      </trkpt>
      <trkpt lat="46.43266330473125" lon="8.431273084133863">
        <ele>2165.8600000000001</ele>
        <time>2023-02-05T12:24:07Z</time>
      </trkpt>
      <trkpt lat="46.432672189548612" lon="8.431272329762578">
        <ele>2167.2800000000002</ele>
        <time>2023-02-05T12:24:18Z</time>
      </trkpt>
      <trkpt lat="46.432662215083838" lon="8.431273167952895">
        <ele>2169.1500000000001</ele>
        <time>2023-02-05T12:24:35Z</time>
      </trkpt>
      <trkpt lat="46.432649893686175" lon="8.431248273700476">
        <ele>2170.0999999999999</ele>
        <time>2023-02-05T12:25:05Z</time>
      </trkpt>
      <trkpt lat="46.432636398822069" lon="8.431221200153232">
        <ele>2170.5100000000002</ele>
        <time>2023-02-05T12:25:22Z</time>
      </trkpt>
      <trkpt lat="46.432639332488179" lon="8.431231342256069">
        <ele>2171.5900000000001</ele>
        <time>2023-02-05T12:25:35Z</time>
      </trkpt>
      <trkpt lat="46.432639332488179" lon="8.431240813806653">
        <ele>2174.29</ele>
        <time>2023-02-05T12:26:05Z</time>
      </trkpt>
      <trkpt lat="46.43261837773025" lon="8.431232180446386">
        <ele>2176.5500000000002</ele>
        <time>2023-02-05T12:26:33Z</time>
      </trkpt>
      <trkpt lat="46.432623406872153" lon="8.431217260658741">
        <ele>2178.27</ele>
        <time>2023-02-05T12:27:05Z</time>
      </trkpt>
      <trkpt lat="46.432637572288513" lon="8.431219439953566">
        <ele>2179.8800000000001</ele>
        <time>2023-02-05T12:27:23Z</time>
      </trkpt>
      <trkpt lat="46.432640925049782" lon="8.431204352527857">
        <ele>2179.8600000000001</ele>
        <time>2023-02-05T12:27:25Z</time>
      </trkpt>
      <trkpt lat="46.432664645835757" lon="8.431198569014669">
        <ele>2180.6900000000001</ele>
        <time>2023-02-05T12:27:36Z</time>
      </trkpt>
      <trkpt lat="46.432664729654789" lon="8.431219775229693">
        <ele>2180.1700000000001</ele>
        <time>2023-02-05T12:27:50Z</time>
      </trkpt>
      <trkpt lat="46.432671770453453" lon="8.431217931210995">
        <ele>2180.21</ele>
        <time>2023-02-05T12:28:05Z</time>
      </trkpt>
      <trkpt lat="46.432666070759296" lon="8.431206699460745">
        <ele>2180.52</ele>
        <time>2023-02-05T12:28:28Z</time>
      </trkpt>
      <trkpt lat="46.432641511783004" lon="8.431202257052064">
        <ele>2178.75</ele>
        <time>2023-02-05T12:28:44Z</time>
      </trkpt>
      <trkpt lat="46.432636398822069" lon="8.431186582893133">
        <ele>2178.1999999999998</ele>
        <time>2023-02-05T12:29:01Z</time>
      </trkpt>
      <trkpt lat="46.432645032182336" lon="8.431152552366257">
        <ele>2177.98</ele>
        <time>2023-02-05T12:29:21Z</time>
      </trkpt>
      <trkpt lat="46.432638159021735" lon="8.431182140484452">
        <ele>2178.0799999999999</ele>
        <time>2023-02-05T12:29:39Z</time>
      </trkpt>
      <trkpt lat="46.432641679421067" lon="8.43119764700532">
        <ele>2177.8200000000002</ele>
        <time>2023-02-05T12:30:01Z</time>
      </trkpt>
      <trkpt lat="46.432630615308881" lon="8.431201837956905">
        <ele>2177.5100000000002</ele>
        <time>2023-02-05T12:30:20Z</time>
      </trkpt>
      <trkpt lat="46.432646373286843" lon="8.431195132434368">
        <ele>2176.6199999999999</ele>
        <time>2023-02-05T12:30:39Z</time>
      </trkpt>
      <trkpt lat="46.432629022747278" lon="8.431185912340879">
        <ele>2176.3099999999999</ele>
        <time>2023-02-05T12:30:56Z</time>
      </trkpt>
      <trkpt lat="46.432618964463472" lon="8.431159425526857">
        <ele>2176.6100000000001</ele>
        <time>2023-02-05T12:31:19Z</time>
      </trkpt>
      <trkpt lat="46.432611839845777" lon="8.431135788559914">
        <ele>2176.7600000000002</ele>
        <time>2023-02-05T12:31:40Z</time>
      </trkpt>
      <trkpt lat="46.432617455720901" lon="8.431135704740882">
        <ele>2177.21</ele>
        <time>2023-02-05T12:32:01Z</time>
      </trkpt>
      <trkpt lat="46.432622484862804" lon="8.431170824915171">
        <ele>2176.9899999999998</ele>
        <time>2023-02-05T12:32:22Z</time>
      </trkpt>
      <trkpt lat="46.432626508176327" lon="8.431164203211665">
        <ele>2176.5999999999999</ele>
        <time>2023-02-05T12:32:42Z</time>
      </trkpt>
      <trkpt lat="46.432628268375993" lon="8.431165460497141">
        <ele>2176.6100000000001</ele>
        <time>2023-02-05T12:33:05Z</time>
      </trkpt>
      <trkpt lat="46.43260563723743" lon="8.431149451062083">
        <ele>2176.5700000000002</ele>
        <time>2023-02-05T12:33:22Z</time>
      </trkpt>
      <trkpt lat="46.432602368295193" lon="8.431166047230363">
        <ele>2175.1700000000001</ele>
        <time>2023-02-05T12:33:43Z</time>
      </trkpt>
      <trkpt lat="46.432617790997028" lon="8.431175602599978">
        <ele>2173.48</ele>
        <time>2023-02-05T12:34:04Z</time>
      </trkpt>
      <trkpt lat="46.432620640844107" lon="8.431165460497141">
        <ele>2172.1900000000001</ele>
        <time>2023-02-05T12:34:26Z</time>
      </trkpt>
      <trkpt lat="46.432623658329248" lon="8.431185744702816">
        <ele>2171.0700000000002</ele>
        <time>2023-02-05T12:34:46Z</time>
      </trkpt>
      <trkpt lat="46.432638242840767" lon="8.431188762187958">
        <ele>2169.6599999999999</ele>
        <time>2023-02-05T12:35:07Z</time>
      </trkpt>
      <trkpt lat="46.432578898966312" lon="8.431195635348558">
        <ele>2169.3099999999999</ele>
        <time>2023-02-05T12:35:25Z</time>
      </trkpt>
      <trkpt lat="46.432472532615066" lon="8.431131178513169">
        <ele>2168.2199999999998</ele>
        <time>2023-02-05T12:35:41Z</time>
      </trkpt>
      <trkpt lat="46.432423498481512" lon="8.431042246520519">
        <ele>2167.6999999999998</ele>
        <time>2023-02-05T12:35:53Z</time>
      </trkpt>
      <trkpt lat="46.432378990575671" lon="8.431001845747232">
        <ele>2166.4699999999998</ele>
        <time>2023-02-05T12:36:09Z</time>
      </trkpt>
      <trkpt lat="46.432376811280847" lon="8.430990613996983">
        <ele>2165.5500000000002</ele>
        <time>2023-02-05T12:36:25Z</time>
      </trkpt>
      <trkpt lat="46.432394832372665" lon="8.430982064455748">
        <ele>2164.6100000000001</ele>
        <time>2023-02-05T12:36:42Z</time>
      </trkpt>
      <trkpt lat="46.432379996404052" lon="8.430987009778619">
        <ele>2164.5700000000002</ele>
        <time>2023-02-05T12:36:59Z</time>
      </trkpt>
      <trkpt lat="46.432373709976673" lon="8.430994469672442">
        <ele>2164.4000000000001</ele>
        <time>2023-02-05T12:37:20Z</time>
      </trkpt>
      <trkpt lat="46.43238770775497" lon="8.43099388293922">
        <ele>2162.98</ele>
        <time>2023-02-05T12:37:43Z</time>
      </trkpt>
      <trkpt lat="46.432419558987021" lon="8.430979130789638">
        <ele>2162.5700000000002</ele>
        <time>2023-02-05T12:38:08Z</time>
      </trkpt>
      <trkpt lat="46.432394413277507" lon="8.430962786078453">
        <ele>2162.8400000000001</ele>
        <time>2023-02-05T12:38:26Z</time>
      </trkpt>
      <trkpt lat="46.432392401620746" lon="8.43096312135458">
        <ele>2163.02</ele>
        <time>2023-02-05T12:38:46Z</time>
      </trkpt>
      <trkpt lat="46.432387372478843" lon="8.430946106091142">
        <ele>2163.6900000000001</ele>
        <time>2023-02-05T12:39:09Z</time>
      </trkpt>
      <trkpt lat="46.432404136285186" lon="8.430982735008001">
        <ele>2163.9699999999998</ele>
        <time>2023-02-05T12:39:32Z</time>
      </trkpt>
      <trkpt lat="46.432415451854467" lon="8.431002348661423">
        <ele>2163.75</ele>
        <time>2023-02-05T12:39:55Z</time>
      </trkpt>
      <trkpt lat="46.432398604229093" lon="8.430991033092141">
        <ele>2163.8000000000002</ele>
        <time>2023-02-05T12:40:18Z</time>
      </trkpt>
      <trkpt lat="46.432393994182348" lon="8.430970832705498">
        <ele>2163.6799999999998</ele>
        <time>2023-02-05T12:40:40Z</time>
      </trkpt>
      <trkpt lat="46.432393742725253" lon="8.430977454409003">
        <ele>2163.8200000000002</ele>
        <time>2023-02-05T12:41:03Z</time>
      </trkpt>
      <trkpt lat="46.432409584522247" lon="8.430996648967266">
        <ele>2162.7399999999998</ele>
        <time>2023-02-05T12:41:29Z</time>
      </trkpt>
      <trkpt lat="46.432401537895203" lon="8.431010562926531">
        <ele>2162.6399999999999</ele>
        <time>2023-02-05T12:41:50Z</time>
      </trkpt>
      <trkpt lat="46.432405561208725" lon="8.431002516299486">
        <ele>2162.5799999999999</ele>
        <time>2023-02-05T12:42:09Z</time>
      </trkpt>
      <trkpt lat="46.432403884828091" lon="8.430996229872108">
        <ele>2162.4099999999999</ele>
        <time>2023-02-05T12:42:33Z</time>
      </trkpt>
      <trkpt lat="46.43239064142108" lon="8.430980388075113">
        <ele>2162.75</ele>
        <time>2023-02-05T12:42:53Z</time>
      </trkpt>
      <trkpt lat="46.432397430762649" lon="8.430974939838052">
        <ele>2163.25</ele>
        <time>2023-02-05T12:43:15Z</time>
      </trkpt>
      <trkpt lat="46.432397263124585" lon="8.43096848577261">
        <ele>2162.7800000000002</ele>
        <time>2023-02-05T12:43:36Z</time>
      </trkpt>
      <trkpt lat="46.432402962818742" lon="8.430974688380957">
        <ele>2162.9899999999998</ele>
        <time>2023-02-05T12:43:57Z</time>
      </trkpt>
      <trkpt lat="46.432400280609727" lon="8.430977454409003">
        <ele>2163.9200000000001</ele>
        <time>2023-02-05T12:44:16Z</time>
      </trkpt>
      <trkpt lat="46.43240044824779" lon="8.430974688380957">
        <ele>2164.5100000000002</ele>
        <time>2023-02-05T12:44:40Z</time>
      </trkpt>
      <trkpt lat="46.432383181527257" lon="8.430960942059755">
        <ele>2164.5599999999999</ele>
        <time>2023-02-05T12:45:02Z</time>
      </trkpt>
      <trkpt lat="46.432414026930928" lon="8.430891372263432">
        <ele>2164.73</ele>
        <time>2023-02-05T12:45:19Z</time>
      </trkpt>
      <trkpt lat="46.432424085214734" lon="8.430856335908175">
        <ele>2164.6999999999998</ele>
        <time>2023-02-05T12:45:45Z</time>
      </trkpt>
      <trkpt lat="46.43240874633193" lon="8.430879050865769">
        <ele>2164.6799999999998</ele>
        <time>2023-02-05T12:46:07Z</time>
      </trkpt>
      <trkpt lat="46.432465659454465" lon="8.430890366435051">
        <ele>2164.1199999999999</ele>
        <time>2023-02-05T12:46:44Z</time>
      </trkpt>
      <trkpt lat="46.432455014437437" lon="8.430890366435051">
        <ele>2163.4299999999998</ele>
        <time>2023-02-05T12:47:03Z</time>
      </trkpt>
      <trkpt lat="46.432399107143283" lon="8.430954907089472">
        <ele>2162.5500000000002</ele>
        <time>2023-02-05T12:47:22Z</time>
      </trkpt>
      <trkpt lat="46.432364825159311" lon="8.431009808555245">
        <ele>2162.2199999999998</ele>
        <time>2023-02-05T12:47:31Z</time>
      </trkpt>
      <trkpt lat="46.432358706369996" lon="8.431011317297816">
        <ele>2162.1599999999999</ele>
        <time>2023-02-05T12:47:33Z</time>
      </trkpt>
      <trkpt lat="46.432378822937608" lon="8.430973263457418">
        <ele>2162.0500000000002</ele>
        <time>2023-02-05T12:47:52Z</time>
      </trkpt>
      <trkpt lat="46.432392066344619" lon="8.430981226265431">
        <ele>2161.5300000000002</ele>
        <time>2023-02-05T12:48:10Z</time>
      </trkpt>
      <trkpt lat="46.432388126850128" lon="8.430985417217016">
        <ele>2160.4299999999998</ele>
        <time>2023-02-05T12:48:33Z</time>
      </trkpt>
      <trkpt lat="46.43238577991724" lon="8.430985668674111">
        <ele>2159.6399999999999</ele>
        <time>2023-02-05T12:48:53Z</time>
      </trkpt>
      <trkpt lat="46.432381924241781" lon="8.43100905418396">
        <ele>2160.8000000000002</ele>
        <time>2023-02-05T12:49:16Z</time>
      </trkpt>
      <trkpt lat="46.432416876778007" lon="8.430972509086132">
        <ele>2159.9099999999999</ele>
        <time>2023-02-05T12:49:38Z</time>
      </trkpt>
      <trkpt lat="46.432432550936937" lon="8.430964127182961">
        <ele>2159.9699999999998</ele>
        <time>2023-02-05T12:50:00Z</time>
      </trkpt>
      <trkpt lat="46.432427857071161" lon="8.430977035313845">
        <ele>2159.6399999999999</ele>
        <time>2023-02-05T12:50:21Z</time>
      </trkpt>
      <trkpt lat="46.43241067416966" lon="8.430986003950238">
        <ele>2159.77</ele>
        <time>2023-02-05T12:50:45Z</time>
      </trkpt>
      <trkpt lat="46.432396005839109" lon="8.430988183245063">
        <ele>2159.5999999999999</ele>
        <time>2023-02-05T12:51:11Z</time>
      </trkpt>
      <trkpt lat="46.432371027767658" lon="8.430997151881456">
        <ele>2158.8699999999999</ele>
        <time>2023-02-05T12:51:36Z</time>
      </trkpt>
      <trkpt lat="46.432369351387024" lon="8.430996984243393">
        <ele>2158.48</ele>
        <time>2023-02-05T12:51:58Z</time>
      </trkpt>
      <trkpt lat="46.432395419105887" lon="8.430988267064095">
        <ele>2159.0900000000001</ele>
        <time>2023-02-05T12:52:23Z</time>
      </trkpt>
      <trkpt lat="46.432404639199376" lon="8.430985081940889">
        <ele>2160.3400000000001</ele>
        <time>2023-02-05T12:52:44Z</time>
      </trkpt>
      <trkpt lat="46.432431042194366" lon="8.430972509086132">
        <ele>2159.6300000000001</ele>
        <time>2023-02-05T12:53:04Z</time>
      </trkpt>
      <trkpt lat="46.432397933676839" lon="8.43099195510149">
        <ele>2160.1700000000001</ele>
        <time>2023-02-05T12:53:26Z</time>
      </trkpt>
      <trkpt lat="46.43239751458168" lon="8.431005449965596">
        <ele>2162.3200000000002</ele>
        <time>2023-02-05T12:53:52Z</time>
      </trkpt>
      <trkpt lat="46.43239751458168" lon="8.430980304256082">
        <ele>2162.9899999999998</ele>
        <time>2023-02-05T12:54:14Z</time>
      </trkpt>
      <trkpt lat="46.432416290044785" lon="8.430958092212677">
        <ele>2163.7399999999998</ele>
        <time>2023-02-05T12:54:38Z</time>
      </trkpt>
      <trkpt lat="46.432472867891192" lon="8.430936550721526">
        <ele>2163.5900000000001</ele>
        <time>2023-02-05T12:55:12Z</time>
      </trkpt>
      <trkpt lat="46.432466497644782" lon="8.431035205721855">
        <ele>2163.23</ele>
        <time>2023-02-05T12:55:30Z</time>
      </trkpt>
      <trkpt lat="46.432421067729592" lon="8.430963205173612">
        <ele>2163.6700000000001</ele>
        <time>2023-02-05T12:55:48Z</time>
      </trkpt>
      <trkpt lat="46.432419642806053" lon="8.430963791906834">
        <ele>2163.6599999999999</ele>
        <time>2023-02-05T12:56:08Z</time>
      </trkpt>
      <trkpt lat="46.432410003617406" lon="8.430970245972276">
        <ele>2163.5300000000002</ele>
        <time>2023-02-05T12:56:27Z</time>
      </trkpt>
      <trkpt lat="46.432416625320911" lon="8.430969575420022">
        <ele>2164.2800000000002</ele>
        <time>2023-02-05T12:56:43Z</time>
      </trkpt>
      <trkpt lat="46.432401202619076" lon="8.43097192235291">
        <ele>2165.4000000000001</ele>
        <time>2023-02-05T12:57:20Z</time>
      </trkpt>
      <trkpt lat="46.432404723018408" lon="8.43096848577261">
        <ele>2164.21</ele>
        <time>2023-02-05T12:58:02Z</time>
      </trkpt>
      <trkpt lat="46.432390725240111" lon="8.430962786078453">
        <ele>2164.8800000000001</ele>
        <time>2023-02-05T12:58:47Z</time>
      </trkpt>
      <trkpt lat="46.432370860129595" lon="8.430963875725865">
        <ele>2166.8499999999999</ele>
        <time>2023-02-05T12:59:29Z</time>
      </trkpt>
      <trkpt lat="46.432382594794035" lon="8.430971670895815">
        <ele>2168.2399999999998</ele>
        <time>2023-02-05T13:00:20Z</time>
      </trkpt>
      <trkpt lat="46.432387623935938" lon="8.430973347276449">
        <ele>2168.2399999999998</ele>
        <time>2023-02-05T13:01:09Z</time>
      </trkpt>
      <trkpt lat="46.432389300316572" lon="8.430972760543227">
        <ele>2168.6500000000001</ele>
        <time>2023-02-05T13:01:53Z</time>
      </trkpt>
      <trkpt lat="46.432372620329261" lon="8.430976867675781">
        <ele>2168.1900000000001</ele>
        <time>2023-02-05T13:02:42Z</time>
      </trkpt>
      <trkpt lat="46.43238334916532" lon="8.430972173810005">
        <ele>2166.1900000000001</ele>
        <time>2023-02-05T13:03:36Z</time>
      </trkpt>
      <trkpt lat="46.432387623935938" lon="8.430981393903494">
        <ele>2165.1799999999998</ele>
        <time>2023-02-05T13:04:23Z</time>
      </trkpt>
      <trkpt lat="46.432396676391363" lon="8.430977957323194">
        <ele>2165.8200000000002</ele>
        <time>2023-02-05T13:05:17Z</time>
      </trkpt>
      <trkpt lat="46.432387204840779" lon="8.430980807170272">
        <ele>2166.48</ele>
        <time>2023-02-05T13:06:03Z</time>
      </trkpt>
      <trkpt lat="46.432375637814403" lon="8.430981058627367">
        <ele>2166.9299999999998</ele>
        <time>2023-02-05T13:06:49Z</time>
      </trkpt>
      <trkpt lat="46.432362645864487" lon="8.430981058627367">
        <ele>2167.1999999999998</ele>
        <time>2023-02-05T13:07:41Z</time>
      </trkpt>
      <trkpt lat="46.432383684441447" lon="8.430970581248403">
        <ele>2166.6900000000001</ele>
        <time>2023-02-05T13:08:32Z</time>
      </trkpt>
      <trkpt lat="46.43238334916532" lon="8.430981058627367">
        <ele>2165.1199999999999</ele>
        <time>2023-02-05T13:09:20Z</time>
      </trkpt>
      <trkpt lat="46.43237647600472" lon="8.43098265118897">
        <ele>2164.8699999999999</ele>
        <time>2023-02-05T13:10:09Z</time>
      </trkpt>
      <trkpt lat="46.432373290881515" lon="8.430977705866098">
        <ele>2165.4299999999998</ele>
        <time>2023-02-05T13:10:58Z</time>
      </trkpt>
      <trkpt lat="46.432373793795705" lon="8.430986171588302">
        <ele>2166.3099999999999</ele>
        <time>2023-02-05T13:11:47Z</time>
      </trkpt>
      <trkpt lat="46.432389551773667" lon="8.430979214608669">
        <ele>2166.3699999999999</ele>
        <time>2023-02-05T13:12:34Z</time>
      </trkpt>
      <trkpt lat="46.43239114433527" lon="8.430981226265431">
        <ele>2166.9699999999998</ele>
        <time>2023-02-05T13:13:21Z</time>
      </trkpt>
      <trkpt lat="46.432387623935938" lon="8.430962450802326">
        <ele>2165.98</ele>
        <time>2023-02-05T13:14:05Z</time>
      </trkpt>
      <trkpt lat="46.432384438812733" lon="8.430973095819354">
        <ele>2166.6799999999998</ele>
        <time>2023-02-05T13:14:52Z</time>
      </trkpt>
      <trkpt lat="46.432395335286856" lon="8.430973179638386">
        <ele>2167.1199999999999</ele>
        <time>2023-02-05T13:15:14Z</time>
      </trkpt>
      <trkpt lat="46.432395502924919" lon="8.430974688380957">
        <ele>2167.2800000000002</ele>
        <time>2023-02-05T13:15:29Z</time>
      </trkpt>
      <trkpt lat="46.432395000010729" lon="8.430979633703828">
        <ele>2167.46</ele>
        <time>2023-02-05T13:15:45Z</time>
      </trkpt>
      <trkpt lat="46.432387875393033" lon="8.430977705866098">
        <ele>2167.29</ele>
        <time>2023-02-05T13:16:04Z</time>
      </trkpt>
      <trkpt lat="46.432396341115236" lon="8.430976280942559">
        <ele>2167.3400000000001</ele>
        <time>2023-02-05T13:16:16Z</time>
      </trkpt>
      <trkpt lat="46.432402711361647" lon="8.430985920131207">
        <ele>2167.8400000000001</ele>
        <time>2023-02-05T13:16:36Z</time>
      </trkpt>
      <trkpt lat="46.432403214275837" lon="8.430983070284128">
        <ele>2167.7199999999998</ele>
        <time>2023-02-05T13:16:55Z</time>
      </trkpt>
      <trkpt lat="46.432403214275837" lon="8.430986003950238">
        <ele>2167.9000000000001</ele>
        <time>2023-02-05T13:17:09Z</time>
      </trkpt>
      <trkpt lat="46.432389551773667" lon="8.430983740836382">
        <ele>2167.9699999999998</ele>
        <time>2023-02-05T13:17:27Z</time>
      </trkpt>
      <trkpt lat="46.432394748553634" lon="8.430907381698489">
        <ele>2165.5999999999999</ele>
        <time>2023-02-05T13:17:37Z</time>
      </trkpt>
      <trkpt lat="46.432393155992031" lon="8.430812582373619">
        <ele>2161.9099999999999</ele>
        <time>2023-02-05T13:17:46Z</time>
      </trkpt>
      <trkpt lat="46.432400532066822" lon="8.4307876881212">
        <ele>2161.2199999999998</ele>
        <time>2023-02-05T13:17:48Z</time>
      </trkpt>
      <trkpt lat="46.432426851242781" lon="8.430769499391317">
        <ele>2160.52</ele>
        <time>2023-02-05T13:17:51Z</time>
      </trkpt>
      <trkpt lat="46.432473286986351" lon="8.430661708116531">
        <ele>2157.6599999999999</ele>
        <time>2023-02-05T13:18:00Z</time>
      </trkpt>
      <trkpt lat="46.432444537058473" lon="8.430517036467791">
        <ele>2155.5700000000002</ele>
        <time>2023-02-05T13:18:13Z</time>
      </trkpt>
      <trkpt lat="46.432413272559643" lon="8.430475629866123">
        <ele>2155.4000000000001</ele>
        <time>2023-02-05T13:18:24Z</time>
      </trkpt>
      <trkpt lat="46.432401621714234" lon="8.430456016212702">
        <ele>2155.3600000000001</ele>
        <time>2023-02-05T13:18:26Z</time>
      </trkpt>
      <trkpt lat="46.43229441717267" lon="8.430239008739591">
        <ele>2154.8200000000002</ele>
        <time>2023-02-05T13:18:43Z</time>
      </trkpt>
      <trkpt lat="46.432178746908903" lon="8.430050583556294">
        <ele>2154.2600000000002</ele>
        <time>2023-02-05T13:18:59Z</time>
      </trkpt>
      <trkpt lat="46.432071290910244" lon="8.4298827778548">
        <ele>2153.7199999999998</ele>
        <time>2023-02-05T13:19:14Z</time>
      </trkpt>
      <trkpt lat="46.431956207379699" lon="8.429695526137948">
        <ele>2152.77</ele>
        <time>2023-02-05T13:19:31Z</time>
      </trkpt>
      <trkpt lat="46.431843303143978" lon="8.42952461913228">
        <ele>2152.9299999999998</ele>
        <time>2023-02-05T13:19:47Z</time>
      </trkpt>
      <trkpt lat="46.431765602901578" lon="8.429310796782374">
        <ele>2152.2199999999998</ele>
        <time>2023-02-05T13:20:03Z</time>
      </trkpt>
      <trkpt lat="46.431702319532633" lon="8.429064536467195">
        <ele>2151.4200000000001</ele>
        <time>2023-02-05T13:20:20Z</time>
      </trkpt>
      <trkpt lat="46.43164599314332" lon="8.428817186504602">
        <ele>2150.52</ele>
        <time>2023-02-05T13:20:37Z</time>
      </trkpt>
      <trkpt lat="46.431561838835478" lon="8.42864066362381">
        <ele>2149.1500000000001</ele>
        <time>2023-02-05T13:20:53Z</time>
      </trkpt>
      <trkpt lat="46.431477516889572" lon="8.42850579880178">
        <ele>2147.3000000000002</ele>
        <time>2023-02-05T13:21:07Z</time>
      </trkpt>
      <trkpt lat="46.431400068104267" lon="8.428372023627162">
        <ele>2146.2800000000002</ele>
        <time>2023-02-05T13:21:21Z</time>
      </trkpt>
      <trkpt lat="46.431305017322302" lon="8.428165828809142">
        <ele>2144.6500000000001</ele>
        <time>2023-02-05T13:21:38Z</time>
      </trkpt>
      <trkpt lat="46.431273417547345" lon="8.428084356710315">
        <ele>2144.77</ele>
        <time>2023-02-05T13:21:50Z</time>
      </trkpt>
      <trkpt lat="46.431259671226144" lon="8.42805041000247">
        <ele>2144.6100000000001</ele>
        <time>2023-02-05T13:21:56Z</time>
      </trkpt>
      <trkpt lat="46.431247433647513" lon="8.428028197959065">
        <ele>2144.5300000000002</ele>
        <time>2023-02-05T13:21:58Z</time>
      </trkpt>
      <trkpt lat="46.431116005405784" lon="8.427919065579772">
        <ele>2143.5799999999999</ele>
        <time>2023-02-05T13:22:13Z</time>
      </trkpt>
      <trkpt lat="46.431003520265222" lon="8.427886627614498">
        <ele>2142.5599999999999</ele>
        <time>2023-02-05T13:22:25Z</time>
      </trkpt>
      <trkpt lat="46.4308803062886" lon="8.427831893786788">
        <ele>2142.4000000000001</ele>
        <time>2023-02-05T13:22:37Z</time>
      </trkpt>
      <trkpt lat="46.43081241287291" lon="8.427772801369429">
        <ele>2142.3299999999999</ele>
        <time>2023-02-05T13:22:46Z</time>
      </trkpt>
      <trkpt lat="46.430680397897959" lon="8.427701471373439">
        <ele>2141.79</ele>
        <time>2023-02-05T13:23:00Z</time>
      </trkpt>
      <trkpt lat="46.43055148422718" lon="8.427540455013514">
        <ele>2140.48</ele>
        <time>2023-02-05T13:23:17Z</time>
      </trkpt>
      <trkpt lat="46.430422570556402" lon="8.427388491109014">
        <ele>2138.6399999999999</ele>
        <time>2023-02-05T13:23:34Z</time>
      </trkpt>
      <trkpt lat="46.430313857272267" lon="8.427227893844247">
        <ele>2137.5900000000001</ele>
        <time>2023-02-05T13:23:49Z</time>
      </trkpt>
      <trkpt lat="46.430214447900653" lon="8.427010215818882">
        <ele>2136.5599999999999</ele>
        <time>2023-02-05T13:24:06Z</time>
      </trkpt>
      <trkpt lat="46.430148063227534" lon="8.426820700988174">
        <ele>2136.0900000000001</ele>
        <time>2023-02-05T13:24:21Z</time>
      </trkpt>
      <trkpt lat="46.430084863677621" lon="8.426624815911055">
        <ele>2136.1900000000001</ele>
        <time>2023-02-05T13:24:36Z</time>
      </trkpt>
      <trkpt lat="46.430015210062265" lon="8.426405461505055">
        <ele>2136.0500000000002</ele>
        <time>2023-02-05T13:24:51Z</time>
      </trkpt>
      <trkpt lat="46.429913621395826" lon="8.426183089613915">
        <ele>2136.0300000000002</ele>
        <time>2023-02-05T13:25:07Z</time>
      </trkpt>
      <trkpt lat="46.429774314165115" lon="8.426018385216594">
        <ele>2136.2800000000002</ele>
        <time>2023-02-05T13:25:22Z</time>
      </trkpt>
      <trkpt lat="46.42973642796278" lon="8.42594831250608">
        <ele>2135.3899999999999</ele>
        <time>2023-02-05T13:25:35Z</time>
      </trkpt>
      <trkpt lat="46.429737852886319" lon="8.425947725772858">
        <ele>2134.9299999999998</ele>
        <time>2023-02-05T13:25:55Z</time>
      </trkpt>
      <trkpt lat="46.42973693087697" lon="8.425947390496731">
        <ele>2137.5500000000002</ele>
        <time>2023-02-05T13:26:21Z</time>
      </trkpt>
      <trkpt lat="46.429740618914366" lon="8.425946133211255">
        <ele>2139.4099999999999</ele>
        <time>2023-02-05T13:26:37Z</time>
      </trkpt>
      <trkpt lat="46.429742630571127" lon="8.425948061048985">
        <ele>2139.7399999999998</ele>
        <time>2023-02-05T13:26:55Z</time>
      </trkpt>
      <trkpt lat="46.429716562852263" lon="8.425911432132125">
        <ele>2139.2800000000002</ele>
        <time>2023-02-05T13:27:15Z</time>
      </trkpt>
      <trkpt lat="46.429628888145089" lon="8.425716385245323">
        <ele>2139.2600000000002</ele>
        <time>2023-02-05T13:27:31Z</time>
      </trkpt>
      <trkpt lat="46.429538950324059" lon="8.425518404692411">
        <ele>2138.9099999999999</ele>
        <time>2023-02-05T13:27:47Z</time>
      </trkpt>
      <trkpt lat="46.429462423548102" lon="8.425339031964541">
        <ele>2137.6399999999999</ele>
        <time>2023-02-05T13:28:02Z</time>
      </trkpt>
      <trkpt lat="46.429364858195186" lon="8.425156893208623">
        <ele>2136.6700000000001</ele>
        <time>2023-02-05T13:28:18Z</time>
      </trkpt>
      <trkpt lat="46.429283721372485" lon="8.425027308985591">
        <ele>2135.9899999999998</ele>
        <time>2023-02-05T13:28:31Z</time>
      </trkpt>
      <trkpt lat="46.429266035556793" lon="8.424994116649032">
        <ele>2135.6799999999998</ele>
        <time>2023-02-05T13:28:35Z</time>
      </trkpt>
      <trkpt lat="46.429236531257629" lon="8.424973161891103">
        <ele>2135.8400000000001</ele>
        <time>2023-02-05T13:28:38Z</time>
      </trkpt>
      <trkpt lat="46.429178277030587" lon="8.424838380888104">
        <ele>2134.8000000000002</ele>
        <time>2023-02-05T13:28:50Z</time>
      </trkpt>
      <trkpt lat="46.429227646440268" lon="8.424629671499133">
        <ele>2132.8299999999999</ele>
        <time>2023-02-05T13:29:05Z</time>
      </trkpt>
      <trkpt lat="46.429308028891683" lon="8.424465470016003">
        <ele>2130.5599999999999</ele>
        <time>2023-02-05T13:29:19Z</time>
      </trkpt>
      <trkpt lat="46.429365696385503" lon="8.424256425350905">
        <ele>2127.75</ele>
        <time>2023-02-05T13:29:35Z</time>
      </trkpt>
      <trkpt lat="46.429369803518057" lon="8.424076214432716">
        <ele>2126.2399999999998</ele>
        <time>2023-02-05T13:29:48Z</time>
      </trkpt>
      <trkpt lat="46.429348513484001" lon="8.423862811177969">
        <ele>2124.23</ele>
        <time>2023-02-05T13:30:03Z</time>
      </trkpt>
      <trkpt lat="46.429258408024907" lon="8.423659969121218">
        <ele>2122.0100000000002</ele>
        <time>2023-02-05T13:30:19Z</time>
      </trkpt>
      <trkpt lat="46.429237872362137" lon="8.423422006890178">
        <ele>2120.4899999999998</ele>
        <time>2023-02-05T13:30:35Z</time>
      </trkpt>
      <trkpt lat="46.429270310327411" lon="8.423220422118902">
        <ele>2118.29</ele>
        <time>2023-02-05T13:30:48Z</time>
      </trkpt>
      <trkpt lat="46.429251534864306" lon="8.423016909509897">
        <ele>2116.6199999999999</ele>
        <time>2023-02-05T13:31:01Z</time>
      </trkpt>
      <trkpt lat="46.429265951737761" lon="8.422755310311914">
        <ele>2114.6500000000001</ele>
        <time>2023-02-05T13:31:17Z</time>
      </trkpt>
      <trkpt lat="46.429258575662971" lon="8.422715496271849">
        <ele>2114.25</ele>
        <time>2023-02-05T13:31:20Z</time>
      </trkpt>
      <trkpt lat="46.429194286465645" lon="8.422677861526609">
        <ele>2112.2800000000002</ele>
        <time>2023-02-05T13:31:31Z</time>
      </trkpt>
      <trkpt lat="46.429045256227255" lon="8.422647519037128">
        <ele>2108.5100000000002</ele>
        <time>2023-02-05T13:31:46Z</time>
      </trkpt>
      <trkpt lat="46.428957246243954" lon="8.422677777707577">
        <ele>2105.3600000000001</ele>
        <time>2023-02-05T13:32:00Z</time>
      </trkpt>
      <trkpt lat="46.428911061957479" lon="8.422708120197058">
        <ele>2102.96</ele>
        <time>2023-02-05T13:32:07Z</time>
      </trkpt>
      <trkpt lat="46.428844342008233" lon="8.422722704708576">
        <ele>2099.6100000000001</ele>
        <time>2023-02-05T13:32:14Z</time>
      </trkpt>
      <trkpt lat="46.428710566833615" lon="8.422624217346311">
        <ele>2098.5100000000002</ele>
        <time>2023-02-05T13:32:28Z</time>
      </trkpt>
      <trkpt lat="46.428691372275352" lon="8.422388099133968">
        <ele>2096.75</ele>
        <time>2023-02-05T13:32:43Z</time>
      </trkpt>
      <trkpt lat="46.428700424730778" lon="8.422126667574048">
        <ele>2094.0799999999999</ele>
        <time>2023-02-05T13:32:59Z</time>
      </trkpt>
      <trkpt lat="46.428697742521763" lon="8.421996161341667">
        <ele>2092.21</ele>
        <time>2023-02-05T13:33:07Z</time>
      </trkpt>
      <trkpt lat="46.428672010079026" lon="8.421971183270216">
        <ele>2091.77</ele>
        <time>2023-02-05T13:33:10Z</time>
      </trkpt>
      <trkpt lat="46.428573941811919" lon="8.422130020335317">
        <ele>2090.3600000000001</ele>
        <time>2023-02-05T13:33:25Z</time>
      </trkpt>
      <trkpt lat="46.428561536595225" lon="8.422368736937642">
        <ele>2088.4699999999998</ele>
        <time>2023-02-05T13:33:40Z</time>
      </trkpt>
      <trkpt lat="46.428536558523774" lon="8.42260267585516">
        <ele>2086.3499999999999</ele>
        <time>2023-02-05T13:33:55Z</time>
      </trkpt>
      <trkpt lat="46.428535049781203" lon="8.422856312245131">
        <ele>2084.8800000000001</ele>
        <time>2023-02-05T13:34:11Z</time>
      </trkpt>
      <trkpt lat="46.42860034480691" lon="8.423120426014066">
        <ele>2083.4699999999998</ele>
        <time>2023-02-05T13:34:28Z</time>
      </trkpt>
      <trkpt lat="46.428676201030612" lon="8.423318909481168">
        <ele>2081.6399999999999</ele>
        <time>2023-02-05T13:34:42Z</time>
      </trkpt>
      <trkpt lat="46.428712829947472" lon="8.423572462052107">
        <ele>2081.1599999999999</ele>
        <time>2023-02-05T13:34:58Z</time>
      </trkpt>
      <trkpt lat="46.428691875189543" lon="8.423857446759939">
        <ele>2078.9099999999999</ele>
        <time>2023-02-05T13:35:16Z</time>
      </trkpt>
      <trkpt lat="46.428628508001566" lon="8.424070598557591">
        <ele>2077.1300000000001</ele>
        <time>2023-02-05T13:35:30Z</time>
      </trkpt>
      <trkpt lat="46.428586849942803" lon="8.424121895805001">
        <ele>2076.0999999999999</ele>
        <time>2023-02-05T13:35:35Z</time>
      </trkpt>
      <trkpt lat="46.428531194105744" lon="8.424029275774956">
        <ele>2071.8600000000001</ele>
        <time>2023-02-05T13:35:46Z</time>
      </trkpt>
      <trkpt lat="46.428524823859334" lon="8.424017708748579">
        <ele>2071.8000000000002</ele>
        <time>2023-02-05T13:35:47Z</time>
      </trkpt>
      <trkpt lat="46.428500767797232" lon="8.423990132287145">
        <ele>2071.1999999999998</ele>
        <time>2023-02-05T13:35:50Z</time>
      </trkpt>
      <trkpt lat="46.428464474156499" lon="8.423892902210355">
        <ele>2069.4699999999998</ele>
        <time>2023-02-05T13:36:00Z</time>
      </trkpt>
      <trkpt lat="46.428453410044312" lon="8.423855099827051">
        <ele>2068.8000000000002</ele>
        <time>2023-02-05T13:36:03Z</time>
      </trkpt>
      <trkpt lat="46.428412338718772" lon="8.423691401258111">
        <ele>2067.8899999999999</ele>
        <time>2023-02-05T13:36:14Z</time>
      </trkpt>
      <trkpt lat="46.428352072834969" lon="8.423456037417054">
        <ele>2066.25</ele>
        <time>2023-02-05T13:36:30Z</time>
      </trkpt>
      <trkpt lat="46.428207652643323" lon="8.423332152888179">
        <ele>2064.8400000000001</ele>
        <time>2023-02-05T13:36:45Z</time>
      </trkpt>
      <trkpt lat="46.428055604919791" lon="8.42322863638401">
        <ele>2063.48</ele>
        <time>2023-02-05T13:37:00Z</time>
      </trkpt>
      <trkpt lat="46.42792996019125" lon="8.423043815419078">
        <ele>2060.9299999999998</ele>
        <time>2023-02-05T13:37:16Z</time>
      </trkpt>
      <trkpt lat="46.427827952429652" lon="8.422825885936618">
        <ele>2058.6300000000001</ele>
        <time>2023-02-05T13:37:32Z</time>
      </trkpt>
      <trkpt lat="46.427780091762543" lon="8.422549199312925">
        <ele>2056.0900000000001</ele>
        <time>2023-02-05T13:37:49Z</time>
      </trkpt>
      <trkpt lat="46.427808003500104" lon="8.422285253182054">
        <ele>2052.9899999999998</ele>
        <time>2023-02-05T13:38:05Z</time>
      </trkpt>
      <trkpt lat="46.427785959094763" lon="8.422232950106263">
        <ele>2052.48</ele>
        <time>2023-02-05T13:38:09Z</time>
      </trkpt>
      <trkpt lat="46.427708426490426" lon="8.422343675047159">
        <ele>2051.5300000000002</ele>
        <time>2023-02-05T13:38:21Z</time>
      </trkpt>
      <trkpt lat="46.427648328244686" lon="8.42257384210825">
        <ele>2050.4000000000001</ele>
        <time>2023-02-05T13:38:36Z</time>
      </trkpt>
      <trkpt lat="46.427606921643019" lon="8.422782802954316">
        <ele>2048.9400000000001</ele>
        <time>2023-02-05T13:38:49Z</time>
      </trkpt>
      <trkpt lat="46.427614968270063" lon="8.423058986663818">
        <ele>2047.1400000000001</ele>
        <time>2023-02-05T13:39:06Z</time>
      </trkpt>
      <trkpt lat="46.427687639370561" lon="8.423301475122571">
        <ele>2044.9000000000001</ele>
        <time>2023-02-05T13:39:22Z</time>
      </trkpt>
      <trkpt lat="46.42767590470612" lon="8.423519572243094">
        <ele>2042.8800000000001</ele>
        <time>2023-02-05T13:39:35Z</time>
      </trkpt>
      <trkpt lat="46.427512289956212" lon="8.423479087650776">
        <ele>2038.9100000000001</ele>
        <time>2023-02-05T13:39:50Z</time>
      </trkpt>
      <trkpt lat="46.427471973001957" lon="8.423454109579325">
        <ele>2038.0799999999999</ele>
        <time>2023-02-05T13:39:54Z</time>
      </trkpt>
      <trkpt lat="46.42736317589879" lon="8.423428880050778">
        <ele>2035.55</ele>
        <time>2023-02-05T13:40:04Z</time>
      </trkpt>
      <trkpt lat="46.427326463162899" lon="8.42349786311388">
        <ele>2033.5799999999999</ele>
        <time>2023-02-05T13:40:12Z</time>
      </trkpt>
      <trkpt lat="46.427284218370914" lon="8.423575395718217">
        <ele>2031.22</ele>
        <time>2023-02-05T13:40:19Z</time>
      </trkpt>
      <trkpt lat="46.427147760987282" lon="8.423594171181321">
        <ele>2026.46</ele>
        <time>2023-02-05T13:40:34Z</time>
      </trkpt>
      <trkpt lat="46.427131919190288" lon="8.42356332577765">
        <ele>2025.78</ele>
        <time>2023-02-05T13:40:37Z</time>
      </trkpt>
      <trkpt lat="46.427067462354898" lon="8.4234968572855">
        <ele>2023.1400000000001</ele>
        <time>2023-02-05T13:40:49Z</time>
      </trkpt>
      <trkpt lat="46.427016919478774" lon="8.423491157591343">
        <ele>2019.95</ele>
        <time>2023-02-05T13:40:59Z</time>
      </trkpt>
      <trkpt lat="46.426991270855069" lon="8.42344312928617">
        <ele>2017.3299999999999</ele>
        <time>2023-02-05T13:41:08Z</time>
      </trkpt>
      <trkpt lat="46.426976099610329" lon="8.423419157043099">
        <ele>2017.1600000000001</ele>
        <time>2023-02-05T13:41:22Z</time>
      </trkpt>
      <trkpt lat="46.426967633888125" lon="8.423449164256454">
        <ele>2016.6800000000001</ele>
        <time>2023-02-05T13:41:35Z</time>
      </trkpt>
      <trkpt lat="46.426964029669762" lon="8.423480680212379">
        <ele>2016.1400000000001</ele>
        <time>2023-02-05T13:41:56Z</time>
      </trkpt>
      <trkpt lat="46.426957240328193" lon="8.423540694639087">
        <ele>2015.02</ele>
        <time>2023-02-05T13:42:08Z</time>
      </trkpt>
      <trkpt lat="46.426957910880446" lon="8.423545556142926">
        <ele>2014.99</ele>
        <time>2023-02-05T13:42:09Z</time>
      </trkpt>
      <trkpt lat="46.426915163174272" lon="8.423603475093842">
        <ele>2013.3099999999999</ele>
        <time>2023-02-05T13:42:21Z</time>
      </trkpt>
      <trkpt lat="46.426907954737544" lon="8.423585873097181">
        <ele>2012.3299999999999</ele>
        <time>2023-02-05T13:42:33Z</time>
      </trkpt>
      <trkpt lat="46.426886497065425" lon="8.423547986894846">
        <ele>2012.1800000000001</ele>
        <time>2023-02-05T13:42:45Z</time>
      </trkpt>
      <trkpt lat="46.426860261708498" lon="8.423526445403695">
        <ele>2011.1600000000001</ele>
        <time>2023-02-05T13:42:50Z</time>
      </trkpt>
      <trkpt lat="46.42684425227344" lon="8.423448409885168">
        <ele>2008.54</ele>
        <time>2023-02-05T13:43:01Z</time>
      </trkpt>
      <trkpt lat="46.4268515445292" lon="8.423452349379659">
        <ele>2007.72</ele>
        <time>2023-02-05T13:43:15Z</time>
      </trkpt>
      <trkpt lat="46.426854394376278" lon="8.423458551988006">
        <ele>2007.04</ele>
        <time>2023-02-05T13:43:40Z</time>
      </trkpt>
      <trkpt lat="46.426863698288798" lon="8.423472717404366">
        <ele>2006.6900000000001</ele>
        <time>2023-02-05T13:43:51Z</time>
      </trkpt>
      <trkpt lat="46.426866548135877" lon="8.423458719626069">
        <ele>2005.5799999999999</ele>
        <time>2023-02-05T13:44:08Z</time>
      </trkpt>
      <trkpt lat="46.42686378210783" lon="8.423448745161295">
        <ele>2005.22</ele>
        <time>2023-02-05T13:44:24Z</time>
      </trkpt>
      <trkpt lat="46.426857244223356" lon="8.423448577523232">
        <ele>2004.5899999999999</ele>
        <time>2023-02-05T13:44:40Z</time>
      </trkpt>
      <trkpt lat="46.426859255880117" lon="8.423452517017722">
        <ele>2004.96</ele>
        <time>2023-02-05T13:45:03Z</time>
      </trkpt>
      <trkpt lat="46.426865961402655" lon="8.423444470390678">
        <ele>2005.01</ele>
        <time>2023-02-05T13:45:24Z</time>
      </trkpt>
      <trkpt lat="46.4268290810287" lon="8.423374816775322">
        <ele>2002.99</ele>
        <time>2023-02-05T13:45:40Z</time>
      </trkpt>
      <trkpt lat="46.426777951419353" lon="8.423404153436422">
        <ele>2000.47</ele>
        <time>2023-02-05T13:45:50Z</time>
      </trkpt>
      <trkpt lat="46.426739729940891" lon="8.423246238380671">
        <ele>1995.5699999999999</ele>
        <time>2023-02-05T13:46:04Z</time>
      </trkpt>
      <trkpt lat="46.426729839295149" lon="8.423164011910558">
        <ele>1993.46</ele>
        <time>2023-02-05T13:46:11Z</time>
      </trkpt>
      <trkpt lat="46.426722463220358" lon="8.423023698851466">
        <ele>1990.5699999999999</ele>
        <time>2023-02-05T13:46:22Z</time>
      </trkpt>
      <trkpt lat="46.426678542047739" lon="8.422901490703225">
        <ele>1986.04</ele>
        <time>2023-02-05T13:46:35Z</time>
      </trkpt>
      <trkpt lat="46.426624311134219" lon="8.422776181250811">
        <ele>1982.04</ele>
        <time>2023-02-05T13:46:48Z</time>
      </trkpt>
      <trkpt lat="46.426591873168945" lon="8.422778528183699">
        <ele>1981.28</ele>
        <time>2023-02-05T13:46:52Z</time>
      </trkpt>
      <trkpt lat="46.426545102149248" lon="8.422688841819763">
        <ele>1979.3099999999999</ele>
        <time>2023-02-05T13:47:03Z</time>
      </trkpt>
      <trkpt lat="46.426543593406677" lon="8.422675263136625">
        <ele>1979.3199999999999</ele>
        <time>2023-02-05T13:47:04Z</time>
      </trkpt>
      <trkpt lat="46.426531774923205" lon="8.422439731657505">
        <ele>1977.4300000000001</ele>
        <time>2023-02-05T13:47:19Z</time>
      </trkpt>
      <trkpt lat="46.426582988351583" lon="8.422211157158017">
        <ele>1975.8199999999999</ele>
        <time>2023-02-05T13:47:34Z</time>
      </trkpt>
      <trkpt lat="46.426682313904166" lon="8.422052571550012">
        <ele>1973.28</ele>
        <time>2023-02-05T13:47:47Z</time>
      </trkpt>
      <trkpt lat="46.426675943657756" lon="8.421857859939337">
        <ele>1969.1300000000001</ele>
        <time>2023-02-05T13:48:01Z</time>
      </trkpt>
      <trkpt lat="46.426656413823366" lon="8.421753840520978">
        <ele>1967.1300000000001</ele>
        <time>2023-02-05T13:48:10Z</time>
      </trkpt>
      <trkpt lat="46.426643757149577" lon="8.421730287373066">
        <ele>1966.6500000000001</ele>
        <time>2023-02-05T13:48:12Z</time>
      </trkpt>
      <trkpt lat="46.426613330841064" lon="8.421716708689928">
        <ele>1966.3299999999999</ele>
        <time>2023-02-05T13:48:15Z</time>
      </trkpt>
      <trkpt lat="46.426500175148249" lon="8.421794157475233">
        <ele>1963.4300000000001</ele>
        <time>2023-02-05T13:48:29Z</time>
      </trkpt>
      <trkpt lat="46.426428006961942" lon="8.421840760856867">
        <ele>1960.98</ele>
        <time>2023-02-05T13:48:38Z</time>
      </trkpt>
      <trkpt lat="46.426416775211692" lon="8.421861883252859">
        <ele>1960.55</ele>
        <time>2023-02-05T13:48:40Z</time>
      </trkpt>
      <trkpt lat="46.426402777433395" lon="8.421912426128984">
        <ele>1960.0599999999999</ele>
        <time>2023-02-05T13:48:44Z</time>
      </trkpt>
      <trkpt lat="46.426286268979311" lon="8.422141587361693">
        <ele>1957.8800000000001</ele>
        <time>2023-02-05T13:49:02Z</time>
      </trkpt>
      <trkpt lat="46.42618065699935" lon="8.422329090535641">
        <ele>1955.9400000000001</ele>
        <time>2023-02-05T13:49:17Z</time>
      </trkpt>
      <trkpt lat="46.426091054454446" lon="8.422512067481875">
        <ele>1954.25</ele>
        <time>2023-02-05T13:49:31Z</time>
      </trkpt>
      <trkpt lat="46.42603020183742" lon="8.422719771042466">
        <ele>1952.8699999999999</ele>
        <time>2023-02-05T13:49:45Z</time>
      </trkpt>
      <trkpt lat="46.425970522686839" lon="8.42295354232192">
        <ele>1950.8199999999999</ele>
        <time>2023-02-05T13:50:00Z</time>
      </trkpt>
      <trkpt lat="46.425820989534259" lon="8.423064183443785">
        <ele>1948.8399999999999</ele>
        <time>2023-02-05T13:50:15Z</time>
      </trkpt>
      <trkpt lat="46.425715545192361" lon="8.423017831519246">
        <ele>1947.22</ele>
        <time>2023-02-05T13:50:30Z</time>
      </trkpt>
      <trkpt lat="46.425724597647786" lon="8.423009952530265">
        <ele>1946.5599999999999</ele>
        <time>2023-02-05T13:50:44Z</time>
      </trkpt>
      <trkpt lat="46.425728453323245" lon="8.423004671931267">
        <ele>1945.8599999999999</ele>
        <time>2023-02-05T13:51:07Z</time>
      </trkpt>
      <trkpt lat="46.425726190209389" lon="8.423006515949965">
        <ele>1945.54</ele>
        <time>2023-02-05T13:51:26Z</time>
      </trkpt>
      <trkpt lat="46.425686627626419" lon="8.42302973382175">
        <ele>1945.9400000000001</ele>
        <time>2023-02-05T13:51:47Z</time>
      </trkpt>
      <trkpt lat="46.425701128318906" lon="8.423038451001048">
        <ele>1946.71</ele>
        <time>2023-02-05T13:52:12Z</time>
      </trkpt>
      <trkpt lat="46.425724513828754" lon="8.42301070690155">
        <ele>1946.76</ele>
        <time>2023-02-05T13:52:29Z</time>
      </trkpt>
      <trkpt lat="46.425735745579004" lon="8.423009198158979">
        <ele>1946.47</ele>
        <time>2023-02-05T13:52:46Z</time>
      </trkpt>
      <trkpt lat="46.425727196037769" lon="8.423009617254138">
        <ele>1946.1600000000001</ele>
        <time>2023-02-05T13:53:06Z</time>
      </trkpt>
      <trkpt lat="46.425718981772661" lon="8.423010287806392">
        <ele>1946.1199999999999</ele>
        <time>2023-02-05T13:53:07Z</time>
      </trkpt>
      <trkpt lat="46.425691489130259" lon="8.422995870932937">
        <ele>1945.9200000000001</ele>
        <time>2023-02-05T13:53:10Z</time>
      </trkpt>
      <trkpt lat="46.425561150535941" lon="8.422927558422089">
        <ele>1942.1900000000001</ele>
        <time>2023-02-05T13:53:24Z</time>
      </trkpt>
      <trkpt lat="46.425432739779353" lon="8.422942981123924">
        <ele>1936.76</ele>
        <time>2023-02-05T13:53:37Z</time>
      </trkpt>
      <trkpt lat="46.425277758389711" lon="8.422947926446796">
        <ele>1932.96</ele>
        <time>2023-02-05T13:53:51Z</time>
      </trkpt>
      <trkpt lat="46.425245068967342" lon="8.422945579513907">
        <ele>1932.2</ele>
        <time>2023-02-05T13:53:54Z</time>
      </trkpt>
      <trkpt lat="46.425239117816091" lon="8.422779701650143">
        <ele>1927.2</ele>
        <time>2023-02-05T13:54:07Z</time>
      </trkpt>
      <trkpt lat="46.425229059532285" lon="8.422731086611748">
        <ele>1925.8299999999999</ele>
        <time>2023-02-05T13:54:11Z</time>
      </trkpt>
      <trkpt lat="46.42526744864881" lon="8.422556659206748">
        <ele>1921.5699999999999</ele>
        <time>2023-02-05T13:54:25Z</time>
      </trkpt>
      <trkpt lat="46.42525177448988" lon="8.422395223751664">
        <ele>1917.77</ele>
        <time>2023-02-05T13:54:39Z</time>
      </trkpt>
      <trkpt lat="46.425250265747309" lon="8.422259856015444">
        <ele>1913.8399999999999</ele>
        <time>2023-02-05T13:54:51Z</time>
      </trkpt>
      <trkpt lat="46.4252386149019" lon="8.422108646482229">
        <ele>1910.9400000000001</ele>
        <time>2023-02-05T13:55:03Z</time>
      </trkpt>
      <trkpt lat="46.425225958228111" lon="8.421976463869214">
        <ele>1907.46</ele>
        <time>2023-02-05T13:55:16Z</time>
      </trkpt>
      <trkpt lat="46.425162004306912" lon="8.421890800818801">
        <ele>1904.46</ele>
        <time>2023-02-05T13:55:29Z</time>
      </trkpt>
      <trkpt lat="46.425070641562343" lon="8.421902619302273">
        <ele>1902.1800000000001</ele>
        <time>2023-02-05T13:55:40Z</time>
      </trkpt>
      <trkpt lat="46.425018925219774" lon="8.421878311783075">
        <ele>1899.1800000000001</ele>
        <time>2023-02-05T13:55:49Z</time>
      </trkpt>
      <trkpt lat="46.425076676532626" lon="8.42171436175704">
        <ele>1895.51</ele>
        <time>2023-02-05T13:56:02Z</time>
      </trkpt>
      <trkpt lat="46.425058236345649" lon="8.421678151935339">
        <ele>1894.03</ele>
        <time>2023-02-05T13:56:08Z</time>
      </trkpt>
      <trkpt lat="46.424910631030798" lon="8.421669015660882">
        <ele>1891.6199999999999</ele>
        <time>2023-02-05T13:56:23Z</time>
      </trkpt>
      <trkpt lat="46.42488338984549" lon="8.421671614050865">
        <ele>1890.99</ele>
        <time>2023-02-05T13:56:26Z</time>
      </trkpt>
      <trkpt lat="46.424859333783388" lon="8.42163423076272">
        <ele>1890.78</ele>
        <time>2023-02-05T13:56:30Z</time>
      </trkpt>
      <trkpt lat="46.42481591552496" lon="8.421572791412473">
        <ele>1889.5599999999999</ele>
        <time>2023-02-05T13:56:37Z</time>
      </trkpt>
      <trkpt lat="46.42469965852797" lon="8.421551501378417">
        <ele>1888.3900000000001</ele>
        <time>2023-02-05T13:56:49Z</time>
      </trkpt>
      <trkpt lat="46.424704268574715" lon="8.421530043706298">
        <ele>1887.9100000000001</ele>
        <time>2023-02-05T13:56:59Z</time>
      </trkpt>
      <trkpt lat="46.424704855307937" lon="8.421533899381757">
        <ele>1887.5899999999999</ele>
        <time>2023-02-05T13:57:10Z</time>
      </trkpt>
      <trkpt lat="46.42471382394433" lon="8.421516800299287">
        <ele>1886.5899999999999</ele>
        <time>2023-02-05T13:57:39Z</time>
      </trkpt>
      <trkpt lat="46.424706112593412" lon="8.421529205515981">
        <ele>1886.6199999999999</ele>
        <time>2023-02-05T13:57:53Z</time>
      </trkpt>
      <trkpt lat="46.424710555002093" lon="8.42152182944119">
        <ele>1886.6600000000001</ele>
        <time>2023-02-05T13:58:09Z</time>
      </trkpt>
      <trkpt lat="46.424711141735315" lon="8.42151646502316">
        <ele>1886.8800000000001</ele>
        <time>2023-02-05T13:58:21Z</time>
      </trkpt>
      <trkpt lat="46.42471281811595" lon="8.421512190252543">
        <ele>1887.25</ele>
        <time>2023-02-05T13:58:40Z</time>
      </trkpt>
      <trkpt lat="46.424712985754013" lon="8.421522667631507">
        <ele>1887.6800000000001</ele>
        <time>2023-02-05T13:58:53Z</time>
      </trkpt>
      <trkpt lat="46.424763444811106" lon="8.42155653052032">
        <ele>1888.75</ele>
        <time>2023-02-05T13:59:11Z</time>
      </trkpt>
      <trkpt lat="46.424836786463857" lon="8.421535240486264">
        <ele>1890.1900000000001</ele>
        <time>2023-02-05T13:59:21Z</time>
      </trkpt>
      <trkpt lat="46.424873247742653" lon="8.421615203842521">
        <ele>1892.0999999999999</ele>
        <time>2023-02-05T13:59:31Z</time>
      </trkpt>
      <trkpt lat="46.424900656566024" lon="8.421616042032838">
        <ele>1892.0899999999999</ele>
        <time>2023-02-05T13:59:41Z</time>
      </trkpt>
      <trkpt lat="46.42490585334599" lon="8.4216283634305">
        <ele>1891.6900000000001</ele>
        <time>2023-02-05T14:00:18Z</time>
      </trkpt>
      <trkpt lat="46.42487458884716" lon="8.421623334288597">
        <ele>1891.5</ele>
        <time>2023-02-05T14:00:29Z</time>
      </trkpt>
      <trkpt lat="46.42482521943748" lon="8.421576814725995">
        <ele>1889.6700000000001</ele>
        <time>2023-02-05T14:00:41Z</time>
      </trkpt>
      <trkpt lat="46.424814155325294" lon="8.421576898545027">
        <ele>1889.5899999999999</ele>
        <time>2023-02-05T14:00:43Z</time>
      </trkpt>
      <trkpt lat="46.424748776480556" lon="8.421585280448198">
        <ele>1888.6099999999999</ele>
        <time>2023-02-05T14:00:54Z</time>
      </trkpt>
      <trkpt lat="46.424687588587403" lon="8.421597266569734">
        <ele>1887.95</ele>
        <time>2023-02-05T14:01:01Z</time>
      </trkpt>
      <trkpt lat="46.42459899187088" lon="8.421673625707626">
        <ele>1887.21</ele>
        <time>2023-02-05T14:01:13Z</time>
      </trkpt>
      <trkpt lat="46.42456965520978" lon="8.421718804165721">
        <ele>1886.5599999999999</ele>
        <time>2023-02-05T14:01:18Z</time>
      </trkpt>
      <trkpt lat="46.424477370455861" lon="8.421893818303943">
        <ele>1885.22</ele>
        <time>2023-02-05T14:01:32Z</time>
      </trkpt>
      <trkpt lat="46.42431853339076" lon="8.421992305666208">
        <ele>1883.1800000000001</ele>
        <time>2023-02-05T14:01:46Z</time>
      </trkpt>
      <trkpt lat="46.424152236431837" lon="8.422080315649509">
        <ele>1879.6800000000001</ele>
        <time>2023-02-05T14:02:00Z</time>
      </trkpt>
      <trkpt lat="46.423980239778757" lon="8.421964477747679">
        <ele>1877.3900000000001</ele>
        <time>2023-02-05T14:02:15Z</time>
      </trkpt>
      <trkpt lat="46.423770943656564" lon="8.421905385330319">
        <ele>1874.52</ele>
        <time>2023-02-05T14:02:33Z</time>
      </trkpt>
      <trkpt lat="46.423629373311996" lon="8.42201292514801">
        <ele>1872.8499999999999</ele>
        <time>2023-02-05T14:02:46Z</time>
      </trkpt>
      <trkpt lat="46.423614118248224" lon="8.422021809965372">
        <ele>1872.6400000000001</ele>
        <time>2023-02-05T14:02:48Z</time>
      </trkpt>
      <trkpt lat="46.423579249531031" lon="8.422067239880562">
        <ele>1872.25</ele>
        <time>2023-02-05T14:02:52Z</time>
      </trkpt>
      <trkpt lat="46.423464417457581" lon="8.422168325632811">
        <ele>1871.75</ele>
        <time>2023-02-05T14:03:04Z</time>
      </trkpt>
      <trkpt lat="46.42335101030767" lon="8.422266310080886">
        <ele>1870.1600000000001</ele>
        <time>2023-02-05T14:03:16Z</time>
      </trkpt>
      <trkpt lat="46.423211116343737" lon="8.422366892918944">
        <ele>1867.95</ele>
        <time>2023-02-05T14:03:29Z</time>
      </trkpt>
      <trkpt lat="46.423046663403511" lon="8.422428416088224">
        <ele>1865.1500000000001</ele>
        <time>2023-02-05T14:03:44Z</time>
      </trkpt>
      <trkpt lat="46.422857735306025" lon="8.422495387494564">
        <ele>1862.4100000000001</ele>
        <time>2023-02-05T14:04:00Z</time>
      </trkpt>
      <trkpt lat="46.422675093635917" lon="8.422571076080203">
        <ele>1858.4000000000001</ele>
        <time>2023-02-05T14:04:17Z</time>
      </trkpt>
      <trkpt lat="46.422489937394857" lon="8.422614242881537">
        <ele>1855.8499999999999</ele>
        <time>2023-02-05T14:04:33Z</time>
      </trkpt>
      <trkpt lat="46.422294219955802" lon="8.422691775485873">
        <ele>1853.8399999999999</ele>
        <time>2023-02-05T14:04:51Z</time>
      </trkpt>
      <trkpt lat="46.422153320163488" lon="8.422726392745972">
        <ele>1851.8099999999999</ele>
        <time>2023-02-05T14:05:03Z</time>
      </trkpt>
      <trkpt lat="46.422005211934447" lon="8.422746760770679">
        <ele>1849.73</ele>
        <time>2023-02-05T14:05:16Z</time>
      </trkpt>
      <trkpt lat="46.421820558607578" lon="8.422819934785366">
        <ele>1846.45</ele>
        <time>2023-02-05T14:05:32Z</time>
      </trkpt>
      <trkpt lat="46.421742103993893" lon="8.42281767167151">
        <ele>1846.6900000000001</ele>
        <time>2023-02-05T14:05:38Z</time>
      </trkpt>
      <trkpt lat="46.421575471758842" lon="8.422811049968004">
        <ele>1845.28</ele>
        <time>2023-02-05T14:05:51Z</time>
      </trkpt>
      <trkpt lat="46.421431889757514" lon="8.422821275889874">
        <ele>1843.27</ele>
        <time>2023-02-05T14:06:03Z</time>
      </trkpt>
      <trkpt lat="46.421283781528473" lon="8.422813145443797">
        <ele>1842.21</ele>
        <time>2023-02-05T14:06:15Z</time>
      </trkpt>
      <trkpt lat="46.421136511489749" lon="8.422845499590039">
        <ele>1840.8099999999999</ele>
        <time>2023-02-05T14:06:27Z</time>
      </trkpt>
      <trkpt lat="46.421008100733161" lon="8.42287483625114">
        <ele>1838.48</ele>
        <time>2023-02-05T14:06:38Z</time>
      </trkpt>
      <trkpt lat="46.420920677483082" lon="8.422890845686197">
        <ele>1837.55</ele>
        <time>2023-02-05T14:06:45Z</time>
      </trkpt>
      <trkpt lat="46.420756224542856" lon="8.422906016930938">
        <ele>1836.5899999999999</ele>
        <time>2023-02-05T14:06:58Z</time>
      </trkpt>
      <trkpt lat="46.420588586479425" lon="8.422913728281856">
        <ele>1835.0699999999999</ele>
        <time>2023-02-05T14:07:11Z</time>
      </trkpt>
      <trkpt lat="46.420454140752554" lon="8.422905430197716">
        <ele>1833.9100000000001</ele>
        <time>2023-02-05T14:07:21Z</time>
      </trkpt>
      <trkpt lat="46.420334447175264" lon="8.4228958748281">
        <ele>1833.0799999999999</ele>
        <time>2023-02-05T14:07:31Z</time>
      </trkpt>
      <trkpt lat="46.420273091644049" lon="8.422895623371005">
        <ele>1832.6300000000001</ele>
        <time>2023-02-05T14:07:36Z</time>
      </trkpt>
      <trkpt lat="46.420230930671096" lon="8.422877937555313">
        <ele>1832.3499999999999</ele>
        <time>2023-02-05T14:07:41Z</time>
      </trkpt>
      <trkpt lat="46.420189021155238" lon="8.422865029424429">
        <ele>1832.1800000000001</ele>
        <time>2023-02-05T14:07:45Z</time>
      </trkpt>
      <trkpt lat="46.420065807178617" lon="8.422855222597718">
        <ele>1832.0699999999999</ele>
        <time>2023-02-05T14:07:56Z</time>
      </trkpt>
      <trkpt lat="46.419920464977622" lon="8.422818090766668">
        <ele>1830.75</ele>
        <time>2023-02-05T14:08:09Z</time>
      </trkpt>
      <trkpt lat="46.419774955138564" lon="8.422767883166671">
        <ele>1828.8299999999999</ele>
        <time>2023-02-05T14:08:22Z</time>
      </trkpt>
      <trkpt lat="46.419639503583312" lon="8.42275857925415">
        <ele>1826.3399999999999</ele>
        <time>2023-02-05T14:08:34Z</time>
      </trkpt>
      <trkpt lat="46.419517127797008" lon="8.422693703323603">
        <ele>1824.51</ele>
        <time>2023-02-05T14:08:45Z</time>
      </trkpt>
      <trkpt lat="46.419361475855112" lon="8.422583229839802">
        <ele>1822.1400000000001</ele>
        <time>2023-02-05T14:09:00Z</time>
      </trkpt>
      <trkpt lat="46.419210266321898" lon="8.422496980056167">
        <ele>1820.05</ele>
        <time>2023-02-05T14:09:14Z</time>
      </trkpt>
      <trkpt lat="46.419071210548282" lon="8.422423889860511">
        <ele>1818.55</ele>
        <time>2023-02-05T14:09:27Z</time>
      </trkpt>
      <trkpt lat="46.418933914974332" lon="8.422378208488226">
        <ele>1816.8199999999999</ele>
        <time>2023-02-05T14:09:39Z</time>
      </trkpt>
      <trkpt lat="46.418787064030766" lon="8.422340406104922">
        <ele>1814.95</ele>
        <time>2023-02-05T14:09:52Z</time>
      </trkpt>
      <trkpt lat="46.41864113509655" lon="8.422264968976378">
        <ele>1813.79</ele>
        <time>2023-02-05T14:10:05Z</time>
      </trkpt>
      <trkpt lat="46.418481627479196" lon="8.422184670343995">
        <ele>1812.5799999999999</ele>
        <time>2023-02-05T14:10:19Z</time>
      </trkpt>
      <trkpt lat="46.418388588353992" lon="8.422150555998087">
        <ele>1811.27</ele>
        <time>2023-02-05T14:10:27Z</time>
      </trkpt>
      <trkpt lat="46.418339051306248" lon="8.422137899324298">
        <ele>1810.49</ele>
        <time>2023-02-05T14:10:31Z</time>
      </trkpt>
      <trkpt lat="46.418316001072526" lon="8.422130523249507">
        <ele>1810.04</ele>
        <time>2023-02-05T14:10:33Z</time>
      </trkpt>
      <trkpt lat="46.418262859806418" lon="8.42208324931562">
        <ele>1809.5899999999999</ele>
        <time>2023-02-05T14:10:38Z</time>
      </trkpt>
      <trkpt lat="46.418120199814439" lon="8.421980990096927">
        <ele>1808.8900000000001</ele>
        <time>2023-02-05T14:10:51Z</time>
      </trkpt>
      <trkpt lat="46.417989525943995" lon="8.421886609867215">
        <ele>1808.54</ele>
        <time>2023-02-05T14:11:03Z</time>
      </trkpt>
      <trkpt lat="46.417841836810112" lon="8.42175199650228">
        <ele>1807.3900000000001</ele>
        <time>2023-02-05T14:11:17Z</time>
      </trkpt>
      <trkpt lat="46.417687945067883" lon="8.421610426157713">
        <ele>1806.0899999999999</ele>
        <time>2023-02-05T14:11:32Z</time>
      </trkpt>
      <trkpt lat="46.417558528482914" lon="8.421490648761392">
        <ele>1806.0599999999999</ele>
        <time>2023-02-05T14:11:44Z</time>
      </trkpt>
      <trkpt lat="46.41750899143517" lon="8.421464329585433">
        <ele>1806.3299999999999</ele>
        <time>2023-02-05T14:11:48Z</time>
      </trkpt>
      <trkpt lat="46.417452581226826" lon="8.421429041773081">
        <ele>1806.4000000000001</ele>
        <time>2023-02-05T14:11:53Z</time>
      </trkpt>
      <trkpt lat="46.417316710576415" lon="8.421374643221498">
        <ele>1806.0899999999999</ele>
        <time>2023-02-05T14:12:05Z</time>
      </trkpt>
      <trkpt lat="46.417222917079926" lon="8.421259392052889">
        <ele>1806.3499999999999</ele>
        <time>2023-02-05T14:12:16Z</time>
      </trkpt>
      <trkpt lat="46.417227946221828" lon="8.421201473101974">
        <ele>1805.5599999999999</ele>
        <time>2023-02-05T14:12:21Z</time>
      </trkpt>
      <trkpt lat="46.417246554046869" lon="8.421197617426515">
        <ele>1804.8299999999999</ele>
        <time>2023-02-05T14:12:23Z</time>
      </trkpt>
      <trkpt lat="46.417367169633508" lon="8.421246986836195">
        <ele>1802.78</ele>
        <time>2023-02-05T14:12:35Z</time>
      </trkpt>
      <trkpt lat="46.417504297569394" lon="8.421267354860902">
        <ele>1800.6700000000001</ele>
        <time>2023-02-05T14:12:47Z</time>
      </trkpt>
      <trkpt lat="46.417653914541006" lon="8.421324687078595">
        <ele>1797.8</ele>
        <time>2023-02-05T14:13:00Z</time>
      </trkpt>
      <trkpt lat="46.41780411824584" lon="8.421389646828175">
        <ele>1795.7</ele>
        <time>2023-02-05T14:13:13Z</time>
      </trkpt>
      <trkpt lat="46.417954992502928" lon="8.421471454203129">
        <ele>1793.54</ele>
        <time>2023-02-05T14:13:26Z</time>
      </trkpt>
      <trkpt lat="46.418135454878211" lon="8.42153406701982">
        <ele>1791.71</ele>
        <time>2023-02-05T14:13:41Z</time>
      </trkpt>
      <trkpt lat="46.418315749615431" lon="8.421561308205128">
        <ele>1788.8800000000001</ele>
        <time>2023-02-05T14:13:56Z</time>
      </trkpt>
      <trkpt lat="46.418522112071514" lon="8.421523757278919">
        <ele>1785.3299999999999</ele>
        <time>2023-02-05T14:14:13Z</time>
      </trkpt>
      <trkpt lat="46.418727384880185" lon="8.421456618234515">
        <ele>1782.1800000000001</ele>
        <time>2023-02-05T14:14:31Z</time>
      </trkpt>
      <trkpt lat="46.418926706537604" lon="8.421376654878259">
        <ele>1778.9300000000001</ele>
        <time>2023-02-05T14:14:49Z</time>
      </trkpt>
      <trkpt lat="46.419119825586677" lon="8.421305576339364">
        <ele>1776.05</ele>
        <time>2023-02-05T14:15:06Z</time>
      </trkpt>
      <trkpt lat="46.419353680685163" lon="8.421249585226178">
        <ele>1772.8499999999999</ele>
        <time>2023-02-05T14:15:26Z</time>
      </trkpt>
      <trkpt lat="46.41958518885076" lon="8.421105081215501">
        <ele>1769.5799999999999</ele>
        <time>2023-02-05T14:15:47Z</time>
      </trkpt>
      <trkpt lat="46.419797837734222" lon="8.420908190310001">
        <ele>1766.04</ele>
        <time>2023-02-05T14:16:08Z</time>
      </trkpt>
      <trkpt lat="46.419949801638722" lon="8.420753544196487">
        <ele>1763.29</ele>
        <time>2023-02-05T14:16:24Z</time>
      </trkpt>
      <trkpt lat="46.420101849362254" lon="8.420588169246912">
        <ele>1760.8199999999999</ele>
        <time>2023-02-05T14:16:40Z</time>
      </trkpt>
      <trkpt lat="46.420229589566588" lon="8.42040192335844">
        <ele>1758.47</ele>
        <time>2023-02-05T14:16:56Z</time>
      </trkpt>
      <trkpt lat="46.4202946331352" lon="8.420169744640589">
        <ele>1755.75</ele>
        <time>2023-02-05T14:17:11Z</time>
      </trkpt>
      <trkpt lat="46.420367136597633" lon="8.419966148212552">
        <ele>1753.8699999999999</ele>
        <time>2023-02-05T14:17:25Z</time>
      </trkpt>
      <trkpt lat="46.420495882630348" lon="8.419736735522747">
        <ele>1752.0599999999999</ele>
        <time>2023-02-05T14:17:42Z</time>
      </trkpt>
      <trkpt lat="46.420641392469406" lon="8.419525511562824">
        <ele>1750.4200000000001</ele>
        <time>2023-02-05T14:17:59Z</time>
      </trkpt>
      <trkpt lat="46.420800732448697" lon="8.419306995347142">
        <ele>1748.1300000000001</ele>
        <time>2023-02-05T14:18:17Z</time>
      </trkpt>
      <trkpt lat="46.420948840677738" lon="8.419105913490057">
        <ele>1747.1400000000001</ele>
        <time>2023-02-05T14:18:34Z</time>
      </trkpt>
      <trkpt lat="46.421073144301772" lon="8.418934252113104">
        <ele>1745.46</ele>
        <time>2023-02-05T14:18:49Z</time>
      </trkpt>
      <trkpt lat="46.421206835657358" lon="8.418728476390243">
        <ele>1743.01</ele>
        <time>2023-02-05T14:19:06Z</time>
      </trkpt>
      <trkpt lat="46.421256875619292" lon="8.418430332094431">
        <ele>1740.03</ele>
        <time>2023-02-05T14:19:25Z</time>
      </trkpt>
      <trkpt lat="46.42124455422163" lon="8.418192621320486">
        <ele>1738.3699999999999</ele>
        <time>2023-02-05T14:19:41Z</time>
      </trkpt>
      <trkpt lat="46.421224270015955" lon="8.417968405410647">
        <ele>1737.3499999999999</ele>
        <time>2023-02-05T14:19:55Z</time>
      </trkpt>
      <trkpt lat="46.421187808737159" lon="8.417702112346888">
        <ele>1736.75</ele>
        <time>2023-02-05T14:20:12Z</time>
      </trkpt>
      <trkpt lat="46.421137433499098" lon="8.417493654415011">
        <ele>1737.1300000000001</ele>
        <time>2023-02-05T14:20:26Z</time>
      </trkpt>
      <trkpt lat="46.421068785712123" lon="8.417372032999992">
        <ele>1737.1500000000001</ele>
        <time>2023-02-05T14:20:37Z</time>
      </trkpt>
      <trkpt lat="46.420898297801614" lon="8.417322495952249">
        <ele>1736.1300000000001</ele>
        <time>2023-02-05T14:20:52Z</time>
      </trkpt>
      <trkpt lat="46.420741556212306" lon="8.417253429070115">
        <ele>1736.03</ele>
        <time>2023-02-05T14:21:07Z</time>
      </trkpt>
      <trkpt lat="46.420600572600961" lon="8.417152594774962">
        <ele>1735.74</ele>
        <time>2023-02-05T14:21:21Z</time>
      </trkpt>
      <trkpt lat="46.420439388602972" lon="8.417071038857102">
        <ele>1735.1800000000001</ele>
        <time>2023-02-05T14:21:36Z</time>
      </trkpt>
      <trkpt lat="46.420286502689123" lon="8.417086377739906">
        <ele>1734.26</ele>
        <time>2023-02-05T14:21:49Z</time>
      </trkpt>
      <trkpt lat="46.420205365866423" lon="8.417116636410356">
        <ele>1733.6500000000001</ele>
        <time>2023-02-05T14:22:02Z</time>
      </trkpt>
      <trkpt lat="46.420215843245387" lon="8.417105153203011">
        <ele>1733.21</ele>
        <time>2023-02-05T14:22:15Z</time>
      </trkpt>
      <trkpt lat="46.420216765254736" lon="8.417098447680473">
        <ele>1733.1900000000001</ele>
        <time>2023-02-05T14:22:30Z</time>
      </trkpt>
      <trkpt lat="46.420221542939544" lon="8.417096771299839">
        <ele>1733.3699999999999</ele>
        <time>2023-02-05T14:22:52Z</time>
      </trkpt>
      <trkpt lat="46.420222297310829" lon="8.41707581654191">
        <ele>1733.1199999999999</ele>
        <time>2023-02-05T14:23:05Z</time>
      </trkpt>
      <trkpt lat="46.420210478827357" lon="8.41702158562839">
        <ele>1733.55</ele>
        <time>2023-02-05T14:23:15Z</time>
      </trkpt>
      <trkpt lat="46.420206455513835" lon="8.417008677497506">
        <ele>1733.8499999999999</ele>
        <time>2023-02-05T14:23:18Z</time>
      </trkpt>
      <trkpt lat="46.420143926516175" lon="8.416879931464791">
        <ele>1733.76</ele>
        <time>2023-02-05T14:23:29Z</time>
      </trkpt>
      <trkpt lat="46.420112745836377" lon="8.416881104931235">
        <ele>1733.3800000000001</ele>
        <time>2023-02-05T14:23:32Z</time>
      </trkpt>
      <trkpt lat="46.420006882399321" lon="8.416881524026394">
        <ele>1733.1700000000001</ele>
        <time>2023-02-05T14:23:44Z</time>
      </trkpt>
      <trkpt lat="46.419895319268107" lon="8.416826538741589">
        <ele>1733.0799999999999</ele>
        <time>2023-02-05T14:23:56Z</time>
      </trkpt>
      <trkpt lat="46.419878639280796" lon="8.416835004463792">
        <ele>1733.23</ele>
        <time>2023-02-05T14:23:58Z</time>
      </trkpt>
      <trkpt lat="46.419860115274787" lon="8.416848331689835">
        <ele>1733.3</ele>
        <time>2023-02-05T14:24:00Z</time>
      </trkpt>
      <trkpt lat="46.419833544641733" lon="8.416852438822389">
        <ele>1733.74</ele>
        <time>2023-02-05T14:24:03Z</time>
      </trkpt>
      <trkpt lat="46.419750479981303" lon="8.416669294238091">
        <ele>1734.29</ele>
        <time>2023-02-05T14:24:19Z</time>
      </trkpt>
      <trkpt lat="46.419662134721875" lon="8.416545074433088">
        <ele>1734.4400000000001</ele>
        <time>2023-02-05T14:24:32Z</time>
      </trkpt>
      <trkpt lat="46.419643191620708" lon="8.416549684479833">
        <ele>1734.52</ele>
        <time>2023-02-05T14:24:34Z</time>
      </trkpt>
      <trkpt lat="46.419508829712868" lon="8.416568962857127">
        <ele>1734.1099999999999</ele>
        <time>2023-02-05T14:24:48Z</time>
      </trkpt>
      <trkpt lat="46.419333731755614" lon="8.416544068604708">
        <ele>1733.76</ele>
        <time>2023-02-05T14:25:04Z</time>
      </trkpt>
      <trkpt lat="46.419193167239428" lon="8.416502745822072">
        <ele>1733.74</ele>
        <time>2023-02-05T14:25:18Z</time>
      </trkpt>
      <trkpt lat="46.419064002111554" lon="8.416491178795695">
        <ele>1734.0799999999999</ele>
        <time>2023-02-05T14:25:30Z</time>
      </trkpt>
      <trkpt lat="46.418930310755968" lon="8.416498973965645">
        <ele>1733.3299999999999</ele>
        <time>2023-02-05T14:25:43Z</time>
      </trkpt>
      <trkpt lat="46.418784549459815" lon="8.416529148817062">
        <ele>1732.1500000000001</ele>
        <time>2023-02-05T14:25:56Z</time>
      </trkpt>
      <trkpt lat="46.418651025742292" lon="8.416564771905541">
        <ele>1732.1400000000001</ele>
        <time>2023-02-05T14:26:08Z</time>
      </trkpt>
      <trkpt lat="46.418490763753653" lon="8.416538201272488">
        <ele>1731.8900000000001</ele>
        <time>2023-02-05T14:26:22Z</time>
      </trkpt>
      <trkpt lat="46.418330082669854" lon="8.416489334776998">
        <ele>1731.6700000000001</ele>
        <time>2023-02-05T14:26:36Z</time>
      </trkpt>
      <trkpt lat="46.418167389929295" lon="8.416451532393694">
        <ele>1730.5699999999999</ele>
        <time>2023-02-05T14:26:50Z</time>
      </trkpt>
      <trkpt lat="46.418026238679886" lon="8.41642253100872">
        <ele>1729.6500000000001</ele>
        <time>2023-02-05T14:27:02Z</time>
      </trkpt>
      <trkpt lat="46.417816439643502" lon="8.416353296488524">
        <ele>1728.3800000000001</ele>
        <time>2023-02-05T14:27:20Z</time>
      </trkpt>
      <trkpt lat="46.417636564001441" lon="8.416286241263151">
        <ele>1727.7</ele>
        <time>2023-02-05T14:27:36Z</time>
      </trkpt>
      <trkpt lat="46.417476637288928" lon="8.416218180209398">
        <ele>1727.0699999999999</ele>
        <time>2023-02-05T14:27:50Z</time>
      </trkpt>
      <trkpt lat="46.417313776910305" lon="8.416138552129269">
        <ele>1726.6900000000001</ele>
        <time>2023-02-05T14:28:05Z</time>
      </trkpt>
      <trkpt lat="46.417147563770413" lon="8.416025647893548">
        <ele>1724.77</ele>
        <time>2023-02-05T14:28:21Z</time>
      </trkpt>
      <trkpt lat="46.41704086214304" lon="8.415915761142969">
        <ele>1726.4000000000001</ele>
        <time>2023-02-05T14:28:33Z</time>
      </trkpt>
      <trkpt lat="46.416952013969421" lon="8.415785506367683">
        <ele>1727.1300000000001</ele>
        <time>2023-02-05T14:28:46Z</time>
      </trkpt>
      <trkpt lat="46.416913121938705" lon="8.415761031210423">
        <ele>1727.3199999999999</ele>
        <time>2023-02-05T14:28:50Z</time>
      </trkpt>
      <trkpt lat="46.416882527992129" lon="8.415730856359005">
        <ele>1727.5799999999999</ele>
        <time>2023-02-05T14:28:54Z</time>
      </trkpt>
      <trkpt lat="46.416824944317341" lon="8.415752984583378">
        <ele>1727.6300000000001</ele>
        <time>2023-02-05T14:29:00Z</time>
      </trkpt>
      <trkpt lat="46.41670223325491" lon="8.415609570220113">
        <ele>1727.4100000000001</ele>
        <time>2023-02-05T14:29:16Z</time>
      </trkpt>
      <trkpt lat="46.4166768360883" lon="8.415582748129964">
        <ele>1728.3699999999999</ele>
        <time>2023-02-05T14:29:30Z</time>
      </trkpt>
      <trkpt lat="46.416662838310003" lon="8.415580736473203">
        <ele>1729.8</ele>
        <time>2023-02-05T14:29:48Z</time>
      </trkpt>
      <trkpt lat="46.41666023992002" lon="8.415591381490231">
        <ele>1730.0899999999999</ele>
        <time>2023-02-05T14:30:15Z</time>
      </trkpt>
      <trkpt lat="46.416624197736382" lon="8.415551232174039">
        <ele>1729.79</ele>
        <time>2023-02-05T14:30:26Z</time>
      </trkpt>
      <trkpt lat="46.416608523577452" lon="8.415539748966694">
        <ele>1729.6700000000001</ele>
        <time>2023-02-05T14:30:32Z</time>
      </trkpt>
      <trkpt lat="46.416499894112349" lon="8.415411841124296">
        <ele>1729.97</ele>
        <time>2023-02-05T14:30:46Z</time>
      </trkpt>
      <trkpt lat="46.416352456435561" lon="8.415325256064534">
        <ele>1730.1500000000001</ele>
        <time>2023-02-05T14:31:01Z</time>
      </trkpt>
      <trkpt lat="46.416349187493324" lon="8.41524101793766">
        <ele>1729.4000000000001</ele>
        <time>2023-02-05T14:31:15Z</time>
      </trkpt>
      <trkpt lat="46.416352121159434" lon="8.415218973532319">
        <ele>1728.24</ele>
        <time>2023-02-05T14:31:40Z</time>
      </trkpt>
    </trkseg>
  </trk>

</gpx>